<?xml version="1.0" encoding="UTF-8" standalone="no" ?>
<gpx xmlns="http://www.topografix.com/GPX/1/1" xmlns:xsi="http://www.w3.org/2001/XMLSchema-instance" xsi:schemaLocation="http://www.topografix.com/GPX/1/1 http://www.topografix.com/GPX/1/1/gpx.xsd" version="1.1" creator="VisuGPX - https://www.visugpx.com">
  <metadata>
    <name>Pic d'Estibat en raquettes </name>
  </metadata>
  <trk>
    <name><![CDATA[SityTrail - Pic d'Estibat en raquettes ]]></name>
    <trkseg>
      <trkpt lat="42.89859" lon="1.45291">
        <ele>1253</ele>
        <time>2022-01-29T10:36:29.155Z</time>
      </trkpt>
      <trkpt lat="42.89858" lon="1.45291">
        <ele>1253</ele>
        <time>2022-01-29T10:36:29.645Z</time>
      </trkpt>
      <trkpt lat="42.89855" lon="1.45288">
        <ele>1253</ele>
        <time>2022-01-29T10:36:34.326Z</time>
      </trkpt>
      <trkpt lat="42.8985" lon="1.45285">
        <ele>1253</ele>
        <time>2022-01-29T10:36:42.341Z</time>
      </trkpt>
      <trkpt lat="42.89848" lon="1.45285">
        <ele>1253</ele>
        <time>2022-01-29T10:36:46.370Z</time>
      </trkpt>
      <trkpt lat="42.89844" lon="1.45285">
        <ele>1259</ele>
        <time>2022-01-29T10:36:50.395Z</time>
      </trkpt>
      <trkpt lat="42.8984" lon="1.45284">
        <ele>1259</ele>
        <time>2022-01-29T10:36:55.357Z</time>
      </trkpt>
      <trkpt lat="42.89837" lon="1.45286">
        <ele>1259</ele>
        <time>2022-01-29T10:36:59.443Z</time>
      </trkpt>
      <trkpt lat="42.89832" lon="1.45286">
        <ele>1259</ele>
        <time>2022-01-29T10:37:04.369Z</time>
      </trkpt>
      <trkpt lat="42.89829" lon="1.45288">
        <ele>1259</ele>
        <time>2022-01-29T10:37:08.371Z</time>
      </trkpt>
      <trkpt lat="42.89827" lon="1.45291">
        <ele>1259</ele>
        <time>2022-01-29T10:37:13.371Z</time>
      </trkpt>
      <trkpt lat="42.89824" lon="1.45294">
        <ele>1257</ele>
        <time>2022-01-29T10:37:18.372Z</time>
      </trkpt>
      <trkpt lat="42.89821" lon="1.45296">
        <ele>1257</ele>
        <time>2022-01-29T10:37:22.364Z</time>
      </trkpt>
      <trkpt lat="42.89818" lon="1.453">
        <ele>1265</ele>
        <time>2022-01-29T10:37:27.357Z</time>
      </trkpt>
      <trkpt lat="42.89816" lon="1.45302">
        <ele>1265</ele>
        <time>2022-01-29T10:37:31.371Z</time>
      </trkpt>
      <trkpt lat="42.89811" lon="1.45304">
        <ele>1265</ele>
        <time>2022-01-29T10:37:36.374Z</time>
      </trkpt>
      <trkpt lat="42.89807" lon="1.45305">
        <ele>1265</ele>
        <time>2022-01-29T10:37:41.375Z</time>
      </trkpt>
      <trkpt lat="42.89806" lon="1.45306">
        <ele>1265</ele>
        <time>2022-01-29T10:37:45.374Z</time>
      </trkpt>
      <trkpt lat="42.89803" lon="1.45308">
        <ele>1265</ele>
        <time>2022-01-29T10:37:50.375Z</time>
      </trkpt>
      <trkpt lat="42.898" lon="1.45311">
        <ele>1265</ele>
        <time>2022-01-29T10:37:54.441Z</time>
      </trkpt>
      <trkpt lat="42.89796" lon="1.45314">
        <ele>1265</ele>
        <time>2022-01-29T10:37:59.374Z</time>
      </trkpt>
      <trkpt lat="42.89793" lon="1.45316">
        <ele>1265</ele>
        <time>2022-01-29T10:38:03.373Z</time>
      </trkpt>
      <trkpt lat="42.8979" lon="1.45316">
        <ele>1274</ele>
        <time>2022-01-29T10:38:08.373Z</time>
      </trkpt>
      <trkpt lat="42.89787" lon="1.45317">
        <ele>1274</ele>
        <time>2022-01-29T10:38:12.372Z</time>
      </trkpt>
      <trkpt lat="42.89784" lon="1.45317">
        <ele>1274</ele>
        <time>2022-01-29T10:38:16.372Z</time>
      </trkpt>
      <trkpt lat="42.89782" lon="1.45319">
        <ele>1274</ele>
        <time>2022-01-29T10:38:21.370Z</time>
      </trkpt>
      <trkpt lat="42.89779" lon="1.45322">
        <ele>1270</ele>
        <time>2022-01-29T10:38:26.373Z</time>
      </trkpt>
      <trkpt lat="42.89776" lon="1.45326">
        <ele>1270</ele>
        <time>2022-01-29T10:38:31.370Z</time>
      </trkpt>
      <trkpt lat="42.89773" lon="1.45327">
        <ele>1270</ele>
        <time>2022-01-29T10:38:36.370Z</time>
      </trkpt>
      <trkpt lat="42.8977" lon="1.45328">
        <ele>1270</ele>
        <time>2022-01-29T10:38:40.436Z</time>
      </trkpt>
      <trkpt lat="42.89768" lon="1.4533">
        <ele>1270</ele>
        <time>2022-01-29T10:38:45.379Z</time>
      </trkpt>
      <trkpt lat="42.89766" lon="1.45331">
        <ele>1270</ele>
        <time>2022-01-29T10:38:50.373Z</time>
      </trkpt>
      <trkpt lat="42.89763" lon="1.45332">
        <ele>1278</ele>
        <time>2022-01-29T10:38:55.372Z</time>
      </trkpt>
      <trkpt lat="42.8976" lon="1.45334">
        <ele>1278</ele>
        <time>2022-01-29T10:39:00.372Z</time>
      </trkpt>
      <trkpt lat="42.89757" lon="1.45336">
        <ele>1278</ele>
        <time>2022-01-29T10:39:04.372Z</time>
      </trkpt>
      <trkpt lat="42.89754" lon="1.45337">
        <ele>1278</ele>
        <time>2022-01-29T10:39:09.372Z</time>
      </trkpt>
      <trkpt lat="42.89753" lon="1.45339">
        <ele>1278</ele>
        <time>2022-01-29T10:39:13.375Z</time>
      </trkpt>
      <trkpt lat="42.89751" lon="1.45342">
        <ele>1278</ele>
        <time>2022-01-29T10:39:18.373Z</time>
      </trkpt>
      <trkpt lat="42.89748" lon="1.45343">
        <ele>1278</ele>
        <time>2022-01-29T10:39:22.374Z</time>
      </trkpt>
      <trkpt lat="42.89745" lon="1.45344">
        <ele>1278</ele>
        <time>2022-01-29T10:39:27.372Z</time>
      </trkpt>
      <trkpt lat="42.89741" lon="1.45346">
        <ele>1278</ele>
        <time>2022-01-29T10:39:32.371Z</time>
      </trkpt>
      <trkpt lat="42.89739" lon="1.45349">
        <ele>1271</ele>
        <time>2022-01-29T10:39:37.372Z</time>
      </trkpt>
      <trkpt lat="42.89737" lon="1.45351">
        <ele>1271</ele>
        <time>2022-01-29T10:39:42.375Z</time>
      </trkpt>
      <trkpt lat="42.89736" lon="1.45354">
        <ele>1279</ele>
        <time>2022-01-29T10:39:47.374Z</time>
      </trkpt>
      <trkpt lat="42.89734" lon="1.45355">
        <ele>1279</ele>
        <time>2022-01-29T10:39:51.456Z</time>
      </trkpt>
      <trkpt lat="42.89731" lon="1.45356">
        <ele>1279</ele>
        <time>2022-01-29T10:39:56.376Z</time>
      </trkpt>
      <trkpt lat="42.89729" lon="1.45357">
        <ele>1279</ele>
        <time>2022-01-29T10:40:01.375Z</time>
      </trkpt>
      <trkpt lat="42.8972" lon="1.45361">
        <ele>1279</ele>
        <time>2022-01-29T10:40:11.368Z</time>
      </trkpt>
      <trkpt lat="42.89718" lon="1.45363">
        <ele>1279</ele>
        <time>2022-01-29T10:40:15.372Z</time>
      </trkpt>
      <trkpt lat="42.89716" lon="1.45366">
        <ele>1279</ele>
        <time>2022-01-29T10:40:19.374Z</time>
      </trkpt>
      <trkpt lat="42.89715" lon="1.45367">
        <ele>1279</ele>
        <time>2022-01-29T10:40:24.373Z</time>
      </trkpt>
      <trkpt lat="42.89712" lon="1.45368">
        <ele>1279</ele>
        <time>2022-01-29T10:40:28.373Z</time>
      </trkpt>
      <trkpt lat="42.89708" lon="1.4537">
        <ele>1287</ele>
        <time>2022-01-29T10:40:33.370Z</time>
      </trkpt>
      <trkpt lat="42.89706" lon="1.45371">
        <ele>1287</ele>
        <time>2022-01-29T10:40:37.369Z</time>
      </trkpt>
      <trkpt lat="42.89702" lon="1.45374">
        <ele>1287</ele>
        <time>2022-01-29T10:40:42.442Z</time>
      </trkpt>
      <trkpt lat="42.89698" lon="1.45376">
        <ele>1281</ele>
        <time>2022-01-29T10:40:47.372Z</time>
      </trkpt>
      <trkpt lat="42.89696" lon="1.45376">
        <ele>1281</ele>
        <time>2022-01-29T10:40:51.379Z</time>
      </trkpt>
      <trkpt lat="42.89694" lon="1.45379">
        <ele>1281</ele>
        <time>2022-01-29T10:40:56.375Z</time>
      </trkpt>
      <trkpt lat="42.89692" lon="1.45382">
        <ele>1281</ele>
        <time>2022-01-29T10:41:00.452Z</time>
      </trkpt>
      <trkpt lat="42.89688" lon="1.45384">
        <ele>1281</ele>
        <time>2022-01-29T10:41:05.377Z</time>
      </trkpt>
      <trkpt lat="42.89686" lon="1.45386">
        <ele>1281</ele>
        <time>2022-01-29T10:41:10.373Z</time>
      </trkpt>
      <trkpt lat="42.89682" lon="1.45388">
        <ele>1281</ele>
        <time>2022-01-29T10:41:15.374Z</time>
      </trkpt>
      <trkpt lat="42.8968" lon="1.4539">
        <ele>1286</ele>
        <time>2022-01-29T10:41:20.377Z</time>
      </trkpt>
      <trkpt lat="42.89676" lon="1.45393">
        <ele>1286</ele>
        <time>2022-01-29T10:41:24.377Z</time>
      </trkpt>
      <trkpt lat="42.89672" lon="1.45397">
        <ele>1286</ele>
        <time>2022-01-29T10:41:29.374Z</time>
      </trkpt>
      <trkpt lat="42.89664" lon="1.45398">
        <ele>1286</ele>
        <time>2022-01-29T10:41:44.375Z</time>
      </trkpt>
      <trkpt lat="42.89662" lon="1.45397">
        <ele>1286</ele>
        <time>2022-01-29T10:41:49.373Z</time>
      </trkpt>
      <trkpt lat="42.89662" lon="1.45394">
        <ele>1286</ele>
        <time>2022-01-29T10:41:54.372Z</time>
      </trkpt>
      <trkpt lat="42.89662" lon="1.45391">
        <ele>1286</ele>
        <time>2022-01-29T10:41:58.374Z</time>
      </trkpt>
      <trkpt lat="42.89663" lon="1.45388">
        <ele>1286</ele>
        <time>2022-01-29T10:42:03.375Z</time>
      </trkpt>
      <trkpt lat="42.89663" lon="1.45383">
        <ele>1286</ele>
        <time>2022-01-29T10:42:12.374Z</time>
      </trkpt>
      <trkpt lat="42.89662" lon="1.4538">
        <ele>1286</ele>
        <time>2022-01-29T10:42:16.372Z</time>
      </trkpt>
      <trkpt lat="42.89661" lon="1.45377">
        <ele>1286</ele>
        <time>2022-01-29T10:42:21.372Z</time>
      </trkpt>
      <trkpt lat="42.8966" lon="1.45375">
        <ele>1286</ele>
        <time>2022-01-29T10:42:25.377Z</time>
      </trkpt>
      <trkpt lat="42.8966" lon="1.4537">
        <ele>1292</ele>
        <time>2022-01-29T10:42:30.376Z</time>
      </trkpt>
      <trkpt lat="42.89659" lon="1.45363">
        <ele>1292</ele>
        <time>2022-01-29T10:42:39.373Z</time>
      </trkpt>
      <trkpt lat="42.89658" lon="1.45361">
        <ele>1292</ele>
        <time>2022-01-29T10:42:44.374Z</time>
      </trkpt>
      <trkpt lat="42.89657" lon="1.45357">
        <ele>1292</ele>
        <time>2022-01-29T10:42:49.375Z</time>
      </trkpt>
      <trkpt lat="42.89659" lon="1.45354">
        <ele>1292</ele>
        <time>2022-01-29T10:42:53.373Z</time>
      </trkpt>
      <trkpt lat="42.89659" lon="1.45352">
        <ele>1292</ele>
        <time>2022-01-29T10:42:58.373Z</time>
      </trkpt>
      <trkpt lat="42.89659" lon="1.4535">
        <ele>1292</ele>
        <time>2022-01-29T10:43:02.373Z</time>
      </trkpt>
      <trkpt lat="42.89658" lon="1.45345">
        <ele>1298</ele>
        <time>2022-01-29T10:43:07.370Z</time>
      </trkpt>
      <trkpt lat="42.89658" lon="1.45343">
        <ele>1298</ele>
        <time>2022-01-29T10:43:11.373Z</time>
      </trkpt>
      <trkpt lat="42.89658" lon="1.45341">
        <ele>1298</ele>
        <time>2022-01-29T10:43:16.374Z</time>
      </trkpt>
      <trkpt lat="42.89658" lon="1.45334">
        <ele>1298</ele>
        <time>2022-01-29T10:43:25.372Z</time>
      </trkpt>
      <trkpt lat="42.89657" lon="1.45329">
        <ele>1298</ele>
        <time>2022-01-29T10:43:34.373Z</time>
      </trkpt>
      <trkpt lat="42.89656" lon="1.45325">
        <ele>1298</ele>
        <time>2022-01-29T10:43:39.376Z</time>
      </trkpt>
      <trkpt lat="42.89655" lon="1.45323">
        <ele>1298</ele>
        <time>2022-01-29T10:43:44.374Z</time>
      </trkpt>
      <trkpt lat="42.89655" lon="1.4532">
        <ele>1298</ele>
        <time>2022-01-29T10:43:48.364Z</time>
      </trkpt>
      <trkpt lat="42.89654" lon="1.45317">
        <ele>1306</ele>
        <time>2022-01-29T10:43:52.372Z</time>
      </trkpt>
      <trkpt lat="42.89654" lon="1.45314">
        <ele>1306</ele>
        <time>2022-01-29T10:43:57.371Z</time>
      </trkpt>
      <trkpt lat="42.89653" lon="1.45312">
        <ele>1310</ele>
        <time>2022-01-29T10:44:02.373Z</time>
      </trkpt>
      <trkpt lat="42.89652" lon="1.45306">
        <ele>1310</ele>
        <time>2022-01-29T10:44:14.456Z</time>
      </trkpt>
      <trkpt lat="42.89651" lon="1.45301">
        <ele>1310</ele>
        <time>2022-01-29T10:44:19.374Z</time>
      </trkpt>
      <trkpt lat="42.8965" lon="1.45299">
        <ele>1310</ele>
        <time>2022-01-29T10:44:23.375Z</time>
      </trkpt>
      <trkpt lat="42.89648" lon="1.45296">
        <ele>1310</ele>
        <time>2022-01-29T10:44:28.375Z</time>
      </trkpt>
      <trkpt lat="42.89649" lon="1.45293">
        <ele>1310</ele>
        <time>2022-01-29T10:44:33.371Z</time>
      </trkpt>
      <trkpt lat="42.89648" lon="1.45293">
        <ele>1310</ele>
        <time>2022-01-29T10:44:37.463Z</time>
      </trkpt>
      <trkpt lat="42.89646" lon="1.45283">
        <ele>1319</ele>
        <time>2022-01-29T10:44:51.376Z</time>
      </trkpt>
      <trkpt lat="42.8964" lon="1.45274">
        <ele>1319</ele>
        <time>2022-01-29T10:45:18.376Z</time>
      </trkpt>
      <trkpt lat="42.89638" lon="1.45267">
        <ele>1319</ele>
        <time>2022-01-29T10:45:31.374Z</time>
      </trkpt>
      <trkpt lat="42.89634" lon="1.45264">
        <ele>1319</ele>
        <time>2022-01-29T10:45:36.368Z</time>
      </trkpt>
      <trkpt lat="42.89632" lon="1.45262">
        <ele>1326</ele>
        <time>2022-01-29T10:45:40.378Z</time>
      </trkpt>
      <trkpt lat="42.8963" lon="1.4526">
        <ele>1326</ele>
        <time>2022-01-29T10:45:45.377Z</time>
      </trkpt>
      <trkpt lat="42.89629" lon="1.45256">
        <ele>1326</ele>
        <time>2022-01-29T10:45:54.342Z</time>
      </trkpt>
      <trkpt lat="42.89628" lon="1.45253">
        <ele>1326</ele>
        <time>2022-01-29T10:45:59.365Z</time>
      </trkpt>
      <trkpt lat="42.89628" lon="1.45251">
        <ele>1326</ele>
        <time>2022-01-29T10:46:04.356Z</time>
      </trkpt>
      <trkpt lat="42.89628" lon="1.45248">
        <ele>1326</ele>
        <time>2022-01-29T10:46:08.376Z</time>
      </trkpt>
      <trkpt lat="42.89626" lon="1.45244">
        <ele>1326</ele>
        <time>2022-01-29T10:46:18.378Z</time>
      </trkpt>
      <trkpt lat="42.8962" lon="1.45241">
        <ele>1329</ele>
        <time>2022-01-29T10:46:27.377Z</time>
      </trkpt>
      <trkpt lat="42.8962" lon="1.45239">
        <ele>1329</ele>
        <time>2022-01-29T10:46:32.371Z</time>
      </trkpt>
      <trkpt lat="42.8962" lon="1.45236">
        <ele>1338</ele>
        <time>2022-01-29T10:46:37.374Z</time>
      </trkpt>
      <trkpt lat="42.89618" lon="1.45232">
        <ele>1338</ele>
        <time>2022-01-29T10:46:41.378Z</time>
      </trkpt>
      <trkpt lat="42.89616" lon="1.45228">
        <ele>1338</ele>
        <time>2022-01-29T10:46:46.368Z</time>
      </trkpt>
      <trkpt lat="42.89613" lon="1.45221">
        <ele>1338</ele>
        <time>2022-01-29T10:47:04.376Z</time>
      </trkpt>
      <trkpt lat="42.89612" lon="1.45221">
        <ele>1338</ele>
        <time>2022-01-29T10:47:08.462Z</time>
      </trkpt>
      <trkpt lat="42.8961" lon="1.4522">
        <ele>1338</ele>
        <time>2022-01-29T10:47:13.375Z</time>
      </trkpt>
      <trkpt lat="42.8961" lon="1.4522">
        <ele>1338</ele>
        <time>2022-01-29T10:47:18.374Z</time>
      </trkpt>
      <trkpt lat="42.89601" lon="1.45212">
        <ele>1338</ele>
        <time>2022-01-29T10:47:45.382Z</time>
      </trkpt>
      <trkpt lat="42.89601" lon="1.45212">
        <ele>1338</ele>
        <time>2022-01-29T10:47:49.467Z</time>
      </trkpt>
      <trkpt lat="42.89598" lon="1.45209">
        <ele>1338</ele>
        <time>2022-01-29T10:47:54.354Z</time>
      </trkpt>
      <trkpt lat="42.89598" lon="1.45207">
        <ele>1344</ele>
        <time>2022-01-29T10:47:58.376Z</time>
      </trkpt>
      <trkpt lat="42.89597" lon="1.45206">
        <ele>1350</ele>
        <time>2022-01-29T10:48:03.376Z</time>
      </trkpt>
      <trkpt lat="42.89591" lon="1.45197">
        <ele>1350</ele>
        <time>2022-01-29T10:48:34.376Z</time>
      </trkpt>
      <trkpt lat="42.89591" lon="1.45196">
        <ele>1350</ele>
        <time>2022-01-29T10:48:39.376Z</time>
      </trkpt>
      <trkpt lat="42.89588" lon="1.45195">
        <ele>1350</ele>
        <time>2022-01-29T10:48:44.379Z</time>
      </trkpt>
      <trkpt lat="42.89588" lon="1.45195">
        <ele>1350</ele>
        <time>2022-01-29T10:48:48.449Z</time>
      </trkpt>
      <trkpt lat="42.89583" lon="1.45192">
        <ele>1350</ele>
        <time>2022-01-29T10:49:20.376Z</time>
      </trkpt>
      <trkpt lat="42.89582" lon="1.45189">
        <ele>1350</ele>
        <time>2022-01-29T10:49:24.493Z</time>
      </trkpt>
      <trkpt lat="42.89578" lon="1.45185">
        <ele>1350</ele>
        <time>2022-01-29T10:49:34.370Z</time>
      </trkpt>
      <trkpt lat="42.89576" lon="1.45186">
        <ele>1350</ele>
        <time>2022-01-29T10:49:38.378Z</time>
      </trkpt>
      <trkpt lat="42.89575" lon="1.45183">
        <ele>1350</ele>
        <time>2022-01-29T10:49:43.377Z</time>
      </trkpt>
      <trkpt lat="42.89575" lon="1.45182">
        <ele>1350</ele>
        <time>2022-01-29T10:49:47.443Z</time>
      </trkpt>
      <trkpt lat="42.89568" lon="1.45175">
        <ele>1363</ele>
        <time>2022-01-29T10:50:05.375Z</time>
      </trkpt>
      <trkpt lat="42.89443" lon="1.45087">
        <ele>1401</ele>
        <time>2022-01-29T10:59:53.533Z</time>
      </trkpt>
      <trkpt lat="42.89443" lon="1.45088">
        <ele>1401</ele>
        <time>2022-01-29T10:59:57.536Z</time>
      </trkpt>
      <trkpt lat="42.89442" lon="1.45089">
        <ele>1401</ele>
        <time>2022-01-29T11:00:01.535Z</time>
      </trkpt>
      <trkpt lat="42.89441" lon="1.45089">
        <ele>1401</ele>
        <time>2022-01-29T11:00:07.506Z</time>
      </trkpt>
      <trkpt lat="42.89435" lon="1.4509">
        <ele>1401</ele>
        <time>2022-01-29T11:00:31.514Z</time>
      </trkpt>
      <trkpt lat="42.8943" lon="1.4509">
        <ele>1403</ele>
        <time>2022-01-29T11:00:35.540Z</time>
      </trkpt>
      <trkpt lat="42.89427" lon="1.4509">
        <ele>1403</ele>
        <time>2022-01-29T11:00:39.547Z</time>
      </trkpt>
      <trkpt lat="42.89424" lon="1.45089">
        <ele>1403</ele>
        <time>2022-01-29T11:00:44.541Z</time>
      </trkpt>
      <trkpt lat="42.89421" lon="1.4509">
        <ele>1403</ele>
        <time>2022-01-29T11:00:48.587Z</time>
      </trkpt>
      <trkpt lat="42.8942" lon="1.45091">
        <ele>1403</ele>
        <time>2022-01-29T11:00:53.544Z</time>
      </trkpt>
      <trkpt lat="42.89418" lon="1.45091">
        <ele>1403</ele>
        <time>2022-01-29T11:00:57.545Z</time>
      </trkpt>
      <trkpt lat="42.89414" lon="1.45091">
        <ele>1403</ele>
        <time>2022-01-29T11:01:02.546Z</time>
      </trkpt>
      <trkpt lat="42.89409" lon="1.4509">
        <ele>1403</ele>
        <time>2022-01-29T11:01:07.543Z</time>
      </trkpt>
      <trkpt lat="42.89407" lon="1.4509">
        <ele>1403</ele>
        <time>2022-01-29T11:01:11.542Z</time>
      </trkpt>
      <trkpt lat="42.89403" lon="1.45091">
        <ele>1403</ele>
        <time>2022-01-29T11:01:16.542Z</time>
      </trkpt>
      <trkpt lat="42.89399" lon="1.45091">
        <ele>1405</ele>
        <time>2022-01-29T11:01:20.542Z</time>
      </trkpt>
      <trkpt lat="42.89394" lon="1.45092">
        <ele>1405</ele>
        <time>2022-01-29T11:01:25.546Z</time>
      </trkpt>
      <trkpt lat="42.8939" lon="1.45091">
        <ele>1405</ele>
        <time>2022-01-29T11:01:30.538Z</time>
      </trkpt>
      <trkpt lat="42.89385" lon="1.45093">
        <ele>1405</ele>
        <time>2022-01-29T11:01:35.545Z</time>
      </trkpt>
      <trkpt lat="42.8938" lon="1.45093">
        <ele>1405</ele>
        <time>2022-01-29T11:01:40.585Z</time>
      </trkpt>
      <trkpt lat="42.89375" lon="1.45093">
        <ele>1409</ele>
        <time>2022-01-29T11:01:45.548Z</time>
      </trkpt>
      <trkpt lat="42.89371" lon="1.45094">
        <ele>1409</ele>
        <time>2022-01-29T11:01:50.552Z</time>
      </trkpt>
      <trkpt lat="42.89367" lon="1.45094">
        <ele>1409</ele>
        <time>2022-01-29T11:01:55.547Z</time>
      </trkpt>
      <trkpt lat="42.89365" lon="1.45095">
        <ele>1409</ele>
        <time>2022-01-29T11:02:00.545Z</time>
      </trkpt>
      <trkpt lat="42.8936" lon="1.45095">
        <ele>1409</ele>
        <time>2022-01-29T11:02:04.543Z</time>
      </trkpt>
      <trkpt lat="42.89357" lon="1.45093">
        <ele>1409</ele>
        <time>2022-01-29T11:02:09.542Z</time>
      </trkpt>
      <trkpt lat="42.89353" lon="1.45093">
        <ele>1409</ele>
        <time>2022-01-29T11:02:14.541Z</time>
      </trkpt>
      <trkpt lat="42.89351" lon="1.45092">
        <ele>1409</ele>
        <time>2022-01-29T11:02:18.544Z</time>
      </trkpt>
      <trkpt lat="42.8935" lon="1.45091">
        <ele>1409</ele>
        <time>2022-01-29T11:02:23.517Z</time>
      </trkpt>
      <trkpt lat="42.89346" lon="1.45092">
        <ele>1415</ele>
        <time>2022-01-29T11:02:27.531Z</time>
      </trkpt>
      <trkpt lat="42.89343" lon="1.45092">
        <ele>1415</ele>
        <time>2022-01-29T11:02:31.545Z</time>
      </trkpt>
      <trkpt lat="42.8934" lon="1.45092">
        <ele>1415</ele>
        <time>2022-01-29T11:02:36.547Z</time>
      </trkpt>
      <trkpt lat="42.89337" lon="1.45091">
        <ele>1415</ele>
        <time>2022-01-29T11:02:40.580Z</time>
      </trkpt>
      <trkpt lat="42.89334" lon="1.45091">
        <ele>1415</ele>
        <time>2022-01-29T11:02:45.531Z</time>
      </trkpt>
      <trkpt lat="42.89331" lon="1.4509">
        <ele>1415</ele>
        <time>2022-01-29T11:02:49.544Z</time>
      </trkpt>
      <trkpt lat="42.89327" lon="1.4509">
        <ele>1415</ele>
        <time>2022-01-29T11:02:54.545Z</time>
      </trkpt>
      <trkpt lat="42.89324" lon="1.45091">
        <ele>1415</ele>
        <time>2022-01-29T11:02:58.542Z</time>
      </trkpt>
      <trkpt lat="42.89321" lon="1.45091">
        <ele>1415</ele>
        <time>2022-01-29T11:03:03.543Z</time>
      </trkpt>
      <trkpt lat="42.89319" lon="1.45092">
        <ele>1424</ele>
        <time>2022-01-29T11:03:07.544Z</time>
      </trkpt>
      <trkpt lat="42.89316" lon="1.45091">
        <ele>1424</ele>
        <time>2022-01-29T11:03:12.544Z</time>
      </trkpt>
      <trkpt lat="42.89314" lon="1.45091">
        <ele>1424</ele>
        <time>2022-01-29T11:03:16.584Z</time>
      </trkpt>
      <trkpt lat="42.89312" lon="1.45091">
        <ele>1424</ele>
        <time>2022-01-29T11:03:21.546Z</time>
      </trkpt>
      <trkpt lat="42.89309" lon="1.45091">
        <ele>1424</ele>
        <time>2022-01-29T11:03:26.547Z</time>
      </trkpt>
      <trkpt lat="42.89306" lon="1.45091">
        <ele>1424</ele>
        <time>2022-01-29T11:03:31.542Z</time>
      </trkpt>
      <trkpt lat="42.89304" lon="1.45091">
        <ele>1424</ele>
        <time>2022-01-29T11:03:36.530Z</time>
      </trkpt>
      <trkpt lat="42.89302" lon="1.4509">
        <ele>1424</ele>
        <time>2022-01-29T11:03:40.544Z</time>
      </trkpt>
      <trkpt lat="42.89302" lon="1.4509">
        <ele>1424</ele>
        <time>2022-01-29T11:03:45.543Z</time>
      </trkpt>
      <trkpt lat="42.89291" lon="1.45087">
        <ele>1434</ele>
        <time>2022-01-29T11:04:03.546Z</time>
      </trkpt>
      <trkpt lat="42.89282" lon="1.45084">
        <ele>1434</ele>
        <time>2022-01-29T11:04:25.546Z</time>
      </trkpt>
      <trkpt lat="42.89281" lon="1.45084">
        <ele>1434</ele>
        <time>2022-01-29T11:04:30.547Z</time>
      </trkpt>
      <trkpt lat="42.89275" lon="1.45082">
        <ele>1434</ele>
        <time>2022-01-29T11:04:48.549Z</time>
      </trkpt>
      <trkpt lat="42.89274" lon="1.45081">
        <ele>1434</ele>
        <time>2022-01-29T11:04:52.586Z</time>
      </trkpt>
      <trkpt lat="42.89263" lon="1.4508">
        <ele>1447</ele>
        <time>2022-01-29T11:05:12.547Z</time>
      </trkpt>
      <trkpt lat="42.89257" lon="1.45081">
        <ele>1447</ele>
        <time>2022-01-29T11:05:22.545Z</time>
      </trkpt>
      <trkpt lat="42.89256" lon="1.45081">
        <ele>1447</ele>
        <time>2022-01-29T11:05:26.580Z</time>
      </trkpt>
      <trkpt lat="42.89255" lon="1.45081">
        <ele>1447</ele>
        <time>2022-01-29T11:05:31.545Z</time>
      </trkpt>
      <trkpt lat="42.89253" lon="1.45083">
        <ele>1447</ele>
        <time>2022-01-29T11:05:44.544Z</time>
      </trkpt>
      <trkpt lat="42.89251" lon="1.45085">
        <ele>1447</ele>
        <time>2022-01-29T11:05:49.547Z</time>
      </trkpt>
      <trkpt lat="42.8925" lon="1.45086">
        <ele>1447</ele>
        <time>2022-01-29T11:05:53.547Z</time>
      </trkpt>
      <trkpt lat="42.89246" lon="1.45099">
        <ele>1440</ele>
        <time>2022-01-29T11:06:12.546Z</time>
      </trkpt>
      <trkpt lat="42.89243" lon="1.45101">
        <ele>1440</ele>
        <time>2022-01-29T11:06:17.544Z</time>
      </trkpt>
      <trkpt lat="42.8924" lon="1.45103">
        <ele>1440</ele>
        <time>2022-01-29T11:06:22.545Z</time>
      </trkpt>
      <trkpt lat="42.89238" lon="1.45105">
        <ele>1440</ele>
        <time>2022-01-29T11:06:26.586Z</time>
      </trkpt>
      <trkpt lat="42.89237" lon="1.45106">
        <ele>1440</ele>
        <time>2022-01-29T11:06:31.543Z</time>
      </trkpt>
      <trkpt lat="42.89232" lon="1.45109">
        <ele>1450</ele>
        <time>2022-01-29T11:06:35.543Z</time>
      </trkpt>
      <trkpt lat="42.89231" lon="1.45113">
        <ele>1450</ele>
        <time>2022-01-29T11:06:39.548Z</time>
      </trkpt>
      <trkpt lat="42.89228" lon="1.45115">
        <ele>1450</ele>
        <time>2022-01-29T11:06:44.586Z</time>
      </trkpt>
      <trkpt lat="42.89227" lon="1.45116">
        <ele>1450</ele>
        <time>2022-01-29T11:06:49.550Z</time>
      </trkpt>
      <trkpt lat="42.89226" lon="1.45117">
        <ele>1450</ele>
        <time>2022-01-29T11:06:54.552Z</time>
      </trkpt>
      <trkpt lat="42.89225" lon="1.45118">
        <ele>1450</ele>
        <time>2022-01-29T11:06:59.558Z</time>
      </trkpt>
      <trkpt lat="42.89219" lon="1.45117">
        <ele>1450</ele>
        <time>2022-01-29T11:07:18.544Z</time>
      </trkpt>
      <trkpt lat="42.89218" lon="1.45114">
        <ele>1450</ele>
        <time>2022-01-29T11:07:22.544Z</time>
      </trkpt>
      <trkpt lat="42.89218" lon="1.45111">
        <ele>1450</ele>
        <time>2022-01-29T11:07:36.550Z</time>
      </trkpt>
      <trkpt lat="42.8921" lon="1.45113">
        <ele>1450</ele>
        <time>2022-01-29T11:08:23.549Z</time>
      </trkpt>
      <trkpt lat="42.89206" lon="1.45115">
        <ele>1461</ele>
        <time>2022-01-29T11:08:28.548Z</time>
      </trkpt>
      <trkpt lat="42.89203" lon="1.45118">
        <ele>1461</ele>
        <time>2022-01-29T11:08:33.522Z</time>
      </trkpt>
      <trkpt lat="42.89201" lon="1.45118">
        <ele>1461</ele>
        <time>2022-01-29T11:08:38.514Z</time>
      </trkpt>
      <trkpt lat="42.892" lon="1.45119">
        <ele>1461</ele>
        <time>2022-01-29T11:08:42.540Z</time>
      </trkpt>
      <trkpt lat="42.89199" lon="1.4512">
        <ele>1461</ele>
        <time>2022-01-29T11:08:46.561Z</time>
      </trkpt>
      <trkpt lat="42.89196" lon="1.4512">
        <ele>1461</ele>
        <time>2022-01-29T11:08:51.533Z</time>
      </trkpt>
      <trkpt lat="42.89193" lon="1.45119">
        <ele>1461</ele>
        <time>2022-01-29T11:08:55.541Z</time>
      </trkpt>
      <trkpt lat="42.89191" lon="1.45123">
        <ele>1461</ele>
        <time>2022-01-29T11:09:00.545Z</time>
      </trkpt>
      <trkpt lat="42.89187" lon="1.45123">
        <ele>1461</ele>
        <time>2022-01-29T11:09:09.581Z</time>
      </trkpt>
      <trkpt lat="42.89185" lon="1.45125">
        <ele>1457</ele>
        <time>2022-01-29T11:09:14.546Z</time>
      </trkpt>
      <trkpt lat="42.89184" lon="1.45126">
        <ele>1457</ele>
        <time>2022-01-29T11:09:18.545Z</time>
      </trkpt>
      <trkpt lat="42.89181" lon="1.45128">
        <ele>1468</ele>
        <time>2022-01-29T11:09:23.550Z</time>
      </trkpt>
      <trkpt lat="42.89179" lon="1.45131">
        <ele>1468</ele>
        <time>2022-01-29T11:09:28.547Z</time>
      </trkpt>
      <trkpt lat="42.89176" lon="1.45135">
        <ele>1468</ele>
        <time>2022-01-29T11:09:36.545Z</time>
      </trkpt>
      <trkpt lat="42.89175" lon="1.45136">
        <ele>1468</ele>
        <time>2022-01-29T11:09:41.541Z</time>
      </trkpt>
      <trkpt lat="42.89175" lon="1.45138">
        <ele>1468</ele>
        <time>2022-01-29T11:09:46.547Z</time>
      </trkpt>
      <trkpt lat="42.89174" lon="1.4514">
        <ele>1468</ele>
        <time>2022-01-29T11:09:50.546Z</time>
      </trkpt>
      <trkpt lat="42.89171" lon="1.45142">
        <ele>1468</ele>
        <time>2022-01-29T11:09:55.544Z</time>
      </trkpt>
      <trkpt lat="42.89169" lon="1.45144">
        <ele>1468</ele>
        <time>2022-01-29T11:09:59.586Z</time>
      </trkpt>
      <trkpt lat="42.89166" lon="1.45147">
        <ele>1468</ele>
        <time>2022-01-29T11:10:04.551Z</time>
      </trkpt>
      <trkpt lat="42.89164" lon="1.45149">
        <ele>1468</ele>
        <time>2022-01-29T11:10:09.545Z</time>
      </trkpt>
      <trkpt lat="42.89163" lon="1.45152">
        <ele>1468</ele>
        <time>2022-01-29T11:10:13.558Z</time>
      </trkpt>
      <trkpt lat="42.8916" lon="1.45152">
        <ele>1468</ele>
        <time>2022-01-29T11:10:17.589Z</time>
      </trkpt>
      <trkpt lat="42.89157" lon="1.45155">
        <ele>1462</ele>
        <time>2022-01-29T11:10:26.545Z</time>
      </trkpt>
      <trkpt lat="42.89156" lon="1.45159">
        <ele>1462</ele>
        <time>2022-01-29T11:10:31.544Z</time>
      </trkpt>
      <trkpt lat="42.89155" lon="1.4516">
        <ele>1462</ele>
        <time>2022-01-29T11:10:36.544Z</time>
      </trkpt>
      <trkpt lat="42.89154" lon="1.4516">
        <ele>1462</ele>
        <time>2022-01-29T11:10:40.544Z</time>
      </trkpt>
      <trkpt lat="42.89151" lon="1.45164">
        <ele>1471</ele>
        <time>2022-01-29T11:10:53.528Z</time>
      </trkpt>
      <trkpt lat="42.89152" lon="1.45184">
        <ele>1466</ele>
        <time>2022-01-29T11:11:08.502Z</time>
      </trkpt>
      <trkpt lat="42.89147" lon="1.45182">
        <ele>1466</ele>
        <time>2022-01-29T11:11:13.517Z</time>
      </trkpt>
      <trkpt lat="42.89143" lon="1.4518">
        <ele>1471</ele>
        <time>2022-01-29T11:11:17.520Z</time>
      </trkpt>
      <trkpt lat="42.89139" lon="1.45178">
        <ele>1471</ele>
        <time>2022-01-29T11:11:22.518Z</time>
      </trkpt>
      <trkpt lat="42.89136" lon="1.45178">
        <ele>1471</ele>
        <time>2022-01-29T11:11:27.519Z</time>
      </trkpt>
      <trkpt lat="42.89136" lon="1.45178">
        <ele>1471</ele>
        <time>2022-01-29T11:11:41.531Z</time>
      </trkpt>
      <trkpt lat="42.89134" lon="1.45176">
        <ele>1471</ele>
        <time>2022-01-29T11:13:04.544Z</time>
      </trkpt>
      <trkpt lat="42.8913" lon="1.45176">
        <ele>1471</ele>
        <time>2022-01-29T11:13:13.545Z</time>
      </trkpt>
      <trkpt lat="42.89127" lon="1.45175">
        <ele>1471</ele>
        <time>2022-01-29T11:13:18.545Z</time>
      </trkpt>
      <trkpt lat="42.89125" lon="1.45175">
        <ele>1471</ele>
        <time>2022-01-29T11:13:23.550Z</time>
      </trkpt>
      <trkpt lat="42.89119" lon="1.4518">
        <ele>1487</ele>
        <time>2022-01-29T11:13:41.546Z</time>
      </trkpt>
      <trkpt lat="42.89117" lon="1.4518">
        <ele>1487</ele>
        <time>2022-01-29T11:13:45.587Z</time>
      </trkpt>
      <trkpt lat="42.89117" lon="1.4518">
        <ele>1487</ele>
        <time>2022-01-29T11:13:50.548Z</time>
      </trkpt>
      <trkpt lat="42.89116" lon="1.45182">
        <ele>1481</ele>
        <time>2022-01-29T11:13:55.549Z</time>
      </trkpt>
      <trkpt lat="42.89116" lon="1.45182">
        <ele>1481</ele>
        <time>2022-01-29T11:14:00.547Z</time>
      </trkpt>
      <trkpt lat="42.89106" lon="1.45183">
        <ele>1481</ele>
        <time>2022-01-29T11:14:27.584Z</time>
      </trkpt>
      <trkpt lat="42.89101" lon="1.45184">
        <ele>1481</ele>
        <time>2022-01-29T11:14:36.547Z</time>
      </trkpt>
      <trkpt lat="42.89099" lon="1.45184">
        <ele>1481</ele>
        <time>2022-01-29T11:14:41.547Z</time>
      </trkpt>
      <trkpt lat="42.89095" lon="1.45183">
        <ele>1489</ele>
        <time>2022-01-29T11:14:45.546Z</time>
      </trkpt>
      <trkpt lat="42.89095" lon="1.45181">
        <ele>1489</ele>
        <time>2022-01-29T11:14:50.544Z</time>
      </trkpt>
      <trkpt lat="42.89095" lon="1.45181">
        <ele>1500</ele>
        <time>2022-01-29T11:14:54.545Z</time>
      </trkpt>
      <trkpt lat="42.89091" lon="1.45173">
        <ele>1500</ele>
        <time>2022-01-29T11:15:18.547Z</time>
      </trkpt>
      <trkpt lat="42.89091" lon="1.4517">
        <ele>1500</ele>
        <time>2022-01-29T11:15:23.547Z</time>
      </trkpt>
      <trkpt lat="42.89091" lon="1.45169">
        <ele>1500</ele>
        <time>2022-01-29T11:15:28.545Z</time>
      </trkpt>
      <trkpt lat="42.89084" lon="1.45162">
        <ele>1500</ele>
        <time>2022-01-29T11:15:59.533Z</time>
      </trkpt>
      <trkpt lat="42.89084" lon="1.45159">
        <ele>1500</ele>
        <time>2022-01-29T11:16:03.544Z</time>
      </trkpt>
      <trkpt lat="42.89085" lon="1.45157">
        <ele>1500</ele>
        <time>2022-01-29T11:16:07.544Z</time>
      </trkpt>
      <trkpt lat="42.89084" lon="1.45155">
        <ele>1500</ele>
        <time>2022-01-29T11:16:12.546Z</time>
      </trkpt>
      <trkpt lat="42.89083" lon="1.45146">
        <ele>1506</ele>
        <time>2022-01-29T11:16:26.543Z</time>
      </trkpt>
      <trkpt lat="42.89083" lon="1.45144">
        <ele>1506</ele>
        <time>2022-01-29T11:16:31.543Z</time>
      </trkpt>
      <trkpt lat="42.89084" lon="1.45139">
        <ele>1506</ele>
        <time>2022-01-29T11:16:40.576Z</time>
      </trkpt>
      <trkpt lat="42.89084" lon="1.45139">
        <ele>1506</ele>
        <time>2022-01-29T11:16:45.547Z</time>
      </trkpt>
      <trkpt lat="42.8908" lon="1.45133">
        <ele>1506</ele>
        <time>2022-01-29T11:16:50.548Z</time>
      </trkpt>
      <trkpt lat="42.89079" lon="1.45131">
        <ele>1506</ele>
        <time>2022-01-29T11:16:55.537Z</time>
      </trkpt>
      <trkpt lat="42.8908" lon="1.45127">
        <ele>1506</ele>
        <time>2022-01-29T11:16:59.545Z</time>
      </trkpt>
      <trkpt lat="42.8908" lon="1.45126">
        <ele>1506</ele>
        <time>2022-01-29T11:17:03.584Z</time>
      </trkpt>
      <trkpt lat="42.8908" lon="1.45123">
        <ele>1510</ele>
        <time>2022-01-29T11:17:08.545Z</time>
      </trkpt>
      <trkpt lat="42.8908" lon="1.45123">
        <ele>1510</ele>
        <time>2022-01-29T11:17:12.547Z</time>
      </trkpt>
      <trkpt lat="42.89077" lon="1.45115">
        <ele>1510</ele>
        <time>2022-01-29T11:17:26.548Z</time>
      </trkpt>
      <trkpt lat="42.89077" lon="1.45111">
        <ele>1510</ele>
        <time>2022-01-29T11:17:31.549Z</time>
      </trkpt>
      <trkpt lat="42.89077" lon="1.45108">
        <ele>1510</ele>
        <time>2022-01-29T11:17:35.547Z</time>
      </trkpt>
      <trkpt lat="42.89077" lon="1.45107">
        <ele>1510</ele>
        <time>2022-01-29T11:17:39.545Z</time>
      </trkpt>
      <trkpt lat="42.89074" lon="1.45097">
        <ele>1509</ele>
        <time>2022-01-29T11:18:20.547Z</time>
      </trkpt>
      <trkpt lat="42.89073" lon="1.45096">
        <ele>1509</ele>
        <time>2022-01-29T11:18:24.547Z</time>
      </trkpt>
      <trkpt lat="42.8907" lon="1.45094">
        <ele>1509</ele>
        <time>2022-01-29T11:18:29.547Z</time>
      </trkpt>
      <trkpt lat="42.89069" lon="1.45089">
        <ele>1514</ele>
        <time>2022-01-29T11:18:47.545Z</time>
      </trkpt>
      <trkpt lat="42.89068" lon="1.45086">
        <ele>1514</ele>
        <time>2022-01-29T11:18:51.544Z</time>
      </trkpt>
      <trkpt lat="42.89067" lon="1.45083">
        <ele>1514</ele>
        <time>2022-01-29T11:18:56.546Z</time>
      </trkpt>
      <trkpt lat="42.89069" lon="1.45082">
        <ele>1514</ele>
        <time>2022-01-29T11:19:00.547Z</time>
      </trkpt>
      <trkpt lat="42.89066" lon="1.45075">
        <ele>1514</ele>
        <time>2022-01-29T11:19:18.546Z</time>
      </trkpt>
      <trkpt lat="42.89059" lon="1.45072">
        <ele>1514</ele>
        <time>2022-01-29T11:19:41.546Z</time>
      </trkpt>
      <trkpt lat="42.89058" lon="1.45072">
        <ele>1514</ele>
        <time>2022-01-29T11:19:45.545Z</time>
      </trkpt>
      <trkpt lat="42.89057" lon="1.45072">
        <ele>1514</ele>
        <time>2022-01-29T11:19:50.545Z</time>
      </trkpt>
      <trkpt lat="42.89047" lon="1.4507">
        <ele>1514</ele>
        <time>2022-01-29T11:20:22.546Z</time>
      </trkpt>
      <trkpt lat="42.89046" lon="1.4507">
        <ele>1514</ele>
        <time>2022-01-29T11:20:27.587Z</time>
      </trkpt>
      <trkpt lat="42.89037" lon="1.45075">
        <ele>1521</ele>
        <time>2022-01-29T11:20:50.546Z</time>
      </trkpt>
      <trkpt lat="42.89036" lon="1.45075">
        <ele>1521</ele>
        <time>2022-01-29T11:20:55.547Z</time>
      </trkpt>
      <trkpt lat="42.89032" lon="1.45074">
        <ele>1521</ele>
        <time>2022-01-29T11:21:05.550Z</time>
      </trkpt>
      <trkpt lat="42.89031" lon="1.45073">
        <ele>1521</ele>
        <time>2022-01-29T11:21:09.580Z</time>
      </trkpt>
      <trkpt lat="42.8903" lon="1.45072">
        <ele>1521</ele>
        <time>2022-01-29T11:21:14.546Z</time>
      </trkpt>
      <trkpt lat="42.8902" lon="1.45069">
        <ele>1525</ele>
        <time>2022-01-29T11:21:41.549Z</time>
      </trkpt>
      <trkpt lat="42.89017" lon="1.45067">
        <ele>1525</ele>
        <time>2022-01-29T11:21:50.545Z</time>
      </trkpt>
      <trkpt lat="42.89014" lon="1.45066">
        <ele>1529</ele>
        <time>2022-01-29T11:22:00.549Z</time>
      </trkpt>
      <trkpt lat="42.89014" lon="1.45065">
        <ele>1529</ele>
        <time>2022-01-29T11:22:05.546Z</time>
      </trkpt>
      <trkpt lat="42.89011" lon="1.45063">
        <ele>1529</ele>
        <time>2022-01-29T11:22:14.543Z</time>
      </trkpt>
      <trkpt lat="42.89011" lon="1.45064">
        <ele>1529</ele>
        <time>2022-01-29T11:22:19.546Z</time>
      </trkpt>
      <trkpt lat="42.89009" lon="1.45057">
        <ele>1529</ele>
        <time>2022-01-29T11:22:38.548Z</time>
      </trkpt>
      <trkpt lat="42.89007" lon="1.45052">
        <ele>1529</ele>
        <time>2022-01-29T11:22:53.543Z</time>
      </trkpt>
      <trkpt lat="42.89006" lon="1.45049">
        <ele>1529</ele>
        <time>2022-01-29T11:23:07.545Z</time>
      </trkpt>
      <trkpt lat="42.89005" lon="1.45047">
        <ele>1529</ele>
        <time>2022-01-29T11:23:11.546Z</time>
      </trkpt>
      <trkpt lat="42.89005" lon="1.45044">
        <ele>1529</ele>
        <time>2022-01-29T11:23:16.545Z</time>
      </trkpt>
      <trkpt lat="42.89001" lon="1.45037">
        <ele>1534</ele>
        <time>2022-01-29T11:23:35.547Z</time>
      </trkpt>
      <trkpt lat="42.89" lon="1.45027">
        <ele>1534</ele>
        <time>2022-01-29T11:27:01.544Z</time>
      </trkpt>
      <trkpt lat="42.88992" lon="1.45017">
        <ele>1534</ele>
        <time>2022-01-29T11:27:50.545Z</time>
      </trkpt>
      <trkpt lat="42.8899" lon="1.45011">
        <ele>1540</ele>
        <time>2022-01-29T11:27:55.544Z</time>
      </trkpt>
      <trkpt lat="42.88988" lon="1.45007">
        <ele>1540</ele>
        <time>2022-01-29T11:28:00.546Z</time>
      </trkpt>
      <trkpt lat="42.88987" lon="1.45004">
        <ele>1540</ele>
        <time>2022-01-29T11:28:04.547Z</time>
      </trkpt>
      <trkpt lat="42.88985" lon="1.44998">
        <ele>1537</ele>
        <time>2022-01-29T11:28:09.546Z</time>
      </trkpt>
      <trkpt lat="42.88985" lon="1.44995">
        <ele>1537</ele>
        <time>2022-01-29T11:28:14.544Z</time>
      </trkpt>
      <trkpt lat="42.88984" lon="1.4499">
        <ele>1537</ele>
        <time>2022-01-29T11:28:19.549Z</time>
      </trkpt>
      <trkpt lat="42.88983" lon="1.44987">
        <ele>1537</ele>
        <time>2022-01-29T11:28:24.549Z</time>
      </trkpt>
      <trkpt lat="42.88982" lon="1.44984">
        <ele>1544</ele>
        <time>2022-01-29T11:28:29.545Z</time>
      </trkpt>
      <trkpt lat="42.88981" lon="1.44982">
        <ele>1544</ele>
        <time>2022-01-29T11:28:33.546Z</time>
      </trkpt>
      <trkpt lat="42.8898" lon="1.44978">
        <ele>1544</ele>
        <time>2022-01-29T11:28:38.548Z</time>
      </trkpt>
      <trkpt lat="42.88978" lon="1.44977">
        <ele>1544</ele>
        <time>2022-01-29T11:28:43.548Z</time>
      </trkpt>
      <trkpt lat="42.88976" lon="1.44973">
        <ele>1544</ele>
        <time>2022-01-29T11:28:48.549Z</time>
      </trkpt>
      <trkpt lat="42.88975" lon="1.4497">
        <ele>1544</ele>
        <time>2022-01-29T11:28:53.547Z</time>
      </trkpt>
      <trkpt lat="42.88974" lon="1.44967">
        <ele>1544</ele>
        <time>2022-01-29T11:28:57.547Z</time>
      </trkpt>
      <trkpt lat="42.88973" lon="1.44965">
        <ele>1544</ele>
        <time>2022-01-29T11:29:02.586Z</time>
      </trkpt>
      <trkpt lat="42.88974" lon="1.44961">
        <ele>1544</ele>
        <time>2022-01-29T11:29:07.546Z</time>
      </trkpt>
      <trkpt lat="42.88974" lon="1.44958">
        <ele>1550</ele>
        <time>2022-01-29T11:29:11.547Z</time>
      </trkpt>
      <trkpt lat="42.88972" lon="1.44955">
        <ele>1550</ele>
        <time>2022-01-29T11:29:16.546Z</time>
      </trkpt>
      <trkpt lat="42.8897" lon="1.44949">
        <ele>1550</ele>
        <time>2022-01-29T11:29:24.588Z</time>
      </trkpt>
      <trkpt lat="42.88969" lon="1.44945">
        <ele>1550</ele>
        <time>2022-01-29T11:29:29.549Z</time>
      </trkpt>
      <trkpt lat="42.88968" lon="1.44943">
        <ele>1550</ele>
        <time>2022-01-29T11:29:34.544Z</time>
      </trkpt>
      <trkpt lat="42.88968" lon="1.44941">
        <ele>1550</ele>
        <time>2022-01-29T11:29:38.547Z</time>
      </trkpt>
      <trkpt lat="42.88968" lon="1.44939">
        <ele>1550</ele>
        <time>2022-01-29T11:29:42.586Z</time>
      </trkpt>
      <trkpt lat="42.88967" lon="1.44936">
        <ele>1550</ele>
        <time>2022-01-29T11:29:47.547Z</time>
      </trkpt>
      <trkpt lat="42.88967" lon="1.44935">
        <ele>1550</ele>
        <time>2022-01-29T11:29:51.551Z</time>
      </trkpt>
      <trkpt lat="42.88966" lon="1.44932">
        <ele>1550</ele>
        <time>2022-01-29T11:30:01.543Z</time>
      </trkpt>
      <trkpt lat="42.88964" lon="1.44928">
        <ele>1557</ele>
        <time>2022-01-29T11:30:06.544Z</time>
      </trkpt>
      <trkpt lat="42.88962" lon="1.44925">
        <ele>1557</ele>
        <time>2022-01-29T11:30:10.546Z</time>
      </trkpt>
      <trkpt lat="42.88961" lon="1.44922">
        <ele>1557</ele>
        <time>2022-01-29T11:30:15.536Z</time>
      </trkpt>
      <trkpt lat="42.88959" lon="1.44919">
        <ele>1557</ele>
        <time>2022-01-29T11:30:19.545Z</time>
      </trkpt>
      <trkpt lat="42.88957" lon="1.44916">
        <ele>1557</ele>
        <time>2022-01-29T11:30:24.545Z</time>
      </trkpt>
      <trkpt lat="42.88955" lon="1.44913">
        <ele>1557</ele>
        <time>2022-01-29T11:30:29.543Z</time>
      </trkpt>
      <trkpt lat="42.88954" lon="1.4491">
        <ele>1557</ele>
        <time>2022-01-29T11:30:33.546Z</time>
      </trkpt>
      <trkpt lat="42.88951" lon="1.44905">
        <ele>1557</ele>
        <time>2022-01-29T11:30:43.547Z</time>
      </trkpt>
      <trkpt lat="42.8895" lon="1.44902">
        <ele>1561</ele>
        <time>2022-01-29T11:30:48.545Z</time>
      </trkpt>
      <trkpt lat="42.88949" lon="1.449">
        <ele>1561</ele>
        <time>2022-01-29T11:30:52.548Z</time>
      </trkpt>
      <trkpt lat="42.88948" lon="1.44897">
        <ele>1561</ele>
        <time>2022-01-29T11:30:56.547Z</time>
      </trkpt>
      <trkpt lat="42.88947" lon="1.44894">
        <ele>1561</ele>
        <time>2022-01-29T11:31:01.546Z</time>
      </trkpt>
      <trkpt lat="42.88947" lon="1.4489">
        <ele>1561</ele>
        <time>2022-01-29T11:31:10.547Z</time>
      </trkpt>
      <trkpt lat="42.88947" lon="1.44888">
        <ele>1561</ele>
        <time>2022-01-29T11:31:14.585Z</time>
      </trkpt>
      <trkpt lat="42.88944" lon="1.44885">
        <ele>1561</ele>
        <time>2022-01-29T11:31:34.547Z</time>
      </trkpt>
      <trkpt lat="42.88943" lon="1.44882">
        <ele>1561</ele>
        <time>2022-01-29T11:31:38.589Z</time>
      </trkpt>
      <trkpt lat="42.88942" lon="1.44882">
        <ele>1561</ele>
        <time>2022-01-29T11:31:43.547Z</time>
      </trkpt>
      <trkpt lat="42.88937" lon="1.44875">
        <ele>1566</ele>
        <time>2022-01-29T11:31:58.544Z</time>
      </trkpt>
      <trkpt lat="42.88937" lon="1.44874">
        <ele>1566</ele>
        <time>2022-01-29T11:32:02.589Z</time>
      </trkpt>
      <trkpt lat="42.88935" lon="1.44869">
        <ele>1566</ele>
        <time>2022-01-29T11:32:12.546Z</time>
      </trkpt>
      <trkpt lat="42.88934" lon="1.44868">
        <ele>1566</ele>
        <time>2022-01-29T11:32:22.546Z</time>
      </trkpt>
      <trkpt lat="42.88931" lon="1.44862">
        <ele>1564</ele>
        <time>2022-01-29T11:32:41.545Z</time>
      </trkpt>
      <trkpt lat="42.8893" lon="1.44858">
        <ele>1564</ele>
        <time>2022-01-29T11:32:46.546Z</time>
      </trkpt>
      <trkpt lat="42.88931" lon="1.44853">
        <ele>1564</ele>
        <time>2022-01-29T11:32:50.549Z</time>
      </trkpt>
      <trkpt lat="42.88929" lon="1.44849">
        <ele>1564</ele>
        <time>2022-01-29T11:32:55.546Z</time>
      </trkpt>
      <trkpt lat="42.88928" lon="1.44846">
        <ele>1572</ele>
        <time>2022-01-29T11:33:00.547Z</time>
      </trkpt>
      <trkpt lat="42.88927" lon="1.44844">
        <ele>1572</ele>
        <time>2022-01-29T11:33:05.544Z</time>
      </trkpt>
      <trkpt lat="42.88925" lon="1.44838">
        <ele>1572</ele>
        <time>2022-01-29T11:33:15.548Z</time>
      </trkpt>
      <trkpt lat="42.88925" lon="1.44836">
        <ele>1572</ele>
        <time>2022-01-29T11:33:19.581Z</time>
      </trkpt>
      <trkpt lat="42.88924" lon="1.44833">
        <ele>1572</ele>
        <time>2022-01-29T11:33:24.547Z</time>
      </trkpt>
      <trkpt lat="42.88924" lon="1.44832">
        <ele>1572</ele>
        <time>2022-01-29T11:33:29.546Z</time>
      </trkpt>
      <trkpt lat="42.88922" lon="1.44826">
        <ele>1572</ele>
        <time>2022-01-29T11:33:48.546Z</time>
      </trkpt>
      <trkpt lat="42.8892" lon="1.44824">
        <ele>1572</ele>
        <time>2022-01-29T11:36:57.541Z</time>
      </trkpt>
      <trkpt lat="42.8892" lon="1.44822">
        <ele>1572</ele>
        <time>2022-01-29T11:37:02.543Z</time>
      </trkpt>
      <trkpt lat="42.8892" lon="1.44821">
        <ele>1572</ele>
        <time>2022-01-29T11:37:06.547Z</time>
      </trkpt>
      <trkpt lat="42.88919" lon="1.44817">
        <ele>1580</ele>
        <time>2022-01-29T11:37:11.545Z</time>
      </trkpt>
      <trkpt lat="42.88918" lon="1.44815">
        <ele>1580</ele>
        <time>2022-01-29T11:37:15.544Z</time>
      </trkpt>
      <trkpt lat="42.88917" lon="1.44811">
        <ele>1580</ele>
        <time>2022-01-29T11:37:20.543Z</time>
      </trkpt>
      <trkpt lat="42.88915" lon="1.4481">
        <ele>1580</ele>
        <time>2022-01-29T11:37:25.544Z</time>
      </trkpt>
      <trkpt lat="42.88914" lon="1.44809">
        <ele>1580</ele>
        <time>2022-01-29T11:37:29.548Z</time>
      </trkpt>
      <trkpt lat="42.88913" lon="1.44808">
        <ele>1580</ele>
        <time>2022-01-29T11:37:34.546Z</time>
      </trkpt>
      <trkpt lat="42.88911" lon="1.44801">
        <ele>1580</ele>
        <time>2022-01-29T11:37:43.542Z</time>
      </trkpt>
      <trkpt lat="42.88912" lon="1.44797">
        <ele>1580</ele>
        <time>2022-01-29T11:37:48.544Z</time>
      </trkpt>
      <trkpt lat="42.8891" lon="1.44795">
        <ele>1580</ele>
        <time>2022-01-29T11:37:53.543Z</time>
      </trkpt>
      <trkpt lat="42.88911" lon="1.44793">
        <ele>1580</ele>
        <time>2022-01-29T11:37:58.543Z</time>
      </trkpt>
      <trkpt lat="42.88911" lon="1.44789">
        <ele>1584</ele>
        <time>2022-01-29T11:38:03.539Z</time>
      </trkpt>
      <trkpt lat="42.88911" lon="1.44784">
        <ele>1584</ele>
        <time>2022-01-29T11:38:07.540Z</time>
      </trkpt>
      <trkpt lat="42.8891" lon="1.44777">
        <ele>1584</ele>
        <time>2022-01-29T11:38:17.544Z</time>
      </trkpt>
      <trkpt lat="42.8891" lon="1.44776">
        <ele>1584</ele>
        <time>2022-01-29T11:38:21.544Z</time>
      </trkpt>
      <trkpt lat="42.88909" lon="1.44773">
        <ele>1584</ele>
        <time>2022-01-29T11:38:26.547Z</time>
      </trkpt>
      <trkpt lat="42.88908" lon="1.4477">
        <ele>1584</ele>
        <time>2022-01-29T11:38:30.543Z</time>
      </trkpt>
      <trkpt lat="42.88908" lon="1.44768">
        <ele>1584</ele>
        <time>2022-01-29T11:38:35.546Z</time>
      </trkpt>
      <trkpt lat="42.88908" lon="1.44767">
        <ele>1584</ele>
        <time>2022-01-29T11:38:40.546Z</time>
      </trkpt>
      <trkpt lat="42.88907" lon="1.44762">
        <ele>1590</ele>
        <time>2022-01-29T11:38:48.580Z</time>
      </trkpt>
      <trkpt lat="42.88906" lon="1.44761">
        <ele>1590</ele>
        <time>2022-01-29T11:38:53.545Z</time>
      </trkpt>
      <trkpt lat="42.88906" lon="1.44758">
        <ele>1590</ele>
        <time>2022-01-29T11:38:57.545Z</time>
      </trkpt>
      <trkpt lat="42.88905" lon="1.44755">
        <ele>1590</ele>
        <time>2022-01-29T11:39:02.547Z</time>
      </trkpt>
      <trkpt lat="42.88905" lon="1.44753">
        <ele>1590</ele>
        <time>2022-01-29T11:39:06.582Z</time>
      </trkpt>
      <trkpt lat="42.88905" lon="1.4475">
        <ele>1590</ele>
        <time>2022-01-29T11:39:11.546Z</time>
      </trkpt>
      <trkpt lat="42.88903" lon="1.44745">
        <ele>1590</ele>
        <time>2022-01-29T11:39:21.541Z</time>
      </trkpt>
      <trkpt lat="42.88902" lon="1.44741">
        <ele>1590</ele>
        <time>2022-01-29T11:39:26.543Z</time>
      </trkpt>
      <trkpt lat="42.889" lon="1.44735">
        <ele>1597</ele>
        <time>2022-01-29T11:39:35.543Z</time>
      </trkpt>
      <trkpt lat="42.889" lon="1.44731">
        <ele>1597</ele>
        <time>2022-01-29T11:39:40.547Z</time>
      </trkpt>
      <trkpt lat="42.88901" lon="1.4473">
        <ele>1597</ele>
        <time>2022-01-29T11:39:45.545Z</time>
      </trkpt>
      <trkpt lat="42.889" lon="1.44728">
        <ele>1597</ele>
        <time>2022-01-29T11:39:50.543Z</time>
      </trkpt>
      <trkpt lat="42.88895" lon="1.4472">
        <ele>1597</ele>
        <time>2022-01-29T11:40:08.547Z</time>
      </trkpt>
      <trkpt lat="42.88892" lon="1.44712">
        <ele>1597</ele>
        <time>2022-01-29T11:40:22.543Z</time>
      </trkpt>
      <trkpt lat="42.88891" lon="1.44709">
        <ele>1597</ele>
        <time>2022-01-29T11:40:26.543Z</time>
      </trkpt>
      <trkpt lat="42.8889" lon="1.44706">
        <ele>1604</ele>
        <time>2022-01-29T11:40:31.546Z</time>
      </trkpt>
      <trkpt lat="42.88889" lon="1.44707">
        <ele>1604</ele>
        <time>2022-01-29T11:40:35.543Z</time>
      </trkpt>
      <trkpt lat="42.88883" lon="1.44699">
        <ele>1604</ele>
        <time>2022-01-29T11:40:58.539Z</time>
      </trkpt>
      <trkpt lat="42.88883" lon="1.44694">
        <ele>1604</ele>
        <time>2022-01-29T11:41:08.545Z</time>
      </trkpt>
      <trkpt lat="42.88882" lon="1.44689">
        <ele>1604</ele>
        <time>2022-01-29T11:41:13.544Z</time>
      </trkpt>
      <trkpt lat="42.8888" lon="1.44687">
        <ele>1604</ele>
        <time>2022-01-29T11:41:18.547Z</time>
      </trkpt>
      <trkpt lat="42.88879" lon="1.44685">
        <ele>1604</ele>
        <time>2022-01-29T11:41:22.587Z</time>
      </trkpt>
      <trkpt lat="42.88878" lon="1.44685">
        <ele>1604</ele>
        <time>2022-01-29T11:41:27.546Z</time>
      </trkpt>
      <trkpt lat="42.88872" lon="1.44675">
        <ele>1610</ele>
        <time>2022-01-29T11:41:50.544Z</time>
      </trkpt>
      <trkpt lat="42.88871" lon="1.44673">
        <ele>1610</ele>
        <time>2022-01-29T11:41:55.541Z</time>
      </trkpt>
      <trkpt lat="42.8887" lon="1.4467">
        <ele>1610</ele>
        <time>2022-01-29T11:42:00.544Z</time>
      </trkpt>
      <trkpt lat="42.88869" lon="1.44669">
        <ele>1610</ele>
        <time>2022-01-29T11:42:05.544Z</time>
      </trkpt>
      <trkpt lat="42.88868" lon="1.44667">
        <ele>1610</ele>
        <time>2022-01-29T11:42:09.541Z</time>
      </trkpt>
      <trkpt lat="42.88866" lon="1.44666">
        <ele>1610</ele>
        <time>2022-01-29T11:42:14.542Z</time>
      </trkpt>
      <trkpt lat="42.88865" lon="1.44659">
        <ele>1610</ele>
        <time>2022-01-29T11:42:34.542Z</time>
      </trkpt>
      <trkpt lat="42.88857" lon="1.44653">
        <ele>1610</ele>
        <time>2022-01-29T11:42:57.545Z</time>
      </trkpt>
      <trkpt lat="42.88855" lon="1.44653">
        <ele>1620</ele>
        <time>2022-01-29T11:43:01.541Z</time>
      </trkpt>
      <trkpt lat="42.88855" lon="1.4465">
        <ele>1620</ele>
        <time>2022-01-29T11:43:10.545Z</time>
      </trkpt>
      <trkpt lat="42.88853" lon="1.44648">
        <ele>1620</ele>
        <time>2022-01-29T11:43:15.546Z</time>
      </trkpt>
      <trkpt lat="42.88851" lon="1.44647">
        <ele>1620</ele>
        <time>2022-01-29T11:43:20.547Z</time>
      </trkpt>
      <trkpt lat="42.88849" lon="1.44645">
        <ele>1620</ele>
        <time>2022-01-29T11:43:25.543Z</time>
      </trkpt>
      <trkpt lat="42.88849" lon="1.44643">
        <ele>1620</ele>
        <time>2022-01-29T11:43:29.543Z</time>
      </trkpt>
      <trkpt lat="42.88845" lon="1.44635">
        <ele>1625</ele>
        <time>2022-01-29T11:43:43.545Z</time>
      </trkpt>
      <trkpt lat="42.88845" lon="1.44633">
        <ele>1625</ele>
        <time>2022-01-29T11:43:48.544Z</time>
      </trkpt>
      <trkpt lat="42.88845" lon="1.44631">
        <ele>1625</ele>
        <time>2022-01-29T11:43:52.547Z</time>
      </trkpt>
      <trkpt lat="42.88844" lon="1.4463">
        <ele>1625</ele>
        <time>2022-01-29T11:43:57.545Z</time>
      </trkpt>
      <trkpt lat="42.88843" lon="1.44629">
        <ele>1625</ele>
        <time>2022-01-29T11:44:02.545Z</time>
      </trkpt>
      <trkpt lat="42.88836" lon="1.44622">
        <ele>1637</ele>
        <time>2022-01-29T11:44:25.544Z</time>
      </trkpt>
      <trkpt lat="42.88835" lon="1.44622">
        <ele>1637</ele>
        <time>2022-01-29T11:44:29.544Z</time>
      </trkpt>
      <trkpt lat="42.88835" lon="1.44622">
        <ele>1637</ele>
        <time>2022-01-29T11:44:33.543Z</time>
      </trkpt>
      <trkpt lat="42.88835" lon="1.4462">
        <ele>1637</ele>
        <time>2022-01-29T11:44:38.545Z</time>
      </trkpt>
      <trkpt lat="42.88824" lon="1.44616">
        <ele>1637</ele>
        <time>2022-01-29T11:45:10.530Z</time>
      </trkpt>
      <trkpt lat="42.88823" lon="1.44613">
        <ele>1637</ele>
        <time>2022-01-29T11:45:15.551Z</time>
      </trkpt>
      <trkpt lat="42.88823" lon="1.44612">
        <ele>1637</ele>
        <time>2022-01-29T11:45:20.512Z</time>
      </trkpt>
      <trkpt lat="42.88818" lon="1.44613">
        <ele>1643</ele>
        <time>2022-01-29T11:45:29.522Z</time>
      </trkpt>
      <trkpt lat="42.88816" lon="1.44611">
        <ele>1643</ele>
        <time>2022-01-29T11:45:33.527Z</time>
      </trkpt>
      <trkpt lat="42.88814" lon="1.44609">
        <ele>1643</ele>
        <time>2022-01-29T11:45:38.531Z</time>
      </trkpt>
      <trkpt lat="42.88808" lon="1.44608">
        <ele>1643</ele>
        <time>2022-01-29T11:45:48.525Z</time>
      </trkpt>
      <trkpt lat="42.88806" lon="1.44608">
        <ele>1643</ele>
        <time>2022-01-29T11:45:53.513Z</time>
      </trkpt>
      <trkpt lat="42.88805" lon="1.44607">
        <ele>1643</ele>
        <time>2022-01-29T11:45:58.524Z</time>
      </trkpt>
      <trkpt lat="42.88804" lon="1.44606">
        <ele>1643</ele>
        <time>2022-01-29T11:46:03.523Z</time>
      </trkpt>
      <trkpt lat="42.88802" lon="1.44606">
        <ele>1643</ele>
        <time>2022-01-29T11:46:08.550Z</time>
      </trkpt>
      <trkpt lat="42.88799" lon="1.44605">
        <ele>1643</ele>
        <time>2022-01-29T11:46:13.520Z</time>
      </trkpt>
      <trkpt lat="42.88797" lon="1.44603">
        <ele>1643</ele>
        <time>2022-01-29T11:46:18.526Z</time>
      </trkpt>
      <trkpt lat="42.88796" lon="1.44603">
        <ele>1643</ele>
        <time>2022-01-29T11:46:23.510Z</time>
      </trkpt>
      <trkpt lat="42.88789" lon="1.44596">
        <ele>1651</ele>
        <time>2022-01-29T11:46:37.512Z</time>
      </trkpt>
      <trkpt lat="42.88786" lon="1.44594">
        <ele>1651</ele>
        <time>2022-01-29T11:46:46.524Z</time>
      </trkpt>
      <trkpt lat="42.88785" lon="1.44594">
        <ele>1651</ele>
        <time>2022-01-29T11:46:50.539Z</time>
      </trkpt>
      <trkpt lat="42.88784" lon="1.44593">
        <ele>1651</ele>
        <time>2022-01-29T11:46:54.524Z</time>
      </trkpt>
      <trkpt lat="42.88782" lon="1.44589">
        <ele>1651</ele>
        <time>2022-01-29T11:46:59.536Z</time>
      </trkpt>
      <trkpt lat="42.8878" lon="1.44587">
        <ele>1651</ele>
        <time>2022-01-29T11:47:04.506Z</time>
      </trkpt>
      <trkpt lat="42.88776" lon="1.4458">
        <ele>1651</ele>
        <time>2022-01-29T11:47:17.522Z</time>
      </trkpt>
      <trkpt lat="42.88776" lon="1.44578">
        <ele>1651</ele>
        <time>2022-01-29T11:47:22.549Z</time>
      </trkpt>
      <trkpt lat="42.88774" lon="1.44576">
        <ele>1651</ele>
        <time>2022-01-29T11:47:27.523Z</time>
      </trkpt>
      <trkpt lat="42.88773" lon="1.44575">
        <ele>1651</ele>
        <time>2022-01-29T11:47:32.529Z</time>
      </trkpt>
      <trkpt lat="42.88771" lon="1.44576">
        <ele>1651</ele>
        <time>2022-01-29T11:47:36.554Z</time>
      </trkpt>
      <trkpt lat="42.88769" lon="1.44579">
        <ele>1651</ele>
        <time>2022-01-29T11:48:17.582Z</time>
      </trkpt>
      <trkpt lat="42.88767" lon="1.44583">
        <ele>1651</ele>
        <time>2022-01-29T11:48:22.544Z</time>
      </trkpt>
      <trkpt lat="42.88765" lon="1.44585">
        <ele>1651</ele>
        <time>2022-01-29T11:48:27.543Z</time>
      </trkpt>
      <trkpt lat="42.88764" lon="1.44586">
        <ele>1651</ele>
        <time>2022-01-29T11:48:32.545Z</time>
      </trkpt>
      <trkpt lat="42.88762" lon="1.44588">
        <ele>1651</ele>
        <time>2022-01-29T11:48:36.552Z</time>
      </trkpt>
      <trkpt lat="42.88757" lon="1.44588">
        <ele>1651</ele>
        <time>2022-01-29T11:50:40.546Z</time>
      </trkpt>
      <trkpt lat="42.88756" lon="1.44589">
        <ele>1651</ele>
        <time>2022-01-29T11:50:45.543Z</time>
      </trkpt>
      <trkpt lat="42.88753" lon="1.44584">
        <ele>1651</ele>
        <time>2022-01-29T11:51:04.519Z</time>
      </trkpt>
      <trkpt lat="42.88748" lon="1.44577">
        <ele>1651</ele>
        <time>2022-01-29T11:51:08.532Z</time>
      </trkpt>
      <trkpt lat="42.88747" lon="1.44572">
        <ele>1651</ele>
        <time>2022-01-29T11:51:12.531Z</time>
      </trkpt>
      <trkpt lat="42.8875" lon="1.4457">
        <ele>1651</ele>
        <time>2022-01-29T11:53:41.543Z</time>
      </trkpt>
      <trkpt lat="42.88749" lon="1.4458">
        <ele>1651</ele>
        <time>2022-01-29T11:54:00.549Z</time>
      </trkpt>
      <trkpt lat="42.88751" lon="1.44585">
        <ele>1651</ele>
        <time>2022-01-29T11:54:05.548Z</time>
      </trkpt>
      <trkpt lat="42.88753" lon="1.44589">
        <ele>1651</ele>
        <time>2022-01-29T11:54:09.578Z</time>
      </trkpt>
      <trkpt lat="42.88755" lon="1.44593">
        <ele>1651</ele>
        <time>2022-01-29T11:54:14.549Z</time>
      </trkpt>
      <trkpt lat="42.88758" lon="1.44591">
        <ele>1651</ele>
        <time>2022-01-29T12:36:55.536Z</time>
      </trkpt>
      <trkpt lat="42.88758" lon="1.44592">
        <ele>1651</ele>
        <time>2022-01-29T12:37:00.545Z</time>
      </trkpt>
      <trkpt lat="42.88759" lon="1.44595">
        <ele>1651</ele>
        <time>2022-01-29T12:37:19.531Z</time>
      </trkpt>
      <trkpt lat="42.8876" lon="1.44599">
        <ele>1645</ele>
        <time>2022-01-29T12:37:24.546Z</time>
      </trkpt>
      <trkpt lat="42.8876" lon="1.44602">
        <ele>1645</ele>
        <time>2022-01-29T12:37:29.543Z</time>
      </trkpt>
      <trkpt lat="42.88761" lon="1.446">
        <ele>1645</ele>
        <time>2022-01-29T12:37:48.545Z</time>
      </trkpt>
      <trkpt lat="42.88759" lon="1.44599">
        <ele>1645</ele>
        <time>2022-01-29T12:37:53.528Z</time>
      </trkpt>
      <trkpt lat="42.88757" lon="1.44596">
        <ele>1651</ele>
        <time>2022-01-29T12:37:57.540Z</time>
      </trkpt>
      <trkpt lat="42.88755" lon="1.44592">
        <ele>1651</ele>
        <time>2022-01-29T12:38:02.529Z</time>
      </trkpt>
      <trkpt lat="42.88755" lon="1.44589">
        <ele>1651</ele>
        <time>2022-01-29T12:38:07.541Z</time>
      </trkpt>
      <trkpt lat="42.88757" lon="1.44588">
        <ele>1651</ele>
        <time>2022-01-29T12:41:08.546Z</time>
      </trkpt>
      <trkpt lat="42.88756" lon="1.44588">
        <ele>1651</ele>
        <time>2022-01-29T12:41:13.530Z</time>
      </trkpt>
      <trkpt lat="42.88756" lon="1.44595">
        <ele>1651</ele>
        <time>2022-01-29T12:41:22.583Z</time>
      </trkpt>
      <trkpt lat="42.88754" lon="1.446">
        <ele>1645</ele>
        <time>2022-01-29T12:41:27.529Z</time>
      </trkpt>
      <trkpt lat="42.88752" lon="1.44604">
        <ele>1645</ele>
        <time>2022-01-29T12:41:32.545Z</time>
      </trkpt>
      <trkpt lat="42.88746" lon="1.44611">
        <ele>1645</ele>
        <time>2022-01-29T12:41:42.544Z</time>
      </trkpt>
      <trkpt lat="42.88743" lon="1.44612">
        <ele>1645</ele>
        <time>2022-01-29T12:41:46.563Z</time>
      </trkpt>
      <trkpt lat="42.88743" lon="1.44613">
        <ele>1645</ele>
        <time>2022-01-29T12:41:51.531Z</time>
      </trkpt>
      <trkpt lat="42.88743" lon="1.44613">
        <ele>1645</ele>
        <time>2022-01-29T12:41:56.547Z</time>
      </trkpt>
      <trkpt lat="42.8874" lon="1.44617">
        <ele>1645</ele>
        <time>2022-01-29T12:42:01.526Z</time>
      </trkpt>
      <trkpt lat="42.88737" lon="1.4462">
        <ele>1645</ele>
        <time>2022-01-29T12:42:05.531Z</time>
      </trkpt>
      <trkpt lat="42.88733" lon="1.44624">
        <ele>1645</ele>
        <time>2022-01-29T12:42:10.546Z</time>
      </trkpt>
      <trkpt lat="42.8873" lon="1.44628">
        <ele>1641</ele>
        <time>2022-01-29T12:42:14.548Z</time>
      </trkpt>
      <trkpt lat="42.88726" lon="1.44632">
        <ele>1641</ele>
        <time>2022-01-29T12:42:19.536Z</time>
      </trkpt>
      <trkpt lat="42.88722" lon="1.44635">
        <ele>1641</ele>
        <time>2022-01-29T12:42:24.545Z</time>
      </trkpt>
      <trkpt lat="42.88719" lon="1.44639">
        <ele>1641</ele>
        <time>2022-01-29T12:42:29.534Z</time>
      </trkpt>
      <trkpt lat="42.88716" lon="1.44643">
        <ele>1641</ele>
        <time>2022-01-29T12:42:34.544Z</time>
      </trkpt>
      <trkpt lat="42.88713" lon="1.44646">
        <ele>1641</ele>
        <time>2022-01-29T12:42:38.563Z</time>
      </trkpt>
      <trkpt lat="42.88711" lon="1.4465">
        <ele>1641</ele>
        <time>2022-01-29T12:42:43.534Z</time>
      </trkpt>
      <trkpt lat="42.88708" lon="1.44654">
        <ele>1631</ele>
        <time>2022-01-29T12:42:48.544Z</time>
      </trkpt>
      <trkpt lat="42.88705" lon="1.44657">
        <ele>1631</ele>
        <time>2022-01-29T12:42:52.542Z</time>
      </trkpt>
      <trkpt lat="42.88701" lon="1.44661">
        <ele>1631</ele>
        <time>2022-01-29T12:42:57.526Z</time>
      </trkpt>
      <trkpt lat="42.88697" lon="1.44662">
        <ele>1631</ele>
        <time>2022-01-29T12:43:01.528Z</time>
      </trkpt>
      <trkpt lat="42.88693" lon="1.44664">
        <ele>1631</ele>
        <time>2022-01-29T12:43:06.544Z</time>
      </trkpt>
      <trkpt lat="42.8869" lon="1.44668">
        <ele>1631</ele>
        <time>2022-01-29T12:43:11.529Z</time>
      </trkpt>
      <trkpt lat="42.88689" lon="1.44673">
        <ele>1631</ele>
        <time>2022-01-29T12:43:16.541Z</time>
      </trkpt>
      <trkpt lat="42.88686" lon="1.44678">
        <ele>1631</ele>
        <time>2022-01-29T12:43:21.536Z</time>
      </trkpt>
      <trkpt lat="42.88682" lon="1.44681">
        <ele>1629</ele>
        <time>2022-01-29T12:43:26.544Z</time>
      </trkpt>
      <trkpt lat="42.8868" lon="1.44685">
        <ele>1626</ele>
        <time>2022-01-29T12:43:30.577Z</time>
      </trkpt>
      <trkpt lat="42.88678" lon="1.44689">
        <ele>1626</ele>
        <time>2022-01-29T12:43:35.531Z</time>
      </trkpt>
      <trkpt lat="42.88674" lon="1.44692">
        <ele>1626</ele>
        <time>2022-01-29T12:43:40.543Z</time>
      </trkpt>
      <trkpt lat="42.8867" lon="1.44695">
        <ele>1626</ele>
        <time>2022-01-29T12:43:45.529Z</time>
      </trkpt>
      <trkpt lat="42.88665" lon="1.44697">
        <ele>1626</ele>
        <time>2022-01-29T12:43:50.544Z</time>
      </trkpt>
      <trkpt lat="42.88663" lon="1.44701">
        <ele>1626</ele>
        <time>2022-01-29T12:43:54.574Z</time>
      </trkpt>
      <trkpt lat="42.88659" lon="1.44705">
        <ele>1626</ele>
        <time>2022-01-29T12:43:59.530Z</time>
      </trkpt>
      <trkpt lat="42.88657" lon="1.44709">
        <ele>1626</ele>
        <time>2022-01-29T12:44:03.539Z</time>
      </trkpt>
      <trkpt lat="42.88653" lon="1.44714">
        <ele>1626</ele>
        <time>2022-01-29T12:44:08.543Z</time>
      </trkpt>
      <trkpt lat="42.8865" lon="1.44717">
        <ele>1622</ele>
        <time>2022-01-29T12:44:12.544Z</time>
      </trkpt>
      <trkpt lat="42.88648" lon="1.44721">
        <ele>1622</ele>
        <time>2022-01-29T12:44:17.530Z</time>
      </trkpt>
      <trkpt lat="42.88646" lon="1.44725">
        <ele>1622</ele>
        <time>2022-01-29T12:44:22.545Z</time>
      </trkpt>
      <trkpt lat="42.88643" lon="1.44729">
        <ele>1622</ele>
        <time>2022-01-29T12:44:27.529Z</time>
      </trkpt>
      <trkpt lat="42.88641" lon="1.44732">
        <ele>1622</ele>
        <time>2022-01-29T12:44:32.546Z</time>
      </trkpt>
      <trkpt lat="42.88638" lon="1.44735">
        <ele>1622</ele>
        <time>2022-01-29T12:44:37.510Z</time>
      </trkpt>
      <trkpt lat="42.88637" lon="1.44737">
        <ele>1622</ele>
        <time>2022-01-29T12:44:41.586Z</time>
      </trkpt>
      <trkpt lat="42.88635" lon="1.4474">
        <ele>1622</ele>
        <time>2022-01-29T12:44:46.545Z</time>
      </trkpt>
      <trkpt lat="42.88633" lon="1.44743">
        <ele>1622</ele>
        <time>2022-01-29T12:44:51.536Z</time>
      </trkpt>
      <trkpt lat="42.8863" lon="1.44746">
        <ele>1622</ele>
        <time>2022-01-29T12:44:56.547Z</time>
      </trkpt>
      <trkpt lat="42.88627" lon="1.4475">
        <ele>1622</ele>
        <time>2022-01-29T12:45:01.535Z</time>
      </trkpt>
      <trkpt lat="42.88626" lon="1.44753">
        <ele>1622</ele>
        <time>2022-01-29T12:45:05.538Z</time>
      </trkpt>
      <trkpt lat="42.88623" lon="1.44759">
        <ele>1617</ele>
        <time>2022-01-29T12:45:10.545Z</time>
      </trkpt>
      <trkpt lat="42.8862" lon="1.44763">
        <ele>1617</ele>
        <time>2022-01-29T12:45:14.545Z</time>
      </trkpt>
      <trkpt lat="42.88618" lon="1.44767">
        <ele>1616</ele>
        <time>2022-01-29T12:45:19.534Z</time>
      </trkpt>
      <trkpt lat="42.88617" lon="1.44772">
        <ele>1616</ele>
        <time>2022-01-29T12:45:23.534Z</time>
      </trkpt>
      <trkpt lat="42.88615" lon="1.44775">
        <ele>1616</ele>
        <time>2022-01-29T12:45:28.546Z</time>
      </trkpt>
      <trkpt lat="42.88613" lon="1.44778">
        <ele>1616</ele>
        <time>2022-01-29T12:45:33.533Z</time>
      </trkpt>
      <trkpt lat="42.88612" lon="1.44781">
        <ele>1616</ele>
        <time>2022-01-29T12:45:37.544Z</time>
      </trkpt>
      <trkpt lat="42.88608" lon="1.44787">
        <ele>1616</ele>
        <time>2022-01-29T12:45:42.546Z</time>
      </trkpt>
      <trkpt lat="42.88607" lon="1.44788">
        <ele>1616</ele>
        <time>2022-01-29T12:45:46.590Z</time>
      </trkpt>
      <trkpt lat="42.88606" lon="1.44792">
        <ele>1612</ele>
        <time>2022-01-29T12:45:51.532Z</time>
      </trkpt>
      <trkpt lat="42.88604" lon="1.44795">
        <ele>1612</ele>
        <time>2022-01-29T12:45:55.534Z</time>
      </trkpt>
      <trkpt lat="42.88602" lon="1.44798">
        <ele>1612</ele>
        <time>2022-01-29T12:45:59.540Z</time>
      </trkpt>
      <trkpt lat="42.886" lon="1.44801">
        <ele>1612</ele>
        <time>2022-01-29T12:46:04.581Z</time>
      </trkpt>
      <trkpt lat="42.88597" lon="1.44804">
        <ele>1607</ele>
        <time>2022-01-29T12:46:09.535Z</time>
      </trkpt>
      <trkpt lat="42.88596" lon="1.44808">
        <ele>1607</ele>
        <time>2022-01-29T12:46:13.539Z</time>
      </trkpt>
      <trkpt lat="42.88595" lon="1.44814">
        <ele>1607</ele>
        <time>2022-01-29T12:46:18.546Z</time>
      </trkpt>
      <trkpt lat="42.88593" lon="1.44816">
        <ele>1607</ele>
        <time>2022-01-29T12:46:22.586Z</time>
      </trkpt>
      <trkpt lat="42.88589" lon="1.44819">
        <ele>1607</ele>
        <time>2022-01-29T12:46:27.535Z</time>
      </trkpt>
      <trkpt lat="42.88585" lon="1.44821">
        <ele>1602</ele>
        <time>2022-01-29T12:46:32.546Z</time>
      </trkpt>
      <trkpt lat="42.88582" lon="1.44825">
        <ele>1602</ele>
        <time>2022-01-29T12:46:36.545Z</time>
      </trkpt>
      <trkpt lat="42.88579" lon="1.44826">
        <ele>1602</ele>
        <time>2022-01-29T12:46:40.575Z</time>
      </trkpt>
      <trkpt lat="42.88577" lon="1.44829">
        <ele>1602</ele>
        <time>2022-01-29T12:46:45.535Z</time>
      </trkpt>
      <trkpt lat="42.88573" lon="1.44834">
        <ele>1602</ele>
        <time>2022-01-29T12:46:54.545Z</time>
      </trkpt>
      <trkpt lat="42.88572" lon="1.44834">
        <ele>1602</ele>
        <time>2022-01-29T12:46:58.577Z</time>
      </trkpt>
      <trkpt lat="42.88571" lon="1.44834">
        <ele>1602</ele>
        <time>2022-01-29T12:47:03.533Z</time>
      </trkpt>
      <trkpt lat="42.88567" lon="1.44832">
        <ele>1599</ele>
        <time>2022-01-29T12:47:21.535Z</time>
      </trkpt>
      <trkpt lat="42.88565" lon="1.44827">
        <ele>1599</ele>
        <time>2022-01-29T12:47:26.545Z</time>
      </trkpt>
      <trkpt lat="42.88562" lon="1.44822">
        <ele>1599</ele>
        <time>2022-01-29T12:47:31.532Z</time>
      </trkpt>
      <trkpt lat="42.8856" lon="1.44819">
        <ele>1600</ele>
        <time>2022-01-29T12:47:35.541Z</time>
      </trkpt>
      <trkpt lat="42.88555" lon="1.44816">
        <ele>1600</ele>
        <time>2022-01-29T12:47:40.585Z</time>
      </trkpt>
      <trkpt lat="42.88552" lon="1.44815">
        <ele>1600</ele>
        <time>2022-01-29T12:47:45.535Z</time>
      </trkpt>
      <trkpt lat="42.88548" lon="1.44816">
        <ele>1600</ele>
        <time>2022-01-29T12:49:16.576Z</time>
      </trkpt>
      <trkpt lat="42.88547" lon="1.4482">
        <ele>1599</ele>
        <time>2022-01-29T12:49:49.547Z</time>
      </trkpt>
      <trkpt lat="42.88546" lon="1.44828">
        <ele>1599</ele>
        <time>2022-01-29T12:49:54.541Z</time>
      </trkpt>
      <trkpt lat="42.88544" lon="1.44834">
        <ele>1599</ele>
        <time>2022-01-29T12:49:58.582Z</time>
      </trkpt>
      <trkpt lat="42.88543" lon="1.4484">
        <ele>1599</ele>
        <time>2022-01-29T12:50:03.544Z</time>
      </trkpt>
      <trkpt lat="42.8854" lon="1.44847">
        <ele>1594</ele>
        <time>2022-01-29T12:50:08.545Z</time>
      </trkpt>
      <trkpt lat="42.88536" lon="1.44853">
        <ele>1593</ele>
        <time>2022-01-29T12:50:13.541Z</time>
      </trkpt>
      <trkpt lat="42.88533" lon="1.44858">
        <ele>1593</ele>
        <time>2022-01-29T12:50:18.549Z</time>
      </trkpt>
      <trkpt lat="42.88532" lon="1.44861">
        <ele>1593</ele>
        <time>2022-01-29T12:50:22.545Z</time>
      </trkpt>
      <trkpt lat="42.88531" lon="1.44866">
        <ele>1593</ele>
        <time>2022-01-29T12:50:27.543Z</time>
      </trkpt>
      <trkpt lat="42.88526" lon="1.4487">
        <ele>1593</ele>
        <time>2022-01-29T12:50:32.548Z</time>
      </trkpt>
      <trkpt lat="42.88523" lon="1.44873">
        <ele>1593</ele>
        <time>2022-01-29T12:50:37.543Z</time>
      </trkpt>
      <trkpt lat="42.8852" lon="1.44877">
        <ele>1588</ele>
        <time>2022-01-29T12:50:42.549Z</time>
      </trkpt>
      <trkpt lat="42.88516" lon="1.4488">
        <ele>1588</ele>
        <time>2022-01-29T12:50:47.545Z</time>
      </trkpt>
      <trkpt lat="42.88512" lon="1.44884">
        <ele>1590</ele>
        <time>2022-01-29T12:50:51.541Z</time>
      </trkpt>
      <trkpt lat="42.88507" lon="1.44887">
        <ele>1590</ele>
        <time>2022-01-29T12:50:56.549Z</time>
      </trkpt>
      <trkpt lat="42.88504" lon="1.4489">
        <ele>1590</ele>
        <time>2022-01-29T12:51:01.535Z</time>
      </trkpt>
      <trkpt lat="42.885" lon="1.44893">
        <ele>1590</ele>
        <time>2022-01-29T12:51:06.546Z</time>
      </trkpt>
      <trkpt lat="42.88495" lon="1.44893">
        <ele>1590</ele>
        <time>2022-01-29T12:51:11.544Z</time>
      </trkpt>
      <trkpt lat="42.8849" lon="1.44896">
        <ele>1590</ele>
        <time>2022-01-29T12:51:16.546Z</time>
      </trkpt>
      <trkpt lat="42.88487" lon="1.44896">
        <ele>1590</ele>
        <time>2022-01-29T12:51:20.581Z</time>
      </trkpt>
      <trkpt lat="42.88483" lon="1.44897">
        <ele>1586</ele>
        <time>2022-01-29T12:51:25.540Z</time>
      </trkpt>
      <trkpt lat="42.88481" lon="1.44898">
        <ele>1586</ele>
        <time>2022-01-29T12:51:29.535Z</time>
      </trkpt>
      <trkpt lat="42.88478" lon="1.449">
        <ele>1586</ele>
        <time>2022-01-29T12:51:34.547Z</time>
      </trkpt>
      <trkpt lat="42.88477" lon="1.44902">
        <ele>1586</ele>
        <time>2022-01-29T12:51:39.544Z</time>
      </trkpt>
      <trkpt lat="42.88473" lon="1.44905">
        <ele>1583</ele>
        <time>2022-01-29T12:51:44.545Z</time>
      </trkpt>
      <trkpt lat="42.8847" lon="1.44905">
        <ele>1583</ele>
        <time>2022-01-29T12:51:48.571Z</time>
      </trkpt>
      <trkpt lat="42.88468" lon="1.44909">
        <ele>1583</ele>
        <time>2022-01-29T12:51:53.538Z</time>
      </trkpt>
      <trkpt lat="42.88466" lon="1.44911">
        <ele>1583</ele>
        <time>2022-01-29T12:51:57.537Z</time>
      </trkpt>
      <trkpt lat="42.88464" lon="1.44915">
        <ele>1583</ele>
        <time>2022-01-29T12:52:02.545Z</time>
      </trkpt>
      <trkpt lat="42.8846" lon="1.44918">
        <ele>1583</ele>
        <time>2022-01-29T12:52:07.520Z</time>
      </trkpt>
      <trkpt lat="42.88457" lon="1.44921">
        <ele>1581</ele>
        <time>2022-01-29T12:52:12.513Z</time>
      </trkpt>
      <trkpt lat="42.88455" lon="1.44922">
        <ele>1581</ele>
        <time>2022-01-29T12:52:16.547Z</time>
      </trkpt>
      <trkpt lat="42.88452" lon="1.44924">
        <ele>1581</ele>
        <time>2022-01-29T12:52:21.534Z</time>
      </trkpt>
      <trkpt lat="42.88449" lon="1.44927">
        <ele>1581</ele>
        <time>2022-01-29T12:52:25.540Z</time>
      </trkpt>
      <trkpt lat="42.88447" lon="1.44931">
        <ele>1576</ele>
        <time>2022-01-29T12:52:29.543Z</time>
      </trkpt>
      <trkpt lat="42.88444" lon="1.44934">
        <ele>1576</ele>
        <time>2022-01-29T12:52:34.585Z</time>
      </trkpt>
      <trkpt lat="42.88441" lon="1.44937">
        <ele>1576</ele>
        <time>2022-01-29T12:52:39.547Z</time>
      </trkpt>
      <trkpt lat="42.88437" lon="1.44941">
        <ele>1576</ele>
        <time>2022-01-29T12:52:44.546Z</time>
      </trkpt>
      <trkpt lat="42.88435" lon="1.44945">
        <ele>1576</ele>
        <time>2022-01-29T12:52:48.546Z</time>
      </trkpt>
      <trkpt lat="42.88432" lon="1.44948">
        <ele>1576</ele>
        <time>2022-01-29T12:52:52.573Z</time>
      </trkpt>
      <trkpt lat="42.88428" lon="1.44952">
        <ele>1573</ele>
        <time>2022-01-29T12:52:57.543Z</time>
      </trkpt>
      <trkpt lat="42.88427" lon="1.44955">
        <ele>1573</ele>
        <time>2022-01-29T12:53:01.546Z</time>
      </trkpt>
      <trkpt lat="42.88427" lon="1.44957">
        <ele>1573</ele>
        <time>2022-01-29T12:53:06.551Z</time>
      </trkpt>
      <trkpt lat="42.88428" lon="1.44957">
        <ele>1573</ele>
        <time>2022-01-29T12:53:10.548Z</time>
      </trkpt>
      <trkpt lat="42.88423" lon="1.44962">
        <ele>1572</ele>
        <time>2022-01-29T12:53:24.547Z</time>
      </trkpt>
      <trkpt lat="42.8842" lon="1.44968">
        <ele>1572</ele>
        <time>2022-01-29T12:53:28.583Z</time>
      </trkpt>
      <trkpt lat="42.88417" lon="1.44971">
        <ele>1572</ele>
        <time>2022-01-29T12:53:33.548Z</time>
      </trkpt>
      <trkpt lat="42.88415" lon="1.44975">
        <ele>1572</ele>
        <time>2022-01-29T12:53:37.543Z</time>
      </trkpt>
      <trkpt lat="42.88411" lon="1.44979">
        <ele>1572</ele>
        <time>2022-01-29T12:53:42.545Z</time>
      </trkpt>
      <trkpt lat="42.88408" lon="1.44984">
        <ele>1572</ele>
        <time>2022-01-29T12:53:47.534Z</time>
      </trkpt>
      <trkpt lat="42.88405" lon="1.44988">
        <ele>1570</ele>
        <time>2022-01-29T12:53:51.544Z</time>
      </trkpt>
      <trkpt lat="42.88403" lon="1.44993">
        <ele>1570</ele>
        <time>2022-01-29T12:53:56.547Z</time>
      </trkpt>
      <trkpt lat="42.88401" lon="1.44998">
        <ele>1571</ele>
        <time>2022-01-29T12:54:00.546Z</time>
      </trkpt>
      <trkpt lat="42.88399" lon="1.45005">
        <ele>1571</ele>
        <time>2022-01-29T12:54:05.538Z</time>
      </trkpt>
      <trkpt lat="42.88396" lon="1.45011">
        <ele>1571</ele>
        <time>2022-01-29T12:54:10.549Z</time>
      </trkpt>
      <trkpt lat="42.88394" lon="1.45014">
        <ele>1570</ele>
        <time>2022-01-29T12:54:14.581Z</time>
      </trkpt>
      <trkpt lat="42.88391" lon="1.45019">
        <ele>1570</ele>
        <time>2022-01-29T12:54:19.536Z</time>
      </trkpt>
      <trkpt lat="42.8839" lon="1.45024">
        <ele>1570</ele>
        <time>2022-01-29T12:54:24.545Z</time>
      </trkpt>
      <trkpt lat="42.88386" lon="1.45029">
        <ele>1570</ele>
        <time>2022-01-29T12:54:29.540Z</time>
      </trkpt>
      <trkpt lat="42.88384" lon="1.45034">
        <ele>1570</ele>
        <time>2022-01-29T12:54:34.547Z</time>
      </trkpt>
      <trkpt lat="42.88382" lon="1.45038">
        <ele>1570</ele>
        <time>2022-01-29T12:54:38.586Z</time>
      </trkpt>
      <trkpt lat="42.88381" lon="1.45044">
        <ele>1568</ele>
        <time>2022-01-29T12:54:43.537Z</time>
      </trkpt>
      <trkpt lat="42.88375" lon="1.45057">
        <ele>1568</ele>
        <time>2022-01-29T12:55:10.545Z</time>
      </trkpt>
      <trkpt lat="42.88373" lon="1.4506">
        <ele>1567</ele>
        <time>2022-01-29T12:55:24.551Z</time>
      </trkpt>
      <trkpt lat="42.8837" lon="1.45065">
        <ele>1567</ele>
        <time>2022-01-29T12:55:28.546Z</time>
      </trkpt>
      <trkpt lat="42.88367" lon="1.45071">
        <ele>1566</ele>
        <time>2022-01-29T12:55:33.543Z</time>
      </trkpt>
      <trkpt lat="42.88364" lon="1.45077">
        <ele>1566</ele>
        <time>2022-01-29T12:55:38.549Z</time>
      </trkpt>
      <trkpt lat="42.88362" lon="1.45081">
        <ele>1566</ele>
        <time>2022-01-29T12:55:42.586Z</time>
      </trkpt>
      <trkpt lat="42.88359" lon="1.45087">
        <ele>1566</ele>
        <time>2022-01-29T12:55:47.536Z</time>
      </trkpt>
      <trkpt lat="42.88357" lon="1.45092">
        <ele>1566</ele>
        <time>2022-01-29T12:55:52.553Z</time>
      </trkpt>
      <trkpt lat="42.88354" lon="1.45099">
        <ele>1565</ele>
        <time>2022-01-29T12:55:57.542Z</time>
      </trkpt>
      <trkpt lat="42.8835" lon="1.45105">
        <ele>1565</ele>
        <time>2022-01-29T12:56:02.542Z</time>
      </trkpt>
      <trkpt lat="42.88348" lon="1.4511">
        <ele>1565</ele>
        <time>2022-01-29T12:56:06.549Z</time>
      </trkpt>
      <trkpt lat="42.88345" lon="1.45116">
        <ele>1569</ele>
        <time>2022-01-29T12:56:11.529Z</time>
      </trkpt>
      <trkpt lat="42.88342" lon="1.45121">
        <ele>1569</ele>
        <time>2022-01-29T12:56:16.544Z</time>
      </trkpt>
      <trkpt lat="42.88339" lon="1.45128">
        <ele>1570</ele>
        <time>2022-01-29T12:56:21.539Z</time>
      </trkpt>
      <trkpt lat="42.88336" lon="1.45133">
        <ele>1570</ele>
        <time>2022-01-29T12:56:26.546Z</time>
      </trkpt>
      <trkpt lat="42.88334" lon="1.4514">
        <ele>1570</ele>
        <time>2022-01-29T12:56:31.532Z</time>
      </trkpt>
      <trkpt lat="42.88332" lon="1.45144">
        <ele>1570</ele>
        <time>2022-01-29T12:56:35.542Z</time>
      </trkpt>
      <trkpt lat="42.8833" lon="1.4515">
        <ele>1570</ele>
        <time>2022-01-29T12:56:40.545Z</time>
      </trkpt>
      <trkpt lat="42.88327" lon="1.45156">
        <ele>1572</ele>
        <time>2022-01-29T12:56:45.539Z</time>
      </trkpt>
      <trkpt lat="42.88326" lon="1.45161">
        <ele>1572</ele>
        <time>2022-01-29T12:56:49.542Z</time>
      </trkpt>
      <trkpt lat="42.88325" lon="1.45165">
        <ele>1572</ele>
        <time>2022-01-29T12:56:54.544Z</time>
      </trkpt>
      <trkpt lat="42.88324" lon="1.45169">
        <ele>1572</ele>
        <time>2022-01-29T12:56:58.581Z</time>
      </trkpt>
      <trkpt lat="42.88322" lon="1.45174">
        <ele>1572</ele>
        <time>2022-01-29T12:57:03.545Z</time>
      </trkpt>
      <trkpt lat="42.88319" lon="1.4518">
        <ele>1571</ele>
        <time>2022-01-29T12:57:08.547Z</time>
      </trkpt>
      <trkpt lat="42.88319" lon="1.45187">
        <ele>1574</ele>
        <time>2022-01-29T12:57:13.546Z</time>
      </trkpt>
      <trkpt lat="42.88317" lon="1.4519">
        <ele>1574</ele>
        <time>2022-01-29T12:57:18.544Z</time>
      </trkpt>
      <trkpt lat="42.88316" lon="1.45194">
        <ele>1574</ele>
        <time>2022-01-29T12:57:22.545Z</time>
      </trkpt>
      <trkpt lat="42.88316" lon="1.452">
        <ele>1574</ele>
        <time>2022-01-29T12:57:27.546Z</time>
      </trkpt>
      <trkpt lat="42.88314" lon="1.45204">
        <ele>1574</ele>
        <time>2022-01-29T12:57:31.567Z</time>
      </trkpt>
      <trkpt lat="42.88312" lon="1.45207">
        <ele>1574</ele>
        <time>2022-01-29T12:57:36.544Z</time>
      </trkpt>
      <trkpt lat="42.88311" lon="1.4521">
        <ele>1576</ele>
        <time>2022-01-29T12:57:40.547Z</time>
      </trkpt>
      <trkpt lat="42.8831" lon="1.45213">
        <ele>1576</ele>
        <time>2022-01-29T12:57:44.547Z</time>
      </trkpt>
      <trkpt lat="42.88309" lon="1.45217">
        <ele>1576</ele>
        <time>2022-01-29T12:57:48.577Z</time>
      </trkpt>
      <trkpt lat="42.88308" lon="1.4522">
        <ele>1576</ele>
        <time>2022-01-29T12:57:52.546Z</time>
      </trkpt>
      <trkpt lat="42.88307" lon="1.45226">
        <ele>1576</ele>
        <time>2022-01-29T12:57:57.538Z</time>
      </trkpt>
      <trkpt lat="42.88306" lon="1.4523">
        <ele>1576</ele>
        <time>2022-01-29T12:58:01.543Z</time>
      </trkpt>
      <trkpt lat="42.88305" lon="1.45233">
        <ele>1576</ele>
        <time>2022-01-29T12:58:05.543Z</time>
      </trkpt>
      <trkpt lat="42.88304" lon="1.45237">
        <ele>1580</ele>
        <time>2022-01-29T12:58:09.541Z</time>
      </trkpt>
      <trkpt lat="42.88303" lon="1.4524">
        <ele>1580</ele>
        <time>2022-01-29T12:58:14.544Z</time>
      </trkpt>
      <trkpt lat="42.88303" lon="1.45242">
        <ele>1580</ele>
        <time>2022-01-29T12:58:18.544Z</time>
      </trkpt>
      <trkpt lat="42.88302" lon="1.45247">
        <ele>1580</ele>
        <time>2022-01-29T12:58:23.543Z</time>
      </trkpt>
      <trkpt lat="42.88302" lon="1.4525">
        <ele>1580</ele>
        <time>2022-01-29T12:58:27.544Z</time>
      </trkpt>
      <trkpt lat="42.88301" lon="1.45254">
        <ele>1580</ele>
        <time>2022-01-29T12:58:32.544Z</time>
      </trkpt>
      <trkpt lat="42.883" lon="1.45257">
        <ele>1580</ele>
        <time>2022-01-29T12:58:36.545Z</time>
      </trkpt>
      <trkpt lat="42.88299" lon="1.4526">
        <ele>1580</ele>
        <time>2022-01-29T12:58:41.547Z</time>
      </trkpt>
      <trkpt lat="42.88299" lon="1.45262">
        <ele>1580</ele>
        <time>2022-01-29T12:58:45.573Z</time>
      </trkpt>
      <trkpt lat="42.88297" lon="1.45267">
        <ele>1585</ele>
        <time>2022-01-29T12:58:50.546Z</time>
      </trkpt>
      <trkpt lat="42.88297" lon="1.45267">
        <ele>1585</ele>
        <time>2022-01-29T12:58:54.547Z</time>
      </trkpt>
      <trkpt lat="42.88297" lon="1.45272">
        <ele>1585</ele>
        <time>2022-01-29T12:58:59.547Z</time>
      </trkpt>
      <trkpt lat="42.88296" lon="1.45274">
        <ele>1585</ele>
        <time>2022-01-29T12:59:03.543Z</time>
      </trkpt>
      <trkpt lat="42.88295" lon="1.45279">
        <ele>1585</ele>
        <time>2022-01-29T12:59:08.547Z</time>
      </trkpt>
      <trkpt lat="42.88295" lon="1.45283">
        <ele>1585</ele>
        <time>2022-01-29T12:59:12.544Z</time>
      </trkpt>
      <trkpt lat="42.88294" lon="1.45285">
        <ele>1585</ele>
        <time>2022-01-29T12:59:17.548Z</time>
      </trkpt>
      <trkpt lat="42.88293" lon="1.45287">
        <ele>1585</ele>
        <time>2022-01-29T12:59:21.576Z</time>
      </trkpt>
      <trkpt lat="42.88291" lon="1.45291">
        <ele>1586</ele>
        <time>2022-01-29T12:59:26.547Z</time>
      </trkpt>
      <trkpt lat="42.88291" lon="1.45293">
        <ele>1587</ele>
        <time>2022-01-29T12:59:31.543Z</time>
      </trkpt>
      <trkpt lat="42.8829" lon="1.45297">
        <ele>1587</ele>
        <time>2022-01-29T12:59:35.546Z</time>
      </trkpt>
      <trkpt lat="42.8829" lon="1.45299">
        <ele>1587</ele>
        <time>2022-01-29T12:59:39.549Z</time>
      </trkpt>
      <trkpt lat="42.8829" lon="1.45303">
        <ele>1587</ele>
        <time>2022-01-29T12:59:44.547Z</time>
      </trkpt>
      <trkpt lat="42.88292" lon="1.45311">
        <ele>1587</ele>
        <time>2022-01-29T12:59:54.544Z</time>
      </trkpt>
      <trkpt lat="42.88293" lon="1.45312">
        <ele>1585</ele>
        <time>2022-01-29T12:59:58.545Z</time>
      </trkpt>
      <trkpt lat="42.88295" lon="1.45313">
        <ele>1585</ele>
        <time>2022-01-29T13:00:02.548Z</time>
      </trkpt>
      <trkpt lat="42.88297" lon="1.45314">
        <ele>1585</ele>
        <time>2022-01-29T13:00:07.545Z</time>
      </trkpt>
      <trkpt lat="42.88301" lon="1.45319">
        <ele>1585</ele>
        <time>2022-01-29T13:00:12.551Z</time>
      </trkpt>
      <trkpt lat="42.88304" lon="1.45321">
        <ele>1578</ele>
        <time>2022-01-29T13:00:17.550Z</time>
      </trkpt>
      <trkpt lat="42.88306" lon="1.45323">
        <ele>1578</ele>
        <time>2022-01-29T13:00:21.552Z</time>
      </trkpt>
      <trkpt lat="42.88307" lon="1.45326">
        <ele>1578</ele>
        <time>2022-01-29T13:00:26.550Z</time>
      </trkpt>
      <trkpt lat="42.88308" lon="1.45331">
        <ele>1578</ele>
        <time>2022-01-29T13:00:31.554Z</time>
      </trkpt>
      <trkpt lat="42.88308" lon="1.45335">
        <ele>1578</ele>
        <time>2022-01-29T13:00:36.545Z</time>
      </trkpt>
      <trkpt lat="42.88311" lon="1.45329">
        <ele>1578</ele>
        <time>2022-01-29T13:02:11.549Z</time>
      </trkpt>
      <trkpt lat="42.88314" lon="1.45327">
        <ele>1578</ele>
        <time>2022-01-29T13:02:57.551Z</time>
      </trkpt>
      <trkpt lat="42.88318" lon="1.45325">
        <ele>1578</ele>
        <time>2022-01-29T13:03:01.579Z</time>
      </trkpt>
      <trkpt lat="42.8832" lon="1.45323">
        <ele>1570</ele>
        <time>2022-01-29T13:03:06.549Z</time>
      </trkpt>
      <trkpt lat="42.88322" lon="1.45322">
        <ele>1570</ele>
        <time>2022-01-29T13:03:11.552Z</time>
      </trkpt>
      <trkpt lat="42.88326" lon="1.45323">
        <ele>1570</ele>
        <time>2022-01-29T13:03:21.549Z</time>
      </trkpt>
      <trkpt lat="42.88329" lon="1.45323">
        <ele>1570</ele>
        <time>2022-01-29T13:03:25.549Z</time>
      </trkpt>
      <trkpt lat="42.88329" lon="1.45323">
        <ele>1570</ele>
        <time>2022-01-29T13:03:35.547Z</time>
      </trkpt>
      <trkpt lat="42.8833" lon="1.45322">
        <ele>1570</ele>
        <time>2022-01-29T13:03:40.544Z</time>
      </trkpt>
      <trkpt lat="42.88334" lon="1.45324">
        <ele>1570</ele>
        <time>2022-01-29T13:03:53.545Z</time>
      </trkpt>
      <trkpt lat="42.88346" lon="1.4532">
        <ele>1570</ele>
        <time>2022-01-29T13:04:58.545Z</time>
      </trkpt>
      <trkpt lat="42.88347" lon="1.4532">
        <ele>1570</ele>
        <time>2022-01-29T13:05:02.548Z</time>
      </trkpt>
      <trkpt lat="42.88349" lon="1.4532">
        <ele>1558</ele>
        <time>2022-01-29T13:05:07.546Z</time>
      </trkpt>
      <trkpt lat="42.88351" lon="1.4532">
        <ele>1558</ele>
        <time>2022-01-29T13:05:11.584Z</time>
      </trkpt>
      <trkpt lat="42.88355" lon="1.4532">
        <ele>1558</ele>
        <time>2022-01-29T13:05:16.546Z</time>
      </trkpt>
      <trkpt lat="42.88362" lon="1.45328">
        <ele>1558</ele>
        <time>2022-01-29T13:07:30.540Z</time>
      </trkpt>
      <trkpt lat="42.88364" lon="1.45328">
        <ele>1558</ele>
        <time>2022-01-29T13:07:34.571Z</time>
      </trkpt>
      <trkpt lat="42.88366" lon="1.45326">
        <ele>1558</ele>
        <time>2022-01-29T13:07:39.543Z</time>
      </trkpt>
      <trkpt lat="42.88368" lon="1.45327">
        <ele>1558</ele>
        <time>2022-01-29T13:07:44.552Z</time>
      </trkpt>
      <trkpt lat="42.88371" lon="1.4533">
        <ele>1558</ele>
        <time>2022-01-29T13:07:49.546Z</time>
      </trkpt>
      <trkpt lat="42.88373" lon="1.45333">
        <ele>1558</ele>
        <time>2022-01-29T13:08:52.550Z</time>
      </trkpt>
      <trkpt lat="42.88374" lon="1.45334">
        <ele>1558</ele>
        <time>2022-01-29T13:09:10.542Z</time>
      </trkpt>
      <trkpt lat="42.88376" lon="1.45334">
        <ele>1544</ele>
        <time>2022-01-29T13:09:14.589Z</time>
      </trkpt>
      <trkpt lat="42.88377" lon="1.45334">
        <ele>1544</ele>
        <time>2022-01-29T13:09:19.548Z</time>
      </trkpt>
      <trkpt lat="42.88379" lon="1.45336">
        <ele>1544</ele>
        <time>2022-01-29T13:09:24.547Z</time>
      </trkpt>
      <trkpt lat="42.88381" lon="1.45339">
        <ele>1544</ele>
        <time>2022-01-29T13:09:37.550Z</time>
      </trkpt>
      <trkpt lat="42.88382" lon="1.45341">
        <ele>1544</ele>
        <time>2022-01-29T13:09:42.550Z</time>
      </trkpt>
      <trkpt lat="42.88382" lon="1.45342">
        <ele>1544</ele>
        <time>2022-01-29T13:09:47.551Z</time>
      </trkpt>
      <trkpt lat="42.88386" lon="1.45339">
        <ele>1544</ele>
        <time>2022-01-29T13:09:56.581Z</time>
      </trkpt>
      <trkpt lat="42.88389" lon="1.4534">
        <ele>1544</ele>
        <time>2022-01-29T13:10:01.547Z</time>
      </trkpt>
      <trkpt lat="42.8839" lon="1.4534">
        <ele>1544</ele>
        <time>2022-01-29T13:10:05.544Z</time>
      </trkpt>
      <trkpt lat="42.88392" lon="1.45342">
        <ele>1544</ele>
        <time>2022-01-29T13:10:09.551Z</time>
      </trkpt>
      <trkpt lat="42.88395" lon="1.45343">
        <ele>1544</ele>
        <time>2022-01-29T13:10:14.550Z</time>
      </trkpt>
      <trkpt lat="42.88397" lon="1.45344">
        <ele>1544</ele>
        <time>2022-01-29T13:10:19.548Z</time>
      </trkpt>
      <trkpt lat="42.884" lon="1.45345">
        <ele>1544</ele>
        <time>2022-01-29T13:10:24.552Z</time>
      </trkpt>
      <trkpt lat="42.88406" lon="1.45348">
        <ele>1533</ele>
        <time>2022-01-29T13:10:43.547Z</time>
      </trkpt>
      <trkpt lat="42.88411" lon="1.45349">
        <ele>1533</ele>
        <time>2022-01-29T13:12:02.590Z</time>
      </trkpt>
      <trkpt lat="42.88411" lon="1.4535">
        <ele>1533</ele>
        <time>2022-01-29T13:12:07.548Z</time>
      </trkpt>
      <trkpt lat="42.88413" lon="1.45354">
        <ele>1533</ele>
        <time>2022-01-29T13:12:25.551Z</time>
      </trkpt>
      <trkpt lat="42.88416" lon="1.45355">
        <ele>1533</ele>
        <time>2022-01-29T13:12:30.549Z</time>
      </trkpt>
      <trkpt lat="42.88418" lon="1.45356">
        <ele>1533</ele>
        <time>2022-01-29T13:12:35.550Z</time>
      </trkpt>
      <trkpt lat="42.88421" lon="1.45357">
        <ele>1533</ele>
        <time>2022-01-29T13:12:40.550Z</time>
      </trkpt>
      <trkpt lat="42.88423" lon="1.4536">
        <ele>1533</ele>
        <time>2022-01-29T13:12:45.548Z</time>
      </trkpt>
      <trkpt lat="42.88425" lon="1.45362">
        <ele>1533</ele>
        <time>2022-01-29T13:12:50.547Z</time>
      </trkpt>
      <trkpt lat="42.88427" lon="1.45363">
        <ele>1533</ele>
        <time>2022-01-29T13:12:55.550Z</time>
      </trkpt>
      <trkpt lat="42.88429" lon="1.45366">
        <ele>1533</ele>
        <time>2022-01-29T13:12:59.586Z</time>
      </trkpt>
      <trkpt lat="42.88431" lon="1.45366">
        <ele>1529</ele>
        <time>2022-01-29T13:13:04.548Z</time>
      </trkpt>
      <trkpt lat="42.88433" lon="1.45369">
        <ele>1529</ele>
        <time>2022-01-29T13:13:08.551Z</time>
      </trkpt>
      <trkpt lat="42.88435" lon="1.45372">
        <ele>1529</ele>
        <time>2022-01-29T13:13:13.550Z</time>
      </trkpt>
      <trkpt lat="42.88437" lon="1.45372">
        <ele>1529</ele>
        <time>2022-01-29T13:13:17.551Z</time>
      </trkpt>
      <trkpt lat="42.88441" lon="1.45373">
        <ele>1529</ele>
        <time>2022-01-29T13:13:22.548Z</time>
      </trkpt>
      <trkpt lat="42.88444" lon="1.45371">
        <ele>1529</ele>
        <time>2022-01-29T13:13:26.547Z</time>
      </trkpt>
      <trkpt lat="42.88447" lon="1.45371">
        <ele>1529</ele>
        <time>2022-01-29T13:13:31.550Z</time>
      </trkpt>
      <trkpt lat="42.88451" lon="1.45371">
        <ele>1529</ele>
        <time>2022-01-29T13:13:36.547Z</time>
      </trkpt>
      <trkpt lat="42.88457" lon="1.45375">
        <ele>1529</ele>
        <time>2022-01-29T13:13:45.546Z</time>
      </trkpt>
      <trkpt lat="42.88458" lon="1.45378">
        <ele>1528</ele>
        <time>2022-01-29T13:13:50.548Z</time>
      </trkpt>
      <trkpt lat="42.88458" lon="1.45379">
        <ele>1528</ele>
        <time>2022-01-29T13:13:54.550Z</time>
      </trkpt>
      <trkpt lat="42.8846" lon="1.45382">
        <ele>1524</ele>
        <time>2022-01-29T13:13:58.587Z</time>
      </trkpt>
      <trkpt lat="42.88463" lon="1.45382">
        <ele>1524</ele>
        <time>2022-01-29T13:14:03.550Z</time>
      </trkpt>
      <trkpt lat="42.88466" lon="1.45383">
        <ele>1524</ele>
        <time>2022-01-29T13:14:07.549Z</time>
      </trkpt>
      <trkpt lat="42.88469" lon="1.45383">
        <ele>1524</ele>
        <time>2022-01-29T13:14:12.549Z</time>
      </trkpt>
      <trkpt lat="42.88473" lon="1.45383">
        <ele>1524</ele>
        <time>2022-01-29T13:14:16.585Z</time>
      </trkpt>
      <trkpt lat="42.88477" lon="1.45384">
        <ele>1524</ele>
        <time>2022-01-29T13:14:21.548Z</time>
      </trkpt>
      <trkpt lat="42.8848" lon="1.45385">
        <ele>1524</ele>
        <time>2022-01-29T13:14:25.556Z</time>
      </trkpt>
      <trkpt lat="42.88484" lon="1.45386">
        <ele>1524</ele>
        <time>2022-01-29T13:14:30.549Z</time>
      </trkpt>
      <trkpt lat="42.88487" lon="1.45386">
        <ele>1519</ele>
        <time>2022-01-29T13:14:34.591Z</time>
      </trkpt>
      <trkpt lat="42.88492" lon="1.45386">
        <ele>1519</ele>
        <time>2022-01-29T13:14:39.547Z</time>
      </trkpt>
      <trkpt lat="42.88495" lon="1.45388">
        <ele>1519</ele>
        <time>2022-01-29T13:14:43.550Z</time>
      </trkpt>
      <trkpt lat="42.88494" lon="1.45394">
        <ele>1519</ele>
        <time>2022-01-29T13:14:48.541Z</time>
      </trkpt>
      <trkpt lat="42.88496" lon="1.45395">
        <ele>1519</ele>
        <time>2022-01-29T13:14:52.553Z</time>
      </trkpt>
      <trkpt lat="42.88499" lon="1.45403">
        <ele>1517</ele>
        <time>2022-01-29T13:15:02.529Z</time>
      </trkpt>
      <trkpt lat="42.88498" lon="1.45405">
        <ele>1517</ele>
        <time>2022-01-29T13:15:06.542Z</time>
      </trkpt>
      <trkpt lat="42.88503" lon="1.454">
        <ele>1519</ele>
        <time>2022-01-29T13:15:11.526Z</time>
      </trkpt>
      <trkpt lat="42.88508" lon="1.45399">
        <ele>1519</ele>
        <time>2022-01-29T13:15:14.505Z</time>
      </trkpt>
      <trkpt lat="42.8851" lon="1.45398">
        <ele>1519</ele>
        <time>2022-01-29T13:15:17.504Z</time>
      </trkpt>
      <trkpt lat="42.88514" lon="1.45398">
        <ele>1519</ele>
        <time>2022-01-29T13:15:26.551Z</time>
      </trkpt>
      <trkpt lat="42.88518" lon="1.45399">
        <ele>1512</ele>
        <time>2022-01-29T13:15:31.547Z</time>
      </trkpt>
      <trkpt lat="42.88523" lon="1.454">
        <ele>1512</ele>
        <time>2022-01-29T13:15:36.551Z</time>
      </trkpt>
      <trkpt lat="42.88527" lon="1.45397">
        <ele>1512</ele>
        <time>2022-01-29T13:15:41.548Z</time>
      </trkpt>
      <trkpt lat="42.88531" lon="1.45394">
        <ele>1512</ele>
        <time>2022-01-29T13:15:45.585Z</time>
      </trkpt>
      <trkpt lat="42.88533" lon="1.45394">
        <ele>1512</ele>
        <time>2022-01-29T13:15:50.546Z</time>
      </trkpt>
      <trkpt lat="42.88535" lon="1.45397">
        <ele>1512</ele>
        <time>2022-01-29T13:15:54.555Z</time>
      </trkpt>
      <trkpt lat="42.88539" lon="1.45399">
        <ele>1512</ele>
        <time>2022-01-29T13:15:59.550Z</time>
      </trkpt>
      <trkpt lat="42.88542" lon="1.45401">
        <ele>1498</ele>
        <time>2022-01-29T13:16:03.554Z</time>
      </trkpt>
      <trkpt lat="42.88544" lon="1.45404">
        <ele>1500</ele>
        <time>2022-01-29T13:16:08.549Z</time>
      </trkpt>
      <trkpt lat="42.88545" lon="1.45411">
        <ele>1500</ele>
        <time>2022-01-29T13:16:13.550Z</time>
      </trkpt>
      <trkpt lat="42.88546" lon="1.45413">
        <ele>1500</ele>
        <time>2022-01-29T13:16:17.551Z</time>
      </trkpt>
      <trkpt lat="42.88546" lon="1.45419">
        <ele>1500</ele>
        <time>2022-01-29T13:16:22.550Z</time>
      </trkpt>
      <trkpt lat="42.88547" lon="1.45424">
        <ele>1500</ele>
        <time>2022-01-29T13:16:26.588Z</time>
      </trkpt>
      <trkpt lat="42.88548" lon="1.45426">
        <ele>1500</ele>
        <time>2022-01-29T13:16:31.552Z</time>
      </trkpt>
      <trkpt lat="42.8855" lon="1.45426">
        <ele>1500</ele>
        <time>2022-01-29T13:16:35.551Z</time>
      </trkpt>
      <trkpt lat="42.88553" lon="1.45424">
        <ele>1500</ele>
        <time>2022-01-29T13:16:40.554Z</time>
      </trkpt>
      <trkpt lat="42.88556" lon="1.45427">
        <ele>1500</ele>
        <time>2022-01-29T13:16:44.554Z</time>
      </trkpt>
      <trkpt lat="42.88559" lon="1.45429">
        <ele>1500</ele>
        <time>2022-01-29T13:16:49.554Z</time>
      </trkpt>
      <trkpt lat="42.8856" lon="1.45432">
        <ele>1500</ele>
        <time>2022-01-29T13:16:53.552Z</time>
      </trkpt>
      <trkpt lat="42.88563" lon="1.45436">
        <ele>1500</ele>
        <time>2022-01-29T13:16:58.552Z</time>
      </trkpt>
      <trkpt lat="42.88565" lon="1.4544">
        <ele>1500</ele>
        <time>2022-01-29T13:17:03.554Z</time>
      </trkpt>
      <trkpt lat="42.88566" lon="1.45442">
        <ele>1500</ele>
        <time>2022-01-29T13:17:07.558Z</time>
      </trkpt>
      <trkpt lat="42.88568" lon="1.45445">
        <ele>1500</ele>
        <time>2022-01-29T13:17:12.550Z</time>
      </trkpt>
      <trkpt lat="42.8857" lon="1.45445">
        <ele>1489</ele>
        <time>2022-01-29T13:17:16.556Z</time>
      </trkpt>
      <trkpt lat="42.88572" lon="1.45449">
        <ele>1489</ele>
        <time>2022-01-29T13:17:21.553Z</time>
      </trkpt>
      <trkpt lat="42.88575" lon="1.45454">
        <ele>1489</ele>
        <time>2022-01-29T13:17:26.551Z</time>
      </trkpt>
      <trkpt lat="42.88577" lon="1.45457">
        <ele>1489</ele>
        <time>2022-01-29T13:17:30.588Z</time>
      </trkpt>
      <trkpt lat="42.88579" lon="1.45461">
        <ele>1489</ele>
        <time>2022-01-29T13:17:35.548Z</time>
      </trkpt>
      <trkpt lat="42.8858" lon="1.45464">
        <ele>1489</ele>
        <time>2022-01-29T13:17:39.555Z</time>
      </trkpt>
      <trkpt lat="42.88581" lon="1.45468">
        <ele>1489</ele>
        <time>2022-01-29T13:17:44.554Z</time>
      </trkpt>
      <trkpt lat="42.88586" lon="1.45478">
        <ele>1489</ele>
        <time>2022-01-29T13:20:35.578Z</time>
      </trkpt>
      <trkpt lat="42.88588" lon="1.45476">
        <ele>1489</ele>
        <time>2022-01-29T13:20:40.552Z</time>
      </trkpt>
      <trkpt lat="42.88589" lon="1.45475">
        <ele>1489</ele>
        <time>2022-01-29T13:20:45.552Z</time>
      </trkpt>
      <trkpt lat="42.88588" lon="1.45479">
        <ele>1489</ele>
        <time>2022-01-29T13:20:50.550Z</time>
      </trkpt>
      <trkpt lat="42.88591" lon="1.4548">
        <ele>1489</ele>
        <time>2022-01-29T13:20:55.552Z</time>
      </trkpt>
      <trkpt lat="42.88593" lon="1.45478">
        <ele>1489</ele>
        <time>2022-01-29T13:20:59.549Z</time>
      </trkpt>
      <trkpt lat="42.88595" lon="1.45476">
        <ele>1489</ele>
        <time>2022-01-29T13:21:04.549Z</time>
      </trkpt>
      <trkpt lat="42.88597" lon="1.45472">
        <ele>1489</ele>
        <time>2022-01-29T13:21:08.555Z</time>
      </trkpt>
      <trkpt lat="42.88598" lon="1.45468">
        <ele>1474</ele>
        <time>2022-01-29T13:21:13.546Z</time>
      </trkpt>
      <trkpt lat="42.88601" lon="1.45464">
        <ele>1474</ele>
        <time>2022-01-29T13:21:22.546Z</time>
      </trkpt>
      <trkpt lat="42.88602" lon="1.45463">
        <ele>1474</ele>
        <time>2022-01-29T13:21:26.548Z</time>
      </trkpt>
      <trkpt lat="42.88603" lon="1.45462">
        <ele>1474</ele>
        <time>2022-01-29T13:21:31.550Z</time>
      </trkpt>
      <trkpt lat="42.88604" lon="1.4546">
        <ele>1474</ele>
        <time>2022-01-29T13:21:35.548Z</time>
      </trkpt>
      <trkpt lat="42.88605" lon="1.45457">
        <ele>1476</ele>
        <time>2022-01-29T13:21:40.557Z</time>
      </trkpt>
      <trkpt lat="42.88607" lon="1.45453">
        <ele>1476</ele>
        <time>2022-01-29T13:21:45.552Z</time>
      </trkpt>
      <trkpt lat="42.88608" lon="1.45451">
        <ele>1476</ele>
        <time>2022-01-29T13:21:50.548Z</time>
      </trkpt>
      <trkpt lat="42.88609" lon="1.4545">
        <ele>1476</ele>
        <time>2022-01-29T13:21:55.553Z</time>
      </trkpt>
      <trkpt lat="42.88612" lon="1.4545">
        <ele>1476</ele>
        <time>2022-01-29T13:21:59.546Z</time>
      </trkpt>
      <trkpt lat="42.88615" lon="1.45446">
        <ele>1476</ele>
        <time>2022-01-29T13:22:04.549Z</time>
      </trkpt>
      <trkpt lat="42.88617" lon="1.45447">
        <ele>1476</ele>
        <time>2022-01-29T13:22:18.551Z</time>
      </trkpt>
      <trkpt lat="42.88621" lon="1.45448">
        <ele>1476</ele>
        <time>2022-01-29T13:22:22.551Z</time>
      </trkpt>
      <trkpt lat="42.88622" lon="1.45449">
        <ele>1476</ele>
        <time>2022-01-29T13:22:27.550Z</time>
      </trkpt>
      <trkpt lat="42.88625" lon="1.45451">
        <ele>1476</ele>
        <time>2022-01-29T13:22:32.550Z</time>
      </trkpt>
      <trkpt lat="42.88628" lon="1.45451">
        <ele>1463</ele>
        <time>2022-01-29T13:22:37.549Z</time>
      </trkpt>
      <trkpt lat="42.88631" lon="1.45452">
        <ele>1463</ele>
        <time>2022-01-29T13:22:41.588Z</time>
      </trkpt>
      <trkpt lat="42.88635" lon="1.45451">
        <ele>1463</ele>
        <time>2022-01-29T13:22:46.551Z</time>
      </trkpt>
      <trkpt lat="42.88638" lon="1.45451">
        <ele>1463</ele>
        <time>2022-01-29T13:22:50.552Z</time>
      </trkpt>
      <trkpt lat="42.88641" lon="1.45453">
        <ele>1463</ele>
        <time>2022-01-29T13:22:55.549Z</time>
      </trkpt>
      <trkpt lat="42.88651" lon="1.45456">
        <ele>1463</ele>
        <time>2022-01-29T13:23:22.552Z</time>
      </trkpt>
      <trkpt lat="42.88654" lon="1.45457">
        <ele>1450</ele>
        <time>2022-01-29T13:24:39.549Z</time>
      </trkpt>
      <trkpt lat="42.88658" lon="1.45457">
        <ele>1450</ele>
        <time>2022-01-29T13:24:43.553Z</time>
      </trkpt>
      <trkpt lat="42.88661" lon="1.45458">
        <ele>1450</ele>
        <time>2022-01-29T13:24:48.554Z</time>
      </trkpt>
      <trkpt lat="42.88663" lon="1.45461">
        <ele>1449</ele>
        <time>2022-01-29T13:24:53.553Z</time>
      </trkpt>
      <trkpt lat="42.88664" lon="1.45463">
        <ele>1449</ele>
        <time>2022-01-29T13:24:57.547Z</time>
      </trkpt>
      <trkpt lat="42.88667" lon="1.45465">
        <ele>1449</ele>
        <time>2022-01-29T13:25:02.550Z</time>
      </trkpt>
      <trkpt lat="42.88669" lon="1.45463">
        <ele>1449</ele>
        <time>2022-01-29T13:25:06.550Z</time>
      </trkpt>
      <trkpt lat="42.88672" lon="1.4546">
        <ele>1449</ele>
        <time>2022-01-29T13:25:11.549Z</time>
      </trkpt>
      <trkpt lat="42.88676" lon="1.45461">
        <ele>1449</ele>
        <time>2022-01-29T13:25:15.548Z</time>
      </trkpt>
      <trkpt lat="42.88678" lon="1.45457">
        <ele>1450</ele>
        <time>2022-01-29T13:25:20.552Z</time>
      </trkpt>
      <trkpt lat="42.8868" lon="1.4545">
        <ele>1450</ele>
        <time>2022-01-29T13:25:25.554Z</time>
      </trkpt>
      <trkpt lat="42.88682" lon="1.45445">
        <ele>1448</ele>
        <time>2022-01-29T13:25:29.550Z</time>
      </trkpt>
      <trkpt lat="42.88685" lon="1.4544">
        <ele>1448</ele>
        <time>2022-01-29T13:25:34.548Z</time>
      </trkpt>
      <trkpt lat="42.88687" lon="1.45435">
        <ele>1448</ele>
        <time>2022-01-29T13:25:38.587Z</time>
      </trkpt>
      <trkpt lat="42.88688" lon="1.45428">
        <ele>1448</ele>
        <time>2022-01-29T13:25:43.551Z</time>
      </trkpt>
      <trkpt lat="42.88692" lon="1.45424">
        <ele>1448</ele>
        <time>2022-01-29T13:25:48.555Z</time>
      </trkpt>
      <trkpt lat="42.88695" lon="1.45423">
        <ele>1448</ele>
        <time>2022-01-29T13:25:53.550Z</time>
      </trkpt>
      <trkpt lat="42.88696" lon="1.45419">
        <ele>1448</ele>
        <time>2022-01-29T13:25:58.553Z</time>
      </trkpt>
      <trkpt lat="42.88698" lon="1.45417">
        <ele>1448</ele>
        <time>2022-01-29T13:26:02.587Z</time>
      </trkpt>
      <trkpt lat="42.88696" lon="1.45411">
        <ele>1448</ele>
        <time>2022-01-29T13:26:07.551Z</time>
      </trkpt>
      <trkpt lat="42.88697" lon="1.45407">
        <ele>1448</ele>
        <time>2022-01-29T13:26:11.552Z</time>
      </trkpt>
      <trkpt lat="42.88699" lon="1.45403">
        <ele>1448</ele>
        <time>2022-01-29T13:26:16.550Z</time>
      </trkpt>
      <trkpt lat="42.88702" lon="1.454">
        <ele>1445</ele>
        <time>2022-01-29T13:26:20.549Z</time>
      </trkpt>
      <trkpt lat="42.88706" lon="1.45396">
        <ele>1445</ele>
        <time>2022-01-29T13:26:25.548Z</time>
      </trkpt>
      <trkpt lat="42.88709" lon="1.45395">
        <ele>1442</ele>
        <time>2022-01-29T13:26:29.552Z</time>
      </trkpt>
      <trkpt lat="42.88714" lon="1.45395">
        <ele>1442</ele>
        <time>2022-01-29T13:26:34.551Z</time>
      </trkpt>
      <trkpt lat="42.88718" lon="1.45389">
        <ele>1442</ele>
        <time>2022-01-29T13:27:02.557Z</time>
      </trkpt>
      <trkpt lat="42.88723" lon="1.45393">
        <ele>1442</ele>
        <time>2022-01-29T13:27:12.549Z</time>
      </trkpt>
      <trkpt lat="42.88726" lon="1.45396">
        <ele>1442</ele>
        <time>2022-01-29T13:27:17.547Z</time>
      </trkpt>
      <trkpt lat="42.8873" lon="1.45397">
        <ele>1442</ele>
        <time>2022-01-29T13:27:21.551Z</time>
      </trkpt>
      <trkpt lat="42.88732" lon="1.45399">
        <ele>1442</ele>
        <time>2022-01-29T13:27:26.552Z</time>
      </trkpt>
      <trkpt lat="42.88733" lon="1.45403">
        <ele>1444</ele>
        <time>2022-01-29T13:27:30.559Z</time>
      </trkpt>
      <trkpt lat="42.88734" lon="1.45409">
        <ele>1444</ele>
        <time>2022-01-29T13:27:34.584Z</time>
      </trkpt>
      <trkpt lat="42.88738" lon="1.45412">
        <ele>1430</ele>
        <time>2022-01-29T13:27:39.546Z</time>
      </trkpt>
      <trkpt lat="42.88743" lon="1.45413">
        <ele>1430</ele>
        <time>2022-01-29T13:27:43.548Z</time>
      </trkpt>
      <trkpt lat="42.88747" lon="1.45415">
        <ele>1430</ele>
        <time>2022-01-29T13:27:48.552Z</time>
      </trkpt>
      <trkpt lat="42.88751" lon="1.45416">
        <ele>1430</ele>
        <time>2022-01-29T13:27:52.549Z</time>
      </trkpt>
      <trkpt lat="42.88755" lon="1.45416">
        <ele>1430</ele>
        <time>2022-01-29T13:27:57.550Z</time>
      </trkpt>
      <trkpt lat="42.8876" lon="1.45413">
        <ele>1430</ele>
        <time>2022-01-29T13:28:02.550Z</time>
      </trkpt>
      <trkpt lat="42.88764" lon="1.45412">
        <ele>1424</ele>
        <time>2022-01-29T13:28:07.555Z</time>
      </trkpt>
      <trkpt lat="42.88766" lon="1.45409">
        <ele>1424</ele>
        <time>2022-01-29T13:28:12.550Z</time>
      </trkpt>
      <trkpt lat="42.88767" lon="1.45406">
        <ele>1424</ele>
        <time>2022-01-29T13:28:16.553Z</time>
      </trkpt>
      <trkpt lat="42.88771" lon="1.45406">
        <ele>1424</ele>
        <time>2022-01-29T13:28:21.548Z</time>
      </trkpt>
      <trkpt lat="42.88774" lon="1.45407">
        <ele>1424</ele>
        <time>2022-01-29T13:28:26.549Z</time>
      </trkpt>
      <trkpt lat="42.88775" lon="1.45407">
        <ele>1424</ele>
        <time>2022-01-29T13:28:30.552Z</time>
      </trkpt>
      <trkpt lat="42.8878" lon="1.45406">
        <ele>1424</ele>
        <time>2022-01-29T13:28:44.552Z</time>
      </trkpt>
      <trkpt lat="42.88785" lon="1.45405">
        <ele>1424</ele>
        <time>2022-01-29T13:28:49.551Z</time>
      </trkpt>
      <trkpt lat="42.88789" lon="1.45407">
        <ele>1424</ele>
        <time>2022-01-29T13:28:54.551Z</time>
      </trkpt>
      <trkpt lat="42.88792" lon="1.45408">
        <ele>1422</ele>
        <time>2022-01-29T13:28:59.551Z</time>
      </trkpt>
      <trkpt lat="42.88795" lon="1.4541">
        <ele>1422</ele>
        <time>2022-01-29T13:29:03.583Z</time>
      </trkpt>
      <trkpt lat="42.888" lon="1.4541">
        <ele>1422</ele>
        <time>2022-01-29T13:29:08.549Z</time>
      </trkpt>
      <trkpt lat="42.88804" lon="1.4541">
        <ele>1422</ele>
        <time>2022-01-29T13:29:12.554Z</time>
      </trkpt>
      <trkpt lat="42.88805" lon="1.45403">
        <ele>1422</ele>
        <time>2022-01-29T13:29:32.552Z</time>
      </trkpt>
      <trkpt lat="42.88805" lon="1.45397">
        <ele>1423</ele>
        <time>2022-01-29T13:29:41.554Z</time>
      </trkpt>
      <trkpt lat="42.88806" lon="1.45392">
        <ele>1423</ele>
        <time>2022-01-29T13:29:45.551Z</time>
      </trkpt>
      <trkpt lat="42.88806" lon="1.45387">
        <ele>1423</ele>
        <time>2022-01-29T13:29:50.553Z</time>
      </trkpt>
      <trkpt lat="42.88809" lon="1.45383">
        <ele>1423</ele>
        <time>2022-01-29T13:29:54.554Z</time>
      </trkpt>
      <trkpt lat="42.88816" lon="1.45388">
        <ele>1423</ele>
        <time>2022-01-29T13:30:18.550Z</time>
      </trkpt>
      <trkpt lat="42.88817" lon="1.45388">
        <ele>1423</ele>
        <time>2022-01-29T13:30:23.545Z</time>
      </trkpt>
      <trkpt lat="42.88821" lon="1.45388">
        <ele>1420</ele>
        <time>2022-01-29T13:31:50.556Z</time>
      </trkpt>
      <trkpt lat="42.88824" lon="1.45388">
        <ele>1420</ele>
        <time>2022-01-29T13:31:55.552Z</time>
      </trkpt>
      <trkpt lat="42.88828" lon="1.45387">
        <ele>1420</ele>
        <time>2022-01-29T13:32:00.548Z</time>
      </trkpt>
      <trkpt lat="42.88831" lon="1.45388">
        <ele>1420</ele>
        <time>2022-01-29T13:32:05.552Z</time>
      </trkpt>
      <trkpt lat="42.88831" lon="1.45385">
        <ele>1420</ele>
        <time>2022-01-29T13:32:09.551Z</time>
      </trkpt>
      <trkpt lat="42.88832" lon="1.4538">
        <ele>1420</ele>
        <time>2022-01-29T13:32:14.523Z</time>
      </trkpt>
      <trkpt lat="42.88834" lon="1.45377">
        <ele>1420</ele>
        <time>2022-01-29T13:32:18.553Z</time>
      </trkpt>
      <trkpt lat="42.88835" lon="1.45376">
        <ele>1420</ele>
        <time>2022-01-29T13:32:23.554Z</time>
      </trkpt>
      <trkpt lat="42.88836" lon="1.45375">
        <ele>1420</ele>
        <time>2022-01-29T13:32:27.549Z</time>
      </trkpt>
      <trkpt lat="42.88841" lon="1.45376">
        <ele>1420</ele>
        <time>2022-01-29T13:32:50.552Z</time>
      </trkpt>
      <trkpt lat="42.88844" lon="1.45375">
        <ele>1420</ele>
        <time>2022-01-29T13:32:55.555Z</time>
      </trkpt>
      <trkpt lat="42.88849" lon="1.45374">
        <ele>1427</ele>
        <time>2022-01-29T13:33:00.555Z</time>
      </trkpt>
      <trkpt lat="42.88854" lon="1.45374">
        <ele>1427</ele>
        <time>2022-01-29T13:33:05.553Z</time>
      </trkpt>
      <trkpt lat="42.88859" lon="1.45375">
        <ele>1427</ele>
        <time>2022-01-29T13:33:10.550Z</time>
      </trkpt>
      <trkpt lat="42.88864" lon="1.45376">
        <ele>1422</ele>
        <time>2022-01-29T13:33:14.591Z</time>
      </trkpt>
      <trkpt lat="42.88865" lon="1.45373">
        <ele>1427</ele>
        <time>2022-01-29T13:33:19.550Z</time>
      </trkpt>
      <trkpt lat="42.88866" lon="1.45371">
        <ele>1427</ele>
        <time>2022-01-29T13:33:24.551Z</time>
      </trkpt>
      <trkpt lat="42.88868" lon="1.45371">
        <ele>1427</ele>
        <time>2022-01-29T13:33:28.555Z</time>
      </trkpt>
      <trkpt lat="42.88872" lon="1.45372">
        <ele>1427</ele>
        <time>2022-01-29T13:33:32.549Z</time>
      </trkpt>
      <trkpt lat="42.88876" lon="1.45373">
        <ele>1431</ele>
        <time>2022-01-29T13:33:37.537Z</time>
      </trkpt>
      <trkpt lat="42.88879" lon="1.45373">
        <ele>1431</ele>
        <time>2022-01-29T13:33:41.552Z</time>
      </trkpt>
      <trkpt lat="42.88881" lon="1.45376">
        <ele>1426</ele>
        <time>2022-01-29T13:33:46.550Z</time>
      </trkpt>
      <trkpt lat="42.88883" lon="1.45378">
        <ele>1426</ele>
        <time>2022-01-29T13:33:50.551Z</time>
      </trkpt>
      <trkpt lat="42.88886" lon="1.4538">
        <ele>1426</ele>
        <time>2022-01-29T13:33:55.544Z</time>
      </trkpt>
      <trkpt lat="42.88888" lon="1.45382">
        <ele>1426</ele>
        <time>2022-01-29T13:33:59.550Z</time>
      </trkpt>
      <trkpt lat="42.88891" lon="1.45384">
        <ele>1426</ele>
        <time>2022-01-29T13:34:03.556Z</time>
      </trkpt>
      <trkpt lat="42.88895" lon="1.45388">
        <ele>1426</ele>
        <time>2022-01-29T13:34:08.551Z</time>
      </trkpt>
      <trkpt lat="42.88898" lon="1.45391">
        <ele>1426</ele>
        <time>2022-01-29T13:34:13.551Z</time>
      </trkpt>
      <trkpt lat="42.88902" lon="1.45392">
        <ele>1426</ele>
        <time>2022-01-29T13:34:18.552Z</time>
      </trkpt>
      <trkpt lat="42.88905" lon="1.45394">
        <ele>1428</ele>
        <time>2022-01-29T13:34:23.548Z</time>
      </trkpt>
      <trkpt lat="42.88908" lon="1.45396">
        <ele>1428</ele>
        <time>2022-01-29T13:34:28.560Z</time>
      </trkpt>
      <trkpt lat="42.88913" lon="1.45395">
        <ele>1428</ele>
        <time>2022-01-29T13:34:33.539Z</time>
      </trkpt>
      <trkpt lat="42.88915" lon="1.45396">
        <ele>1428</ele>
        <time>2022-01-29T13:34:37.552Z</time>
      </trkpt>
      <trkpt lat="42.88918" lon="1.45395">
        <ele>1428</ele>
        <time>2022-01-29T13:34:41.584Z</time>
      </trkpt>
      <trkpt lat="42.88921" lon="1.45395">
        <ele>1428</ele>
        <time>2022-01-29T13:34:46.548Z</time>
      </trkpt>
      <trkpt lat="42.88923" lon="1.45397">
        <ele>1428</ele>
        <time>2022-01-29T13:34:50.549Z</time>
      </trkpt>
      <trkpt lat="42.88925" lon="1.45399">
        <ele>1428</ele>
        <time>2022-01-29T13:34:54.552Z</time>
      </trkpt>
      <trkpt lat="42.88928" lon="1.454">
        <ele>1428</ele>
        <time>2022-01-29T13:34:59.527Z</time>
      </trkpt>
      <trkpt lat="42.88932" lon="1.454">
        <ele>1431</ele>
        <time>2022-01-29T13:35:03.553Z</time>
      </trkpt>
      <trkpt lat="42.88934" lon="1.45402">
        <ele>1431</ele>
        <time>2022-01-29T13:35:08.555Z</time>
      </trkpt>
      <trkpt lat="42.88937" lon="1.45404">
        <ele>1426</ele>
        <time>2022-01-29T13:35:12.588Z</time>
      </trkpt>
      <trkpt lat="42.88939" lon="1.45405">
        <ele>1426</ele>
        <time>2022-01-29T13:35:17.554Z</time>
      </trkpt>
      <trkpt lat="42.88942" lon="1.45409">
        <ele>1426</ele>
        <time>2022-01-29T13:35:21.554Z</time>
      </trkpt>
      <trkpt lat="42.88943" lon="1.45407">
        <ele>1426</ele>
        <time>2022-01-29T13:35:26.553Z</time>
      </trkpt>
      <trkpt lat="42.88943" lon="1.45407">
        <ele>1426</ele>
        <time>2022-01-29T13:35:30.548Z</time>
      </trkpt>
      <trkpt lat="42.88944" lon="1.4541">
        <ele>1426</ele>
        <time>2022-01-29T13:35:35.552Z</time>
      </trkpt>
      <trkpt lat="42.88948" lon="1.45414">
        <ele>1426</ele>
        <time>2022-01-29T13:35:40.556Z</time>
      </trkpt>
      <trkpt lat="42.88951" lon="1.45416">
        <ele>1426</ele>
        <time>2022-01-29T13:35:45.550Z</time>
      </trkpt>
      <trkpt lat="42.88956" lon="1.4542">
        <ele>1426</ele>
        <time>2022-01-29T13:35:54.591Z</time>
      </trkpt>
      <trkpt lat="42.88959" lon="1.45421">
        <ele>1430</ele>
        <time>2022-01-29T13:35:59.554Z</time>
      </trkpt>
      <trkpt lat="42.8896" lon="1.45421">
        <ele>1430</ele>
        <time>2022-01-29T13:36:03.554Z</time>
      </trkpt>
      <trkpt lat="42.8896" lon="1.45421">
        <ele>1430</ele>
        <time>2022-01-29T13:36:08.553Z</time>
      </trkpt>
      <trkpt lat="42.88964" lon="1.4542">
        <ele>1430</ele>
        <time>2022-01-29T13:36:12.551Z</time>
      </trkpt>
      <trkpt lat="42.88968" lon="1.45422">
        <ele>1430</ele>
        <time>2022-01-29T13:36:26.551Z</time>
      </trkpt>
      <trkpt lat="42.88972" lon="1.45422">
        <ele>1430</ele>
        <time>2022-01-29T13:39:44.515Z</time>
      </trkpt>
      <trkpt lat="42.88974" lon="1.4542">
        <ele>1430</ele>
        <time>2022-01-29T13:39:49.514Z</time>
      </trkpt>
      <trkpt lat="42.88976" lon="1.45416">
        <ele>1430</ele>
        <time>2022-01-29T13:39:53.523Z</time>
      </trkpt>
      <trkpt lat="42.88979" lon="1.45412">
        <ele>1430</ele>
        <time>2022-01-29T13:39:57.580Z</time>
      </trkpt>
      <trkpt lat="42.88982" lon="1.45409">
        <ele>1430</ele>
        <time>2022-01-29T13:40:02.541Z</time>
      </trkpt>
      <trkpt lat="42.88986" lon="1.45406">
        <ele>1430</ele>
        <time>2022-01-29T13:40:06.553Z</time>
      </trkpt>
      <trkpt lat="42.8899" lon="1.45404">
        <ele>1434</ele>
        <time>2022-01-29T13:40:11.552Z</time>
      </trkpt>
      <trkpt lat="42.88993" lon="1.45402">
        <ele>1438</ele>
        <time>2022-01-29T13:40:15.548Z</time>
      </trkpt>
      <trkpt lat="42.88994" lon="1.454">
        <ele>1438</ele>
        <time>2022-01-29T13:40:20.546Z</time>
      </trkpt>
      <trkpt lat="42.88997" lon="1.45398">
        <ele>1438</ele>
        <time>2022-01-29T13:40:25.553Z</time>
      </trkpt>
      <trkpt lat="42.88999" lon="1.45396">
        <ele>1438</ele>
        <time>2022-01-29T13:40:30.553Z</time>
      </trkpt>
      <trkpt lat="42.89001" lon="1.45394">
        <ele>1438</ele>
        <time>2022-01-29T13:40:34.594Z</time>
      </trkpt>
      <trkpt lat="42.89005" lon="1.45394">
        <ele>1438</ele>
        <time>2022-01-29T13:40:39.551Z</time>
      </trkpt>
      <trkpt lat="42.89007" lon="1.45393">
        <ele>1438</ele>
        <time>2022-01-29T13:40:43.553Z</time>
      </trkpt>
      <trkpt lat="42.89008" lon="1.45393">
        <ele>1438</ele>
        <time>2022-01-29T13:40:48.554Z</time>
      </trkpt>
      <trkpt lat="42.89012" lon="1.45393">
        <ele>1438</ele>
        <time>2022-01-29T13:40:57.550Z</time>
      </trkpt>
      <trkpt lat="42.89014" lon="1.45394">
        <ele>1442</ele>
        <time>2022-01-29T13:41:01.552Z</time>
      </trkpt>
      <trkpt lat="42.89016" lon="1.45396">
        <ele>1442</ele>
        <time>2022-01-29T13:41:06.551Z</time>
      </trkpt>
      <trkpt lat="42.89017" lon="1.45396">
        <ele>1442</ele>
        <time>2022-01-29T13:41:10.551Z</time>
      </trkpt>
      <trkpt lat="42.89025" lon="1.45388">
        <ele>1442</ele>
        <time>2022-01-29T13:41:34.550Z</time>
      </trkpt>
      <trkpt lat="42.89026" lon="1.45387">
        <ele>1442</ele>
        <time>2022-01-29T13:41:39.552Z</time>
      </trkpt>
      <trkpt lat="42.89029" lon="1.45385">
        <ele>1442</ele>
        <time>2022-01-29T13:41:44.551Z</time>
      </trkpt>
      <trkpt lat="42.89029" lon="1.45386">
        <ele>1442</ele>
        <time>2022-01-29T13:41:49.550Z</time>
      </trkpt>
      <trkpt lat="42.89032" lon="1.4538">
        <ele>1442</ele>
        <time>2022-01-29T13:42:03.547Z</time>
      </trkpt>
      <trkpt lat="42.89033" lon="1.45377">
        <ele>1442</ele>
        <time>2022-01-29T13:42:08.581Z</time>
      </trkpt>
      <trkpt lat="42.89034" lon="1.45375">
        <ele>1446</ele>
        <time>2022-01-29T13:42:13.550Z</time>
      </trkpt>
      <trkpt lat="42.89035" lon="1.45373">
        <ele>1446</ele>
        <time>2022-01-29T13:42:17.549Z</time>
      </trkpt>
      <trkpt lat="42.89037" lon="1.45369">
        <ele>1446</ele>
        <time>2022-01-29T13:42:22.551Z</time>
      </trkpt>
      <trkpt lat="42.89037" lon="1.45366">
        <ele>1446</ele>
        <time>2022-01-29T13:42:26.579Z</time>
      </trkpt>
      <trkpt lat="42.89039" lon="1.45364">
        <ele>1446</ele>
        <time>2022-01-29T13:42:31.548Z</time>
      </trkpt>
      <trkpt lat="42.8904" lon="1.45361">
        <ele>1446</ele>
        <time>2022-01-29T13:42:35.550Z</time>
      </trkpt>
      <trkpt lat="42.89042" lon="1.4536">
        <ele>1450</ele>
        <time>2022-01-29T13:42:39.551Z</time>
      </trkpt>
      <trkpt lat="42.89042" lon="1.45356">
        <ele>1450</ele>
        <time>2022-01-29T13:42:44.554Z</time>
      </trkpt>
      <trkpt lat="42.89044" lon="1.45354">
        <ele>1450</ele>
        <time>2022-01-29T13:42:49.552Z</time>
      </trkpt>
      <trkpt lat="42.89046" lon="1.45351">
        <ele>1450</ele>
        <time>2022-01-29T13:42:54.553Z</time>
      </trkpt>
      <trkpt lat="42.89047" lon="1.45347">
        <ele>1450</ele>
        <time>2022-01-29T13:42:59.548Z</time>
      </trkpt>
      <trkpt lat="42.89048" lon="1.45344">
        <ele>1453</ele>
        <time>2022-01-29T13:43:04.550Z</time>
      </trkpt>
      <trkpt lat="42.8905" lon="1.45342">
        <ele>1453</ele>
        <time>2022-01-29T13:43:09.548Z</time>
      </trkpt>
      <trkpt lat="42.8905" lon="1.45341">
        <ele>1453</ele>
        <time>2022-01-29T13:43:13.550Z</time>
      </trkpt>
      <trkpt lat="42.89055" lon="1.45332">
        <ele>1453</ele>
        <time>2022-01-29T13:43:31.549Z</time>
      </trkpt>
      <trkpt lat="42.89057" lon="1.4533">
        <ele>1453</ele>
        <time>2022-01-29T13:43:36.552Z</time>
      </trkpt>
      <trkpt lat="42.89057" lon="1.45328">
        <ele>1453</ele>
        <time>2022-01-29T13:43:41.548Z</time>
      </trkpt>
      <trkpt lat="42.89061" lon="1.45317">
        <ele>1455</ele>
        <time>2022-01-29T13:44:12.547Z</time>
      </trkpt>
      <trkpt lat="42.89061" lon="1.45316">
        <ele>1455</ele>
        <time>2022-01-29T13:44:16.546Z</time>
      </trkpt>
      <trkpt lat="42.89062" lon="1.45312">
        <ele>1455</ele>
        <time>2022-01-29T13:44:21.540Z</time>
      </trkpt>
      <trkpt lat="42.89064" lon="1.45308">
        <ele>1455</ele>
        <time>2022-01-29T13:44:26.555Z</time>
      </trkpt>
      <trkpt lat="42.89064" lon="1.45306">
        <ele>1455</ele>
        <time>2022-01-29T13:44:30.581Z</time>
      </trkpt>
      <trkpt lat="42.89066" lon="1.45302">
        <ele>1455</ele>
        <time>2022-01-29T13:44:35.547Z</time>
      </trkpt>
      <trkpt lat="42.89068" lon="1.45299">
        <ele>1455</ele>
        <time>2022-01-29T13:44:40.548Z</time>
      </trkpt>
      <trkpt lat="42.8907" lon="1.45299">
        <ele>1457</ele>
        <time>2022-01-29T13:46:14.556Z</time>
      </trkpt>
      <trkpt lat="42.89071" lon="1.45299">
        <ele>1457</ele>
        <time>2022-01-29T13:46:19.548Z</time>
      </trkpt>
      <trkpt lat="42.89078" lon="1.45296">
        <ele>1457</ele>
        <time>2022-01-29T13:49:18.549Z</time>
      </trkpt>
      <trkpt lat="42.89082" lon="1.45293">
        <ele>1457</ele>
        <time>2022-01-29T13:49:22.582Z</time>
      </trkpt>
      <trkpt lat="42.89087" lon="1.45291">
        <ele>1462</ele>
        <time>2022-01-29T13:49:27.548Z</time>
      </trkpt>
      <trkpt lat="42.89091" lon="1.4529">
        <ele>1462</ele>
        <time>2022-01-29T13:49:32.551Z</time>
      </trkpt>
      <trkpt lat="42.89095" lon="1.45292">
        <ele>1462</ele>
        <time>2022-01-29T13:49:37.549Z</time>
      </trkpt>
      <trkpt lat="42.89101" lon="1.45292">
        <ele>1454</ele>
        <time>2022-01-29T13:49:42.550Z</time>
      </trkpt>
      <trkpt lat="42.89105" lon="1.45293">
        <ele>1454</ele>
        <time>2022-01-29T13:49:46.548Z</time>
      </trkpt>
      <trkpt lat="42.8911" lon="1.45295">
        <ele>1454</ele>
        <time>2022-01-29T13:49:51.536Z</time>
      </trkpt>
      <trkpt lat="42.89114" lon="1.45296">
        <ele>1454</ele>
        <time>2022-01-29T13:49:55.547Z</time>
      </trkpt>
      <trkpt lat="42.89119" lon="1.45297">
        <ele>1454</ele>
        <time>2022-01-29T13:50:00.547Z</time>
      </trkpt>
      <trkpt lat="42.89124" lon="1.45294">
        <ele>1454</ele>
        <time>2022-01-29T13:50:05.547Z</time>
      </trkpt>
      <trkpt lat="42.89127" lon="1.45292">
        <ele>1448</ele>
        <time>2022-01-29T13:50:09.575Z</time>
      </trkpt>
      <trkpt lat="42.89133" lon="1.45289">
        <ele>1456</ele>
        <time>2022-01-29T13:50:14.550Z</time>
      </trkpt>
      <trkpt lat="42.89136" lon="1.45289">
        <ele>1456</ele>
        <time>2022-01-29T13:50:19.548Z</time>
      </trkpt>
      <trkpt lat="42.89138" lon="1.45288">
        <ele>1456</ele>
        <time>2022-01-29T13:50:24.546Z</time>
      </trkpt>
      <trkpt lat="42.89139" lon="1.45287">
        <ele>1456</ele>
        <time>2022-01-29T13:50:29.550Z</time>
      </trkpt>
      <trkpt lat="42.89138" lon="1.45294">
        <ele>1448</ele>
        <time>2022-01-29T13:50:43.544Z</time>
      </trkpt>
      <trkpt lat="42.89137" lon="1.45298">
        <ele>1448</ele>
        <time>2022-01-29T13:50:48.548Z</time>
      </trkpt>
      <trkpt lat="42.89137" lon="1.45298">
        <ele>1448</ele>
        <time>2022-01-29T13:50:53.550Z</time>
      </trkpt>
      <trkpt lat="42.89136" lon="1.453">
        <ele>1448</ele>
        <time>2022-01-29T13:50:57.547Z</time>
      </trkpt>
      <trkpt lat="42.89137" lon="1.45307">
        <ele>1448</ele>
        <time>2022-01-29T13:51:22.546Z</time>
      </trkpt>
      <trkpt lat="42.89138" lon="1.4531">
        <ele>1448</ele>
        <time>2022-01-29T13:51:55.584Z</time>
      </trkpt>
      <trkpt lat="42.8914" lon="1.45314">
        <ele>1448</ele>
        <time>2022-01-29T13:52:00.546Z</time>
      </trkpt>
      <trkpt lat="42.89145" lon="1.45314">
        <ele>1448</ele>
        <time>2022-01-29T13:52:05.547Z</time>
      </trkpt>
      <trkpt lat="42.89147" lon="1.45317">
        <ele>1448</ele>
        <time>2022-01-29T13:52:10.545Z</time>
      </trkpt>
      <trkpt lat="42.89148" lon="1.4532">
        <ele>1443</ele>
        <time>2022-01-29T13:52:24.586Z</time>
      </trkpt>
      <trkpt lat="42.89149" lon="1.45321">
        <ele>1443</ele>
        <time>2022-01-29T13:52:48.585Z</time>
      </trkpt>
      <trkpt lat="42.89151" lon="1.45324">
        <ele>1443</ele>
        <time>2022-01-29T13:52:53.548Z</time>
      </trkpt>
      <trkpt lat="42.89155" lon="1.45322">
        <ele>1435</ele>
        <time>2022-01-29T13:52:58.550Z</time>
      </trkpt>
      <trkpt lat="42.89158" lon="1.45322">
        <ele>1435</ele>
        <time>2022-01-29T13:53:03.551Z</time>
      </trkpt>
      <trkpt lat="42.89158" lon="1.45334">
        <ele>1435</ele>
        <time>2022-01-29T13:53:13.550Z</time>
      </trkpt>
      <trkpt lat="42.89158" lon="1.45337">
        <ele>1435</ele>
        <time>2022-01-29T13:53:17.546Z</time>
      </trkpt>
      <trkpt lat="42.8916" lon="1.45338">
        <ele>1435</ele>
        <time>2022-01-29T13:53:22.547Z</time>
      </trkpt>
      <trkpt lat="42.8916" lon="1.4534">
        <ele>1435</ele>
        <time>2022-01-29T13:53:27.551Z</time>
      </trkpt>
      <trkpt lat="42.89162" lon="1.45341">
        <ele>1435</ele>
        <time>2022-01-29T13:53:31.548Z</time>
      </trkpt>
      <trkpt lat="42.89165" lon="1.45339">
        <ele>1435</ele>
        <time>2022-01-29T13:53:35.581Z</time>
      </trkpt>
      <trkpt lat="42.8917" lon="1.45337">
        <ele>1435</ele>
        <time>2022-01-29T13:53:40.546Z</time>
      </trkpt>
      <trkpt lat="42.89172" lon="1.45341">
        <ele>1435</ele>
        <time>2022-01-29T13:53:45.549Z</time>
      </trkpt>
      <trkpt lat="42.89172" lon="1.45346">
        <ele>1435</ele>
        <time>2022-01-29T13:53:49.551Z</time>
      </trkpt>
      <trkpt lat="42.89173" lon="1.4535">
        <ele>1434</ele>
        <time>2022-01-29T13:53:53.549Z</time>
      </trkpt>
      <trkpt lat="42.89175" lon="1.45354">
        <ele>1434</ele>
        <time>2022-01-29T13:53:58.547Z</time>
      </trkpt>
      <trkpt lat="42.89175" lon="1.45354">
        <ele>1434</ele>
        <time>2022-01-29T13:54:02.547Z</time>
      </trkpt>
      <trkpt lat="42.89174" lon="1.45355">
        <ele>1434</ele>
        <time>2022-01-29T13:54:07.552Z</time>
      </trkpt>
      <trkpt lat="42.89184" lon="1.45358">
        <ele>1417</ele>
        <time>2022-01-29T13:58:41.548Z</time>
      </trkpt>
      <trkpt lat="42.89186" lon="1.45363">
        <ele>1417</ele>
        <time>2022-01-29T13:58:45.548Z</time>
      </trkpt>
      <trkpt lat="42.89187" lon="1.45367">
        <ele>1417</ele>
        <time>2022-01-29T13:58:49.552Z</time>
      </trkpt>
      <trkpt lat="42.8919" lon="1.4537">
        <ele>1417</ele>
        <time>2022-01-29T13:58:54.554Z</time>
      </trkpt>
      <trkpt lat="42.89194" lon="1.4537">
        <ele>1417</ele>
        <time>2022-01-29T13:58:59.551Z</time>
      </trkpt>
      <trkpt lat="42.89197" lon="1.45373">
        <ele>1417</ele>
        <time>2022-01-29T13:59:04.551Z</time>
      </trkpt>
      <trkpt lat="42.892" lon="1.45373">
        <ele>1417</ele>
        <time>2022-01-29T13:59:08.555Z</time>
      </trkpt>
      <trkpt lat="42.89203" lon="1.45371">
        <ele>1417</ele>
        <time>2022-01-29T13:59:13.552Z</time>
      </trkpt>
      <trkpt lat="42.89208" lon="1.45368">
        <ele>1417</ele>
        <time>2022-01-29T13:59:18.553Z</time>
      </trkpt>
      <trkpt lat="42.8921" lon="1.45367">
        <ele>1406</ele>
        <time>2022-01-29T13:59:22.550Z</time>
      </trkpt>
      <trkpt lat="42.89214" lon="1.45366">
        <ele>1406</ele>
        <time>2022-01-29T13:59:26.558Z</time>
      </trkpt>
      <trkpt lat="42.89219" lon="1.45365">
        <ele>1406</ele>
        <time>2022-01-29T13:59:31.549Z</time>
      </trkpt>
      <trkpt lat="42.89223" lon="1.45364">
        <ele>1406</ele>
        <time>2022-01-29T13:59:36.552Z</time>
      </trkpt>
      <trkpt lat="42.89227" lon="1.45362">
        <ele>1406</ele>
        <time>2022-01-29T13:59:41.553Z</time>
      </trkpt>
      <trkpt lat="42.89228" lon="1.45362">
        <ele>1406</ele>
        <time>2022-01-29T13:59:45.551Z</time>
      </trkpt>
      <trkpt lat="42.8923" lon="1.45361">
        <ele>1406</ele>
        <time>2022-01-29T13:59:49.532Z</time>
      </trkpt>
      <trkpt lat="42.89234" lon="1.45359">
        <ele>1406</ele>
        <time>2022-01-29T13:59:54.555Z</time>
      </trkpt>
      <trkpt lat="42.89235" lon="1.45358">
        <ele>1406</ele>
        <time>2022-01-29T13:59:59.551Z</time>
      </trkpt>
      <trkpt lat="42.89238" lon="1.45358">
        <ele>1397</ele>
        <time>2022-01-29T14:00:04.553Z</time>
      </trkpt>
      <trkpt lat="42.89241" lon="1.45355">
        <ele>1397</ele>
        <time>2022-01-29T14:00:09.548Z</time>
      </trkpt>
      <trkpt lat="42.89244" lon="1.45354">
        <ele>1397</ele>
        <time>2022-01-29T14:00:13.549Z</time>
      </trkpt>
      <trkpt lat="42.89247" lon="1.45355">
        <ele>1397</ele>
        <time>2022-01-29T14:00:18.550Z</time>
      </trkpt>
      <trkpt lat="42.8925" lon="1.45352">
        <ele>1397</ele>
        <time>2022-01-29T14:00:23.534Z</time>
      </trkpt>
      <trkpt lat="42.89252" lon="1.45351">
        <ele>1397</ele>
        <time>2022-01-29T14:00:27.549Z</time>
      </trkpt>
      <trkpt lat="42.89255" lon="1.45348">
        <ele>1397</ele>
        <time>2022-01-29T14:00:31.547Z</time>
      </trkpt>
      <trkpt lat="42.89258" lon="1.45342">
        <ele>1400</ele>
        <time>2022-01-29T14:00:36.550Z</time>
      </trkpt>
      <trkpt lat="42.89259" lon="1.45341">
        <ele>1400</ele>
        <time>2022-01-29T14:00:41.548Z</time>
      </trkpt>
      <trkpt lat="42.89262" lon="1.45341">
        <ele>1400</ele>
        <time>2022-01-29T14:00:45.551Z</time>
      </trkpt>
      <trkpt lat="42.89264" lon="1.45343">
        <ele>1400</ele>
        <time>2022-01-29T14:00:49.587Z</time>
      </trkpt>
      <trkpt lat="42.89266" lon="1.45341">
        <ele>1385</ele>
        <time>2022-01-29T14:00:54.548Z</time>
      </trkpt>
      <trkpt lat="42.89269" lon="1.45341">
        <ele>1385</ele>
        <time>2022-01-29T14:00:58.548Z</time>
      </trkpt>
      <trkpt lat="42.89274" lon="1.4534">
        <ele>1385</ele>
        <time>2022-01-29T14:01:07.550Z</time>
      </trkpt>
      <trkpt lat="42.89278" lon="1.4534">
        <ele>1385</ele>
        <time>2022-01-29T14:01:12.552Z</time>
      </trkpt>
      <trkpt lat="42.89279" lon="1.45345">
        <ele>1385</ele>
        <time>2022-01-29T14:01:17.554Z</time>
      </trkpt>
      <trkpt lat="42.89279" lon="1.45349">
        <ele>1382</ele>
        <time>2022-01-29T14:01:22.553Z</time>
      </trkpt>
      <trkpt lat="42.89282" lon="1.45349">
        <ele>1382</ele>
        <time>2022-01-29T14:01:27.549Z</time>
      </trkpt>
      <trkpt lat="42.89289" lon="1.45354">
        <ele>1382</ele>
        <time>2022-01-29T14:01:50.549Z</time>
      </trkpt>
      <trkpt lat="42.89292" lon="1.45355">
        <ele>1382</ele>
        <time>2022-01-29T14:01:54.580Z</time>
      </trkpt>
      <trkpt lat="42.89293" lon="1.45356">
        <ele>1366</ele>
        <time>2022-01-29T14:01:59.547Z</time>
      </trkpt>
      <trkpt lat="42.89293" lon="1.45357">
        <ele>1366</ele>
        <time>2022-01-29T14:02:03.547Z</time>
      </trkpt>
      <trkpt lat="42.89296" lon="1.45355">
        <ele>1366</ele>
        <time>2022-01-29T14:02:08.551Z</time>
      </trkpt>
      <trkpt lat="42.893" lon="1.45353">
        <ele>1366</ele>
        <time>2022-01-29T14:02:18.551Z</time>
      </trkpt>
      <trkpt lat="42.89302" lon="1.45352">
        <ele>1366</ele>
        <time>2022-01-29T14:02:23.527Z</time>
      </trkpt>
      <trkpt lat="42.89304" lon="1.4535">
        <ele>1366</ele>
        <time>2022-01-29T14:02:27.549Z</time>
      </trkpt>
      <trkpt lat="42.89306" lon="1.4535">
        <ele>1366</ele>
        <time>2022-01-29T14:02:32.549Z</time>
      </trkpt>
      <trkpt lat="42.89308" lon="1.45347">
        <ele>1366</ele>
        <time>2022-01-29T14:02:36.549Z</time>
      </trkpt>
      <trkpt lat="42.89314" lon="1.4534">
        <ele>1370</ele>
        <time>2022-01-29T14:02:49.552Z</time>
      </trkpt>
      <trkpt lat="42.89315" lon="1.4534">
        <ele>1370</ele>
        <time>2022-01-29T14:02:54.553Z</time>
      </trkpt>
      <trkpt lat="42.89315" lon="1.45341">
        <ele>1370</ele>
        <time>2022-01-29T14:02:59.548Z</time>
      </trkpt>
      <trkpt lat="42.89317" lon="1.45336">
        <ele>1370</ele>
        <time>2022-01-29T14:03:40.551Z</time>
      </trkpt>
      <trkpt lat="42.89319" lon="1.45334">
        <ele>1370</ele>
        <time>2022-01-29T14:03:45.549Z</time>
      </trkpt>
      <trkpt lat="42.89322" lon="1.45331">
        <ele>1355</ele>
        <time>2022-01-29T14:03:49.548Z</time>
      </trkpt>
      <trkpt lat="42.89324" lon="1.45328">
        <ele>1355</ele>
        <time>2022-01-29T14:03:54.551Z</time>
      </trkpt>
      <trkpt lat="42.89326" lon="1.45324">
        <ele>1355</ele>
        <time>2022-01-29T14:03:59.556Z</time>
      </trkpt>
      <trkpt lat="42.89329" lon="1.45322">
        <ele>1355</ele>
        <time>2022-01-29T14:04:04.553Z</time>
      </trkpt>
      <trkpt lat="42.89331" lon="1.45321">
        <ele>1355</ele>
        <time>2022-01-29T14:04:09.548Z</time>
      </trkpt>
      <trkpt lat="42.89333" lon="1.45319">
        <ele>1359</ele>
        <time>2022-01-29T14:04:13.551Z</time>
      </trkpt>
      <trkpt lat="42.89336" lon="1.45316">
        <ele>1359</ele>
        <time>2022-01-29T14:04:18.551Z</time>
      </trkpt>
      <trkpt lat="42.89339" lon="1.45314">
        <ele>1359</ele>
        <time>2022-01-29T14:04:23.547Z</time>
      </trkpt>
      <trkpt lat="42.89342" lon="1.45314">
        <ele>1359</ele>
        <time>2022-01-29T14:04:27.551Z</time>
      </trkpt>
      <trkpt lat="42.89343" lon="1.45313">
        <ele>1359</ele>
        <time>2022-01-29T14:04:31.589Z</time>
      </trkpt>
      <trkpt lat="42.89346" lon="1.45312">
        <ele>1359</ele>
        <time>2022-01-29T14:04:36.545Z</time>
      </trkpt>
      <trkpt lat="42.89348" lon="1.45311">
        <ele>1347</ele>
        <time>2022-01-29T14:04:40.550Z</time>
      </trkpt>
      <trkpt lat="42.89351" lon="1.45307">
        <ele>1347</ele>
        <time>2022-01-29T14:04:45.547Z</time>
      </trkpt>
      <trkpt lat="42.89356" lon="1.453">
        <ele>1347</ele>
        <time>2022-01-29T14:05:03.549Z</time>
      </trkpt>
      <trkpt lat="42.8936" lon="1.45299">
        <ele>1347</ele>
        <time>2022-01-29T14:05:07.582Z</time>
      </trkpt>
      <trkpt lat="42.89361" lon="1.45297">
        <ele>1347</ele>
        <time>2022-01-29T14:05:12.546Z</time>
      </trkpt>
      <trkpt lat="42.89363" lon="1.45296">
        <ele>1347</ele>
        <time>2022-01-29T14:05:16.554Z</time>
      </trkpt>
      <trkpt lat="42.89364" lon="1.45296">
        <ele>1347</ele>
        <time>2022-01-29T14:05:21.547Z</time>
      </trkpt>
      <trkpt lat="42.89371" lon="1.45288">
        <ele>1352</ele>
        <time>2022-01-29T14:06:07.549Z</time>
      </trkpt>
      <trkpt lat="42.89371" lon="1.45288">
        <ele>1352</ele>
        <time>2022-01-29T14:06:12.553Z</time>
      </trkpt>
      <trkpt lat="42.89374" lon="1.45282">
        <ele>1352</ele>
        <time>2022-01-29T14:07:38.519Z</time>
      </trkpt>
      <trkpt lat="42.89377" lon="1.45282">
        <ele>1346</ele>
        <time>2022-01-29T14:07:43.516Z</time>
      </trkpt>
      <trkpt lat="42.8938" lon="1.4528">
        <ele>1346</ele>
        <time>2022-01-29T14:07:48.523Z</time>
      </trkpt>
      <trkpt lat="42.89381" lon="1.45278">
        <ele>1346</ele>
        <time>2022-01-29T14:07:52.528Z</time>
      </trkpt>
      <trkpt lat="42.89384" lon="1.45275">
        <ele>1346</ele>
        <time>2022-01-29T14:07:57.528Z</time>
      </trkpt>
      <trkpt lat="42.89386" lon="1.45274">
        <ele>1346</ele>
        <time>2022-01-29T14:08:01.529Z</time>
      </trkpt>
      <trkpt lat="42.8939" lon="1.45275">
        <ele>1346</ele>
        <time>2022-01-29T14:08:06.527Z</time>
      </trkpt>
      <trkpt lat="42.89393" lon="1.45273">
        <ele>1346</ele>
        <time>2022-01-29T14:08:11.528Z</time>
      </trkpt>
      <trkpt lat="42.89396" lon="1.45274">
        <ele>1346</ele>
        <time>2022-01-29T14:08:16.536Z</time>
      </trkpt>
      <trkpt lat="42.89399" lon="1.45272">
        <ele>1346</ele>
        <time>2022-01-29T14:08:21.540Z</time>
      </trkpt>
      <trkpt lat="42.89402" lon="1.45269">
        <ele>1346</ele>
        <time>2022-01-29T14:08:25.531Z</time>
      </trkpt>
      <trkpt lat="42.89404" lon="1.45267">
        <ele>1342</ele>
        <time>2022-01-29T14:08:30.540Z</time>
      </trkpt>
      <trkpt lat="42.89406" lon="1.45264">
        <ele>1350</ele>
        <time>2022-01-29T14:08:35.526Z</time>
      </trkpt>
      <trkpt lat="42.89409" lon="1.45264">
        <ele>1350</ele>
        <time>2022-01-29T14:08:39.535Z</time>
      </trkpt>
      <trkpt lat="42.8941" lon="1.45262">
        <ele>1350</ele>
        <time>2022-01-29T14:08:43.529Z</time>
      </trkpt>
      <trkpt lat="42.89413" lon="1.45261">
        <ele>1350</ele>
        <time>2022-01-29T14:08:47.524Z</time>
      </trkpt>
      <trkpt lat="42.89414" lon="1.45258">
        <ele>1350</ele>
        <time>2022-01-29T14:08:51.522Z</time>
      </trkpt>
      <trkpt lat="42.89418" lon="1.45252">
        <ele>1350</ele>
        <time>2022-01-29T14:09:01.525Z</time>
      </trkpt>
      <trkpt lat="42.89419" lon="1.4525">
        <ele>1350</ele>
        <time>2022-01-29T14:09:05.532Z</time>
      </trkpt>
      <trkpt lat="42.89421" lon="1.4525">
        <ele>1350</ele>
        <time>2022-01-29T14:09:10.535Z</time>
      </trkpt>
      <trkpt lat="42.89423" lon="1.45249">
        <ele>1350</ele>
        <time>2022-01-29T14:09:14.538Z</time>
      </trkpt>
      <trkpt lat="42.89427" lon="1.45248">
        <ele>1350</ele>
        <time>2022-01-29T14:09:19.531Z</time>
      </trkpt>
      <trkpt lat="42.8943" lon="1.45249">
        <ele>1350</ele>
        <time>2022-01-29T14:09:24.526Z</time>
      </trkpt>
      <trkpt lat="42.8943" lon="1.45249">
        <ele>1350</ele>
        <time>2022-01-29T14:09:28.546Z</time>
      </trkpt>
      <trkpt lat="42.89431" lon="1.45249">
        <ele>1350</ele>
        <time>2022-01-29T14:09:33.523Z</time>
      </trkpt>
      <trkpt lat="42.89434" lon="1.45245">
        <ele>1350</ele>
        <time>2022-01-29T14:09:38.547Z</time>
      </trkpt>
      <trkpt lat="42.89438" lon="1.45242">
        <ele>1350</ele>
        <time>2022-01-29T14:09:43.526Z</time>
      </trkpt>
      <trkpt lat="42.89441" lon="1.45243">
        <ele>1350</ele>
        <time>2022-01-29T14:09:48.534Z</time>
      </trkpt>
      <trkpt lat="42.89444" lon="1.45241">
        <ele>1350</ele>
        <time>2022-01-29T14:09:52.537Z</time>
      </trkpt>
      <trkpt lat="42.89448" lon="1.4524">
        <ele>1350</ele>
        <time>2022-01-29T14:09:57.523Z</time>
      </trkpt>
      <trkpt lat="42.89451" lon="1.45239">
        <ele>1350</ele>
        <time>2022-01-29T14:10:01.535Z</time>
      </trkpt>
      <trkpt lat="42.89455" lon="1.45241">
        <ele>1350</ele>
        <time>2022-01-29T14:10:06.535Z</time>
      </trkpt>
      <trkpt lat="42.89458" lon="1.45242">
        <ele>1350</ele>
        <time>2022-01-29T14:10:11.534Z</time>
      </trkpt>
      <trkpt lat="42.89461" lon="1.45242">
        <ele>1346</ele>
        <time>2022-01-29T14:10:16.534Z</time>
      </trkpt>
      <trkpt lat="42.89464" lon="1.45243">
        <ele>1346</ele>
        <time>2022-01-29T14:10:21.535Z</time>
      </trkpt>
      <trkpt lat="42.89467" lon="1.45244">
        <ele>1346</ele>
        <time>2022-01-29T14:10:25.525Z</time>
      </trkpt>
      <trkpt lat="42.89468" lon="1.45244">
        <ele>1346</ele>
        <time>2022-01-29T14:10:29.538Z</time>
      </trkpt>
      <trkpt lat="42.89471" lon="1.45243">
        <ele>1346</ele>
        <time>2022-01-29T14:10:34.532Z</time>
      </trkpt>
      <trkpt lat="42.89474" lon="1.45242">
        <ele>1346</ele>
        <time>2022-01-29T14:10:38.544Z</time>
      </trkpt>
      <trkpt lat="42.89477" lon="1.45241">
        <ele>1346</ele>
        <time>2022-01-29T14:10:43.529Z</time>
      </trkpt>
      <trkpt lat="42.89479" lon="1.4524">
        <ele>1346</ele>
        <time>2022-01-29T14:10:48.540Z</time>
      </trkpt>
      <trkpt lat="42.89481" lon="1.4524">
        <ele>1346</ele>
        <time>2022-01-29T14:10:53.541Z</time>
      </trkpt>
      <trkpt lat="42.89484" lon="1.45241">
        <ele>1346</ele>
        <time>2022-01-29T14:10:57.529Z</time>
      </trkpt>
      <trkpt lat="42.89486" lon="1.45242">
        <ele>1346</ele>
        <time>2022-01-29T14:11:02.545Z</time>
      </trkpt>
      <trkpt lat="42.89488" lon="1.45242">
        <ele>1340</ele>
        <time>2022-01-29T14:11:07.535Z</time>
      </trkpt>
      <trkpt lat="42.89491" lon="1.45242">
        <ele>1340</ele>
        <time>2022-01-29T14:11:12.537Z</time>
      </trkpt>
      <trkpt lat="42.89495" lon="1.4524">
        <ele>1340</ele>
        <time>2022-01-29T14:11:17.539Z</time>
      </trkpt>
      <trkpt lat="42.89498" lon="1.45235">
        <ele>1354</ele>
        <time>2022-01-29T14:11:22.535Z</time>
      </trkpt>
      <trkpt lat="42.89502" lon="1.45236">
        <ele>1340</ele>
        <time>2022-01-29T14:11:27.527Z</time>
      </trkpt>
      <trkpt lat="42.89505" lon="1.45235">
        <ele>1354</ele>
        <time>2022-01-29T14:11:32.539Z</time>
      </trkpt>
      <trkpt lat="42.89509" lon="1.45237">
        <ele>1340</ele>
        <time>2022-01-29T14:11:36.544Z</time>
      </trkpt>
      <trkpt lat="42.89512" lon="1.45239">
        <ele>1340</ele>
        <time>2022-01-29T14:11:41.524Z</time>
      </trkpt>
      <trkpt lat="42.89515" lon="1.45241">
        <ele>1337</ele>
        <time>2022-01-29T14:11:46.526Z</time>
      </trkpt>
      <trkpt lat="42.89518" lon="1.45242">
        <ele>1337</ele>
        <time>2022-01-29T14:11:51.532Z</time>
      </trkpt>
      <trkpt lat="42.89522" lon="1.45242">
        <ele>1337</ele>
        <time>2022-01-29T14:12:00.538Z</time>
      </trkpt>
      <trkpt lat="42.89525" lon="1.45244">
        <ele>1337</ele>
        <time>2022-01-29T14:12:05.525Z</time>
      </trkpt>
      <trkpt lat="42.89526" lon="1.45246">
        <ele>1337</ele>
        <time>2022-01-29T14:12:09.532Z</time>
      </trkpt>
      <trkpt lat="42.89527" lon="1.45245">
        <ele>1337</ele>
        <time>2022-01-29T14:12:14.538Z</time>
      </trkpt>
      <trkpt lat="42.89528" lon="1.45246">
        <ele>1337</ele>
        <time>2022-01-29T14:12:33.524Z</time>
      </trkpt>
      <trkpt lat="42.89528" lon="1.45248">
        <ele>1337</ele>
        <time>2022-01-29T14:12:43.529Z</time>
      </trkpt>
      <trkpt lat="42.89526" lon="1.45245">
        <ele>1337</ele>
        <time>2022-01-29T14:13:29.538Z</time>
      </trkpt>
      <trkpt lat="42.89531" lon="1.45245">
        <ele>1337</ele>
        <time>2022-01-29T14:13:34.539Z</time>
      </trkpt>
      <trkpt lat="42.89535" lon="1.45245">
        <ele>1337</ele>
        <time>2022-01-29T14:13:39.526Z</time>
      </trkpt>
      <trkpt lat="42.89538" lon="1.45246">
        <ele>1337</ele>
        <time>2022-01-29T14:13:43.524Z</time>
      </trkpt>
      <trkpt lat="42.89542" lon="1.45247">
        <ele>1333</ele>
        <time>2022-01-29T14:13:48.535Z</time>
      </trkpt>
      <trkpt lat="42.89545" lon="1.45246">
        <ele>1333</ele>
        <time>2022-01-29T14:13:52.542Z</time>
      </trkpt>
      <trkpt lat="42.89547" lon="1.45246">
        <ele>1333</ele>
        <time>2022-01-29T14:13:57.541Z</time>
      </trkpt>
      <trkpt lat="42.8955" lon="1.45245">
        <ele>1333</ele>
        <time>2022-01-29T14:14:02.530Z</time>
      </trkpt>
      <trkpt lat="42.89551" lon="1.45244">
        <ele>1333</ele>
        <time>2022-01-29T14:14:06.537Z</time>
      </trkpt>
      <trkpt lat="42.89553" lon="1.45244">
        <ele>1333</ele>
        <time>2022-01-29T14:14:11.527Z</time>
      </trkpt>
      <trkpt lat="42.89558" lon="1.45244">
        <ele>1333</ele>
        <time>2022-01-29T14:14:16.539Z</time>
      </trkpt>
      <trkpt lat="42.8956" lon="1.45245">
        <ele>1333</ele>
        <time>2022-01-29T14:14:21.523Z</time>
      </trkpt>
      <trkpt lat="42.89566" lon="1.45245">
        <ele>1333</ele>
        <time>2022-01-29T14:14:26.539Z</time>
      </trkpt>
      <trkpt lat="42.8957" lon="1.45246">
        <ele>1331</ele>
        <time>2022-01-29T14:14:35.527Z</time>
      </trkpt>
      <trkpt lat="42.89571" lon="1.45248">
        <ele>1331</ele>
        <time>2022-01-29T14:14:39.531Z</time>
      </trkpt>
      <trkpt lat="42.89572" lon="1.45249">
        <ele>1331</ele>
        <time>2022-01-29T14:14:44.520Z</time>
      </trkpt>
      <trkpt lat="42.89576" lon="1.4525">
        <ele>1331</ele>
        <time>2022-01-29T14:14:48.538Z</time>
      </trkpt>
      <trkpt lat="42.89579" lon="1.45252">
        <ele>1331</ele>
        <time>2022-01-29T14:14:52.542Z</time>
      </trkpt>
      <trkpt lat="42.89585" lon="1.45253">
        <ele>1331</ele>
        <time>2022-01-29T14:15:01.528Z</time>
      </trkpt>
      <trkpt lat="42.89586" lon="1.45252">
        <ele>1331</ele>
        <time>2022-01-29T14:15:05.540Z</time>
      </trkpt>
      <trkpt lat="42.89587" lon="1.45255">
        <ele>1331</ele>
        <time>2022-01-29T14:15:10.542Z</time>
      </trkpt>
      <trkpt lat="42.8959" lon="1.45256">
        <ele>1331</ele>
        <time>2022-01-29T14:15:14.539Z</time>
      </trkpt>
      <trkpt lat="42.89592" lon="1.45258">
        <ele>1331</ele>
        <time>2022-01-29T14:15:19.525Z</time>
      </trkpt>
      <trkpt lat="42.89597" lon="1.45258">
        <ele>1331</ele>
        <time>2022-01-29T14:15:33.540Z</time>
      </trkpt>
      <trkpt lat="42.89598" lon="1.45257">
        <ele>1329</ele>
        <time>2022-01-29T14:15:37.539Z</time>
      </trkpt>
      <trkpt lat="42.89599" lon="1.45257">
        <ele>1329</ele>
        <time>2022-01-29T14:15:42.519Z</time>
      </trkpt>
      <trkpt lat="42.89603" lon="1.45259">
        <ele>1329</ele>
        <time>2022-01-29T14:15:46.538Z</time>
      </trkpt>
      <trkpt lat="42.89605" lon="1.45259">
        <ele>1329</ele>
        <time>2022-01-29T14:15:51.527Z</time>
      </trkpt>
      <trkpt lat="42.8961" lon="1.45265">
        <ele>1320</ele>
        <time>2022-01-29T14:15:56.528Z</time>
      </trkpt>
      <trkpt lat="42.89612" lon="1.45267">
        <ele>1320</ele>
        <time>2022-01-29T14:16:00.537Z</time>
      </trkpt>
      <trkpt lat="42.89616" lon="1.45269">
        <ele>1320</ele>
        <time>2022-01-29T14:16:05.528Z</time>
      </trkpt>
      <trkpt lat="42.89619" lon="1.45269">
        <ele>1320</ele>
        <time>2022-01-29T14:16:09.528Z</time>
      </trkpt>
      <trkpt lat="42.89624" lon="1.45269">
        <ele>1320</ele>
        <time>2022-01-29T14:16:18.546Z</time>
      </trkpt>
      <trkpt lat="42.89627" lon="1.45267">
        <ele>1319</ele>
        <time>2022-01-29T14:16:23.531Z</time>
      </trkpt>
      <trkpt lat="42.89629" lon="1.45268">
        <ele>1319</ele>
        <time>2022-01-29T14:16:27.527Z</time>
      </trkpt>
      <trkpt lat="42.8963" lon="1.45266">
        <ele>1319</ele>
        <time>2022-01-29T14:16:32.528Z</time>
      </trkpt>
      <trkpt lat="42.89631" lon="1.45266">
        <ele>1319</ele>
        <time>2022-01-29T14:16:36.541Z</time>
      </trkpt>
      <trkpt lat="42.89632" lon="1.45265">
        <ele>1319</ele>
        <time>2022-01-29T14:20:41.547Z</time>
      </trkpt>
      <trkpt lat="42.89633" lon="1.45265">
        <ele>1319</ele>
        <time>2022-01-29T14:20:46.587Z</time>
      </trkpt>
      <trkpt lat="42.89635" lon="1.45271">
        <ele>1319</ele>
        <time>2022-01-29T14:20:51.544Z</time>
      </trkpt>
      <trkpt lat="42.89638" lon="1.45275">
        <ele>1319</ele>
        <time>2022-01-29T14:20:55.547Z</time>
      </trkpt>
      <trkpt lat="42.89638" lon="1.45277">
        <ele>1319</ele>
        <time>2022-01-29T14:21:00.551Z</time>
      </trkpt>
      <trkpt lat="42.89639" lon="1.45281">
        <ele>1319</ele>
        <time>2022-01-29T14:21:04.587Z</time>
      </trkpt>
      <trkpt lat="42.8964" lon="1.45288">
        <ele>1319</ele>
        <time>2022-01-29T14:21:09.546Z</time>
      </trkpt>
      <trkpt lat="42.89644" lon="1.45292">
        <ele>1319</ele>
        <time>2022-01-29T14:21:14.547Z</time>
      </trkpt>
      <trkpt lat="42.89648" lon="1.45296">
        <ele>1310</ele>
        <time>2022-01-29T14:21:19.542Z</time>
      </trkpt>
      <trkpt lat="42.89651" lon="1.453">
        <ele>1310</ele>
        <time>2022-01-29T14:21:24.552Z</time>
      </trkpt>
      <trkpt lat="42.89654" lon="1.45303">
        <ele>1306</ele>
        <time>2022-01-29T14:21:29.532Z</time>
      </trkpt>
      <trkpt lat="42.89653" lon="1.45306">
        <ele>1306</ele>
        <time>2022-01-29T14:21:33.581Z</time>
      </trkpt>
      <trkpt lat="42.89656" lon="1.45312">
        <ele>1306</ele>
        <time>2022-01-29T14:21:38.549Z</time>
      </trkpt>
      <trkpt lat="42.89656" lon="1.45316">
        <ele>1306</ele>
        <time>2022-01-29T14:21:42.548Z</time>
      </trkpt>
      <trkpt lat="42.89658" lon="1.4532">
        <ele>1298</ele>
        <time>2022-01-29T14:21:47.546Z</time>
      </trkpt>
      <trkpt lat="42.89657" lon="1.45322">
        <ele>1298</ele>
        <time>2022-01-29T14:21:51.536Z</time>
      </trkpt>
      <trkpt lat="42.89656" lon="1.45326">
        <ele>1298</ele>
        <time>2022-01-29T14:21:56.548Z</time>
      </trkpt>
      <trkpt lat="42.89656" lon="1.4533">
        <ele>1298</ele>
        <time>2022-01-29T14:22:01.548Z</time>
      </trkpt>
      <trkpt lat="42.89659" lon="1.45332">
        <ele>1298</ele>
        <time>2022-01-29T14:22:06.547Z</time>
      </trkpt>
      <trkpt lat="42.89659" lon="1.45336">
        <ele>1298</ele>
        <time>2022-01-29T14:22:11.546Z</time>
      </trkpt>
      <trkpt lat="42.89658" lon="1.4534">
        <ele>1298</ele>
        <time>2022-01-29T14:22:15.548Z</time>
      </trkpt>
      <trkpt lat="42.89659" lon="1.45343">
        <ele>1298</ele>
        <time>2022-01-29T14:22:20.549Z</time>
      </trkpt>
      <trkpt lat="42.89658" lon="1.45347">
        <ele>1298</ele>
        <time>2022-01-29T14:22:25.547Z</time>
      </trkpt>
      <trkpt lat="42.89657" lon="1.4535">
        <ele>1292</ele>
        <time>2022-01-29T14:22:29.554Z</time>
      </trkpt>
      <trkpt lat="42.89659" lon="1.45356">
        <ele>1292</ele>
        <time>2022-01-29T14:22:34.549Z</time>
      </trkpt>
      <trkpt lat="42.8966" lon="1.45359">
        <ele>1292</ele>
        <time>2022-01-29T14:22:38.582Z</time>
      </trkpt>
      <trkpt lat="42.8966" lon="1.45361">
        <ele>1292</ele>
        <time>2022-01-29T14:22:43.547Z</time>
      </trkpt>
      <trkpt lat="42.8966" lon="1.45364">
        <ele>1292</ele>
        <time>2022-01-29T14:22:47.550Z</time>
      </trkpt>
      <trkpt lat="42.8966" lon="1.45368">
        <ele>1292</ele>
        <time>2022-01-29T14:22:52.548Z</time>
      </trkpt>
      <trkpt lat="42.89659" lon="1.45372">
        <ele>1292</ele>
        <time>2022-01-29T14:22:57.594Z</time>
      </trkpt>
      <trkpt lat="42.89661" lon="1.45376">
        <ele>1286</ele>
        <time>2022-01-29T14:23:02.543Z</time>
      </trkpt>
      <trkpt lat="42.89662" lon="1.45381">
        <ele>1286</ele>
        <time>2022-01-29T14:23:06.544Z</time>
      </trkpt>
      <trkpt lat="42.89662" lon="1.45386">
        <ele>1286</ele>
        <time>2022-01-29T14:23:11.546Z</time>
      </trkpt>
      <trkpt lat="42.89661" lon="1.45389">
        <ele>1286</ele>
        <time>2022-01-29T14:23:15.545Z</time>
      </trkpt>
      <trkpt lat="42.8966" lon="1.45393">
        <ele>1286</ele>
        <time>2022-01-29T14:23:20.547Z</time>
      </trkpt>
      <trkpt lat="42.8966" lon="1.45398">
        <ele>1286</ele>
        <time>2022-01-29T14:23:25.545Z</time>
      </trkpt>
      <trkpt lat="42.89665" lon="1.45403">
        <ele>1279</ele>
        <time>2022-01-29T14:23:47.547Z</time>
      </trkpt>
      <trkpt lat="42.89666" lon="1.45402">
        <ele>1286</ele>
        <time>2022-01-29T14:23:52.547Z</time>
      </trkpt>
      <trkpt lat="42.89668" lon="1.454">
        <ele>1286</ele>
        <time>2022-01-29T14:23:56.546Z</time>
      </trkpt>
      <trkpt lat="42.89668" lon="1.454">
        <ele>1286</ele>
        <time>2022-01-29T14:24:01.544Z</time>
      </trkpt>
      <trkpt lat="42.8967" lon="1.454">
        <ele>1286</ele>
        <time>2022-01-29T14:24:06.546Z</time>
      </trkpt>
      <trkpt lat="42.89672" lon="1.45398">
        <ele>1286</ele>
        <time>2022-01-29T14:24:15.546Z</time>
      </trkpt>
      <trkpt lat="42.89673" lon="1.45394">
        <ele>1286</ele>
        <time>2022-01-29T14:24:20.543Z</time>
      </trkpt>
      <trkpt lat="42.89674" lon="1.4539">
        <ele>1286</ele>
        <time>2022-01-29T14:24:24.545Z</time>
      </trkpt>
      <trkpt lat="42.89678" lon="1.45387">
        <ele>1286</ele>
        <time>2022-01-29T14:24:29.547Z</time>
      </trkpt>
      <trkpt lat="42.89683" lon="1.45385">
        <ele>1281</ele>
        <time>2022-01-29T14:24:34.517Z</time>
      </trkpt>
      <trkpt lat="42.89687" lon="1.45384">
        <ele>1281</ele>
        <time>2022-01-29T14:24:38.542Z</time>
      </trkpt>
      <trkpt lat="42.89689" lon="1.45382">
        <ele>1281</ele>
        <time>2022-01-29T14:24:42.546Z</time>
      </trkpt>
      <trkpt lat="42.89694" lon="1.45381">
        <ele>1281</ele>
        <time>2022-01-29T14:24:47.547Z</time>
      </trkpt>
      <trkpt lat="42.89697" lon="1.45382">
        <ele>1281</ele>
        <time>2022-01-29T14:24:51.563Z</time>
      </trkpt>
      <trkpt lat="42.89698" lon="1.45381">
        <ele>1281</ele>
        <time>2022-01-29T14:24:56.543Z</time>
      </trkpt>
      <trkpt lat="42.89701" lon="1.45379">
        <ele>1281</ele>
        <time>2022-01-29T14:25:00.548Z</time>
      </trkpt>
      <trkpt lat="42.89704" lon="1.45375">
        <ele>1287</ele>
        <time>2022-01-29T14:25:05.544Z</time>
      </trkpt>
      <trkpt lat="42.89706" lon="1.45372">
        <ele>1287</ele>
        <time>2022-01-29T14:25:09.545Z</time>
      </trkpt>
      <trkpt lat="42.8971" lon="1.4537">
        <ele>1279</ele>
        <time>2022-01-29T14:25:14.545Z</time>
      </trkpt>
      <trkpt lat="42.89712" lon="1.45368">
        <ele>1279</ele>
        <time>2022-01-29T14:25:18.545Z</time>
      </trkpt>
      <trkpt lat="42.89715" lon="1.45366">
        <ele>1279</ele>
        <time>2022-01-29T14:25:23.546Z</time>
      </trkpt>
      <trkpt lat="42.89719" lon="1.45365">
        <ele>1279</ele>
        <time>2022-01-29T14:25:28.544Z</time>
      </trkpt>
      <trkpt lat="42.89723" lon="1.45361">
        <ele>1279</ele>
        <time>2022-01-29T14:25:33.547Z</time>
      </trkpt>
      <trkpt lat="42.89725" lon="1.45359">
        <ele>1279</ele>
        <time>2022-01-29T14:25:37.551Z</time>
      </trkpt>
      <trkpt lat="42.89728" lon="1.45357">
        <ele>1279</ele>
        <time>2022-01-29T14:25:42.547Z</time>
      </trkpt>
      <trkpt lat="42.89732" lon="1.45355">
        <ele>1279</ele>
        <time>2022-01-29T14:25:47.544Z</time>
      </trkpt>
      <trkpt lat="42.89734" lon="1.45353">
        <ele>1279</ele>
        <time>2022-01-29T14:25:52.547Z</time>
      </trkpt>
      <trkpt lat="42.89737" lon="1.45351">
        <ele>1271</ele>
        <time>2022-01-29T14:25:57.546Z</time>
      </trkpt>
      <trkpt lat="42.8974" lon="1.45349">
        <ele>1271</ele>
        <time>2022-01-29T14:26:01.546Z</time>
      </trkpt>
      <trkpt lat="42.89743" lon="1.45346">
        <ele>1278</ele>
        <time>2022-01-29T14:26:06.548Z</time>
      </trkpt>
      <trkpt lat="42.89745" lon="1.45344">
        <ele>1278</ele>
        <time>2022-01-29T14:26:10.548Z</time>
      </trkpt>
      <trkpt lat="42.8975" lon="1.45345">
        <ele>1278</ele>
        <time>2022-01-29T14:26:15.550Z</time>
      </trkpt>
      <trkpt lat="42.89754" lon="1.45343">
        <ele>1278</ele>
        <time>2022-01-29T14:26:19.547Z</time>
      </trkpt>
      <trkpt lat="42.89757" lon="1.4534">
        <ele>1278</ele>
        <time>2022-01-29T14:26:24.545Z</time>
      </trkpt>
      <trkpt lat="42.89757" lon="1.45338">
        <ele>1278</ele>
        <time>2022-01-29T14:26:28.547Z</time>
      </trkpt>
      <trkpt lat="42.89759" lon="1.45336">
        <ele>1278</ele>
        <time>2022-01-29T14:26:33.547Z</time>
      </trkpt>
      <trkpt lat="42.89762" lon="1.45335">
        <ele>1278</ele>
        <time>2022-01-29T14:26:37.583Z</time>
      </trkpt>
      <trkpt lat="42.89765" lon="1.45333">
        <ele>1270</ele>
        <time>2022-01-29T14:26:42.549Z</time>
      </trkpt>
      <trkpt lat="42.89765" lon="1.45329">
        <ele>1270</ele>
        <time>2022-01-29T14:26:47.545Z</time>
      </trkpt>
      <trkpt lat="42.89769" lon="1.45328">
        <ele>1270</ele>
        <time>2022-01-29T14:26:52.549Z</time>
      </trkpt>
      <trkpt lat="42.89774" lon="1.45326">
        <ele>1270</ele>
        <time>2022-01-29T14:26:57.548Z</time>
      </trkpt>
      <trkpt lat="42.89776" lon="1.45324">
        <ele>1270</ele>
        <time>2022-01-29T14:27:01.595Z</time>
      </trkpt>
      <trkpt lat="42.8978" lon="1.45324">
        <ele>1270</ele>
        <time>2022-01-29T14:27:06.547Z</time>
      </trkpt>
      <trkpt lat="42.89782" lon="1.4532">
        <ele>1270</ele>
        <time>2022-01-29T14:27:11.547Z</time>
      </trkpt>
      <trkpt lat="42.89785" lon="1.45319">
        <ele>1274</ele>
        <time>2022-01-29T14:27:16.546Z</time>
      </trkpt>
      <trkpt lat="42.8979" lon="1.45315">
        <ele>1274</ele>
        <time>2022-01-29T14:27:21.532Z</time>
      </trkpt>
      <trkpt lat="42.89795" lon="1.45312">
        <ele>1265</ele>
        <time>2022-01-29T14:27:26.539Z</time>
      </trkpt>
      <trkpt lat="42.89797" lon="1.45312">
        <ele>1265</ele>
        <time>2022-01-29T14:27:30.547Z</time>
      </trkpt>
      <trkpt lat="42.89799" lon="1.4531">
        <ele>1265</ele>
        <time>2022-01-29T14:27:35.547Z</time>
      </trkpt>
      <trkpt lat="42.89804" lon="1.45308">
        <ele>1265</ele>
        <time>2022-01-29T14:27:40.547Z</time>
      </trkpt>
      <trkpt lat="42.89808" lon="1.45305">
        <ele>1265</ele>
        <time>2022-01-29T14:27:44.550Z</time>
      </trkpt>
      <trkpt lat="42.89813" lon="1.45302">
        <ele>1265</ele>
        <time>2022-01-29T14:27:49.528Z</time>
      </trkpt>
      <trkpt lat="42.89816" lon="1.45299">
        <ele>1265</ele>
        <time>2022-01-29T14:27:53.548Z</time>
      </trkpt>
      <trkpt lat="42.8982" lon="1.45296">
        <ele>1257</ele>
        <time>2022-01-29T14:27:58.547Z</time>
      </trkpt>
      <trkpt lat="42.89822" lon="1.45292">
        <ele>1259</ele>
        <time>2022-01-29T14:28:02.551Z</time>
      </trkpt>
      <trkpt lat="42.89825" lon="1.45289">
        <ele>1259</ele>
        <time>2022-01-29T14:28:07.546Z</time>
      </trkpt>
      <trkpt lat="42.89829" lon="1.45288">
        <ele>1259</ele>
        <time>2022-01-29T14:28:11.548Z</time>
      </trkpt>
      <trkpt lat="42.89836" lon="1.45288">
        <ele>1259</ele>
        <time>2022-01-29T14:28:16.547Z</time>
      </trkpt>
      <trkpt lat="42.89841" lon="1.45288">
        <ele>1259</ele>
        <time>2022-01-29T14:28:20.546Z</time>
      </trkpt>
      <trkpt lat="42.89847" lon="1.45289">
        <ele>1259</ele>
        <time>2022-01-29T14:28:24.549Z</time>
      </trkpt>
      <trkpt lat="42.89852" lon="1.45288">
        <ele>1253</ele>
        <time>2022-01-29T14:28:29.545Z</time>
      </trkpt>
      <trkpt lat="42.89855" lon="1.45288">
        <ele>1253</ele>
        <time>2022-01-29T14:28:34.546Z</time>
      </trkpt>
      <trkpt lat="42.89857" lon="1.45289">
        <ele>1253</ele>
        <time>2022-01-29T14:28:38.547Z</time>
      </trkpt>
      <trkpt lat="42.89863" lon="1.45291">
        <ele>1253</ele>
        <time>2022-01-29T14:28:43.545Z</time>
      </trkpt>
      <trkpt lat="42.89869" lon="1.45289">
        <ele>1253</ele>
        <time>2022-01-29T14:28:48.546Z</time>
      </trkpt>
      <trkpt lat="42.89873" lon="1.45289">
        <ele>1253</ele>
        <time>2022-01-29T14:28:52.580Z</time>
      </trkpt>
      <trkpt lat="42.89876" lon="1.4529">
        <ele>1250</ele>
        <time>2022-01-29T14:28:57.544Z</time>
      </trkpt>
      <trkpt lat="42.8988" lon="1.4529">
        <ele>1250</ele>
        <time>2022-01-29T14:29:01.547Z</time>
      </trkpt>
      <trkpt lat="42.89883" lon="1.45291">
        <ele>1250</ele>
        <time>2022-01-29T14:29:06.546Z</time>
      </trkpt>
      <trkpt lat="42.89886" lon="1.45292">
        <ele>1248</ele>
        <time>2022-01-29T14:29:10.592Z</time>
      </trkpt>
      <trkpt lat="42.89888" lon="1.45292">
        <ele>1248</ele>
        <time>2022-01-29T14:29:15.544Z</time>
      </trkpt>
      <trkpt lat="42.8989" lon="1.45292">
        <ele>1248</ele>
        <time>2022-01-29T14:29:19.547Z</time>
      </trkpt>
      <trkpt lat="42.89896" lon="1.45304">
        <ele>1248</ele>
        <time>2022-01-29T14:29:42.548Z</time>
      </trkpt>
      <trkpt lat="42.89898" lon="1.4531">
        <ele>1248</ele>
        <time>2022-01-29T14:29:47.544Z</time>
      </trkpt>
      <trkpt lat="42.89899" lon="1.45315">
        <ele>1248</ele>
        <time>2022-01-29T14:29:51.536Z</time>
      </trkpt>
      <trkpt lat="42.899" lon="1.45321">
        <ele>1245</ele>
        <time>2022-01-29T14:29:56.541Z</time>
      </trkpt>
      <trkpt lat="42.89901" lon="1.45325">
        <ele>1245</ele>
        <time>2022-01-29T14:30:00.549Z</time>
      </trkpt>
      <trkpt lat="42.89904" lon="1.45328">
        <ele>1247</ele>
        <time>2022-01-29T14:30:05.551Z</time>
      </trkpt>
      <trkpt lat="42.89906" lon="1.45333">
        <ele>1247</ele>
        <time>2022-01-29T14:30:09.545Z</time>
      </trkpt>
      <trkpt lat="42.89908" lon="1.45338">
        <ele>1247</ele>
        <time>2022-01-29T14:30:14.545Z</time>
      </trkpt>
      <trkpt lat="42.89909" lon="1.45344">
        <ele>1247</ele>
        <time>2022-01-29T14:30:18.546Z</time>
      </trkpt>
      <trkpt lat="42.89911" lon="1.45351">
        <ele>1247</ele>
        <time>2022-01-29T14:30:23.547Z</time>
      </trkpt>
      <trkpt lat="42.89914" lon="1.45354">
        <ele>1247</ele>
        <time>2022-01-29T14:30:27.546Z</time>
      </trkpt>
      <trkpt lat="42.89919" lon="1.45358">
        <ele>1247</ele>
        <time>2022-01-29T14:30:32.545Z</time>
      </trkpt>
      <trkpt lat="42.89922" lon="1.4536">
        <ele>1247</ele>
        <time>2022-01-29T14:30:36.544Z</time>
      </trkpt>
      <trkpt lat="42.89924" lon="1.45364">
        <ele>1247</ele>
        <time>2022-01-29T14:30:41.544Z</time>
      </trkpt>
      <trkpt lat="42.89924" lon="1.45366">
        <ele>1247</ele>
        <time>2022-01-29T14:30:45.546Z</time>
      </trkpt>
      <trkpt lat="42.89924" lon="1.4537">
        <ele>1247</ele>
        <time>2022-01-29T14:30:50.545Z</time>
      </trkpt>
      <trkpt lat="42.89925" lon="1.45372">
        <ele>1247</ele>
        <time>2022-01-29T14:30:54.546Z</time>
      </trkpt>
      <trkpt lat="42.89927" lon="1.45376">
        <ele>1245</ele>
        <time>2022-01-29T14:30:59.534Z</time>
      </trkpt>
    </trkseg>
  </trk>
</gpx>